Time,TemperatureF,DewpointF,PressureIn,WindDirection,WindDirectionDegrees,WindSpeedMPH,WindSpeedGustMPH,Humidity,HourlyPrecipIn,Conditions,Clouds,dailyrainin,SolarRadiationWatts/m^2,SoftwareType,DateUTC
2013-09-20 00:00:00,77.9,67.3,29.01,WNW,290,6.0,13.0,70,0.00,,CLR,0.00,0.00,VWS V14.01,2013-09-20 05:00:00,
2013-09-20 00:01:00,77.6,66.6,29.01,WNW,297,4.0,12.0,69,0.00,,BKN002,0.00,0.00,VWS V14.01,2013-09-20 05:01:00,
2013-09-20 00:02:00,77.3,65.9,29.01,WNW,289,2.0,6.0,68,0.00,,BKN002,0.00,0.00,VWS V14.01,2013-09-20 05:02:00,
2013-09-20 00:03:00,77.0,65.6,29.02,SSE,148,7.0,11.0,68,0.00,,BKN002,0.00,0.00,VWS V14.01,2013-09-20 05:03:00,
2013-09-20 00:04:00,76.6,65.3,29.03,NW,313,4.0,9.0,68,0.00,,BKN002,0.00,0.00,VWS V14.01,2013-09-20 05:04:00,
2013-09-20 00:05:00,76.3,65.0,29.03,NW,304,3.0,4.0,68,0.00,,BKN002,0.00,0.00,VWS V14.01,2013-09-20 05:05:00,
2013-09-20 00:06:00,76.1,65.2,29.03,WNW,292,1.0,4.0,69,0.00,,CLR,0.00,0.00,VWS V14.01,2013-09-20 05:06:00,
2013-09-20 00:07:00,75.8,65.3,29.03,WNW,300,9.0,9.0,70,0.00,,BKN002,0.00,0.00,VWS V14.01,2013-09-20 05:07:00,
2013-09-20 00:08:00,75.5,65.4,29.03,NW,322,6.0,9.0,71,0.00,,BKN002,0.00,0.00,VWS V14.01,2013-09-20 05:08:00,
2013-09-20 00:09:00,74.9,65.3,29.03,WNW,283,4.0,13.0,72,0.00,,CLR,0.00,0.00,VWS V14.01,2013-09-20 05:09:00,
2013-09-20 00:10:00,74.4,65.6,29.04,West,275,1.0,8.0,74,0.00,,CLR,0.00,0.00,VWS V14.01,2013-09-20 05:10:00,
2013-09-20 00:11:00,74.0,65.6,29.03,NW,321,0.0,4.0,75,0.00,,BKN002,0.00,0.00,VWS V14.01,2013-09-20 05:11:00,
2013-09-20 00:12:00,73.6,65.6,29.03,NW,321,0.0,1.0,76,0.00,,BKN002,0.00,0.00,VWS V14.01,2013-09-20 05:12:00,
2013-09-20 00:13:00,73.3,65.7,29.03,NW,321,0.0,2.0,77,0.00,,BKN002,0.00,0.00,VWS V14.01,2013-09-20 05:13:00,
2013-09-20 00:14:00,73.0,65.4,29.04,NW,313,6.0,10.0,77,0.00,,CLR,0.00,0.00,VWS V14.01,2013-09-20 05:14:00,
2013-09-20 00:15:00,72.6,65.7,29.03,NW,319,5.0,6.0,79,0.00,,CLR,0.00,0.00,VWS V14.01,2013-09-20 05:15:00,
2013-09-20 00:16:00,72.3,65.4,29.03,NW,319,1.0,5.0,79,0.00,,BKN002,0.00,0.00,VWS V14.01,2013-09-20 05:16:00,
2013-09-20 00:17:00,72.0,65.5,29.03,NW,319,3.0,5.0,80,0.00,,CLR,0.00,0.00,VWS V14.01,2013-09-20 05:17:00,
2013-09-20 00:18:00,71.6,65.5,29.03,WSW,238,3.0,4.0,81,0.00,,BKN002,0.00,0.00,VWS V14.01,2013-09-20 05:18:00,
2013-09-20 00:19:00,71.3,65.5,29.02,NW,305,0.0,3.0,82,0.00,,BKN002,0.00,0.00,VWS V14.01,2013-09-20 05:19:00,
2013-09-20 00:20:00,71.1,65.3,29.02,NW,304,0.0,2.0,82,0.00,,CLR,0.00,0.00,VWS V14.01,2013-09-20 05:20:00,
2013-09-20 00:21:00,70.9,65.5,29.02,NW,304,0.0,3.0,83,0.00,,BKN002,0.00,0.00,VWS V14.01,2013-09-20 05:21:00,
2013-09-20 00:22:00,70.7,65.3,29.02,NW,306,0.0,1.0,83,0.00,,CLR,0.00,0.00,VWS V14.01,2013-09-20 05:22:00,
2013-09-20 00:23:00,70.5,65.4,29.02,NW,306,0.0,1.0,84,0.00,,CLR,0.00,0.00,VWS V14.01,2013-09-20 05:23:00,
2013-09-20 00:24:00,70.3,65.2,29.02,NW,306,0.0,2.0,84,0.00,,CLR,0.00,0.00,VWS V14.01,2013-09-20 05:24:00,
2013-09-20 00:25:00,70.2,65.1,29.02,NW,306,1.0,1.0,84,0.00,,CLR,0.00,0.00,VWS V14.01,2013-09-20 05:25:00,
2013-09-20 00:26:00,70.0,65.3,29.02,NW,306,0.0,1.0,85,0.00,,BKN002,0.00,0.00,VWS V14.01,2013-09-20 05:26:00,
2013-09-20 00:27:00,69.9,65.2,29.02,NW,306,0.0,0.0,85,0.00,,CLR,0.00,0.00,VWS V14.01,2013-09-20 05:27:00,
2013-09-20 00:28:00,69.9,65.5,29.02,NW,306,0.0,0.0,86,0.00,,BKN002,0.00,0.00,VWS V14.01,2013-09-20 05:28:00,
2013-09-20 00:29:00,69.8,65.4,29.01,NW,306,0.0,1.0,86,0.00,,BKN002,0.00,0.00,VWS V14.01,2013-09-20 05:29:00,
2013-09-20 00:30:00,69.7,65.3,29.01,NW,306,0.0,0.0,86,0.00,,BKN,0.00,0.00,VWS V14.01,2013-09-20 05:30:00,
2013-09-20 00:31:00,69.6,65.2,29.01,NW,306,0.0,1.0,86,0.00,,BKN,0.00,0.00,VWS V14.01,2013-09-20 05:31:00,
2013-09-20 00:32:00,69.5,65.1,29.01,NW,306,0.0,0.0,86,0.00,,BKN002,0.00,0.00,VWS V14.01,2013-09-20 05:32:00,
2013-09-20 00:33:00,69.5,65.5,29.01,NW,306,0.0,1.0,87,0.00,,BKN,0.00,0.00,VWS V14.01,2013-09-20 05:33:00,
2013-09-20 00:34:00,69.5,65.5,29.00,NW,306,0.0,0.0,87,0.00,,BKN002,0.00,0.00,VWS V14.01,2013-09-20 05:34:00,
2013-09-20 00:35:00,69.4,65.4,29.00,NW,306,0.0,0.0,87,0.00,,BKN,0.00,0.00,VWS V14.01,2013-09-20 05:35:00,
2013-09-20 00:36:00,69.3,65.3,29.00,NW,306,0.0,0.0,87,0.00,,BKN,0.00,0.00,VWS V14.01,2013-09-20 05:36:00,
2013-09-20 00:37:00,69.3,65.3,29.00,SW,231,1.0,1.0,87,0.00,,BKN002,0.00,0.00,VWS V14.01,2013-09-20 05:37:00,
2013-09-20 00:38:00,69.3,65.3,29.00,SW,231,0.0,2.0,87,0.00,,BKN002,0.00,0.00,VWS V14.01,2013-09-20 05:38:00,
2013-09-20 00:39:00,69.2,65.2,29.01,SW,230,0.0,1.0,87,0.00,,BKN,0.00,0.00,VWS V14.01,2013-09-20 05:39:00,
2013-09-20 00:40:00,69.2,65.2,29.01,SW,230,0.0,0.0,87,0.00,,BKN,0.00,0.00,VWS V14.01,2013-09-20 05:40:00,
2013-09-20 00:41:00,69.1,65.1,29.01,SW,231,0.0,0.0,87,0.00,,BKN,0.00,0.00,VWS V14.01,2013-09-20 05:41:00,
2013-09-20 00:42:00,69.0,65.3,29.01,SW,231,0.0,1.0,88,0.00,,BKN002,0.00,0.00,VWS V14.01,2013-09-20 05:42:00,
2013-09-20 00:43:00,69.0,65.3,29.01,SW,231,0.0,0.0,88,0.00,,BKN,0.00,0.00,VWS V14.01,2013-09-20 05:43:00,
2013-09-20 00:44:00,69.0,65.3,29.01,SW,231,0.0,1.0,88,0.00,,BKN002,0.00,0.00,VWS V14.01,2013-09-20 05:44:00,
2013-09-20 00:45:00,69.0,65.3,29.01,SW,231,0.0,0.0,88,0.00,,BKN,0.00,0.00,VWS V14.01,2013-09-20 05:45:00,
2013-09-20 00:46:00,69.0,65.3,29.01,SW,230,0.0,1.0,88,0.00,,BKN,0.00,0.00,VWS V14.01,2013-09-20 05:46:00,
2013-09-20 00:47:00,69.0,65.3,29.02,SW,231,0.0,0.0,88,0.00,,BKN002,0.00,0.00,VWS V14.01,2013-09-20 05:47:00,
2013-09-20 00:48:00,69.0,65.3,29.02,SW,231,0.0,0.0,88,0.00,,BKN002,0.00,0.00,VWS V14.01,2013-09-20 05:48:00,
2013-09-20 00:49:00,69.0,65.3,29.02,SW,231,0.0,0.0,88,0.00,,BKN,0.00,0.00,VWS V14.01,2013-09-20 05:49:00,
2013-09-20 00:50:00,69.0,65.3,29.01,SW,231,0.0,1.0,88,0.00,,BKN002,0.00,0.00,VWS V14.01,2013-09-20 05:50:00,
2013-09-20 00:51:00,69.0,65.6,29.01,SW,231,0.0,0.0,89,0.00,,BKN,0.00,0.00,VWS V14.01,2013-09-20 05:51:00,
2013-09-20 00:52:00,69.0,65.6,29.01,SW,230,0.0,0.0,89,0.00,,BKN,0.00,0.00,VWS V14.01,2013-09-20 05:52:00,
2013-09-20 00:53:00,68.9,65.5,29.00,SW,230,0.0,0.0,89,0.00,,BKN002,0.00,0.00,VWS V14.01,2013-09-20 05:53:00,
2013-09-20 00:54:00,68.9,65.5,29.00,SW,230,0.0,0.0,89,0.00,,BKN,0.00,0.00,VWS V14.01,2013-09-20 05:54:00,
2013-09-20 00:55:00,68.9,65.5,29.00,SW,231,0.0,1.0,89,0.00,,BKN002,0.00,0.00,VWS V14.01,2013-09-20 05:55:00,
2013-09-20 00:56:00,68.9,65.5,29.00,SW,231,0.0,0.0,89,0.00,,BKN,0.00,0.00,VWS V14.01,2013-09-20 05:56:00,
2013-09-20 00:57:00,68.9,65.5,29.00,SW,231,0.0,0.0,89,0.00,,BKN002,0.00,0.00,VWS V14.01,2013-09-20 05:57:00,
2013-09-20 00:58:00,68.8,65.4,29.00,SW,231,0.0,0.0,89,0.00,,BKN002,0.00,0.00,VWS V14.01,2013-09-20 05:58:00,
2013-09-20 00:59:00,68.9,65.5,29.00,SW,231,0.0,0.0,89,0.00,,BKN,0.00,0.00,VWS V14.01,2013-09-20 05:59:00,
2013-09-20 01:00:00,68.9,65.5,29.00,SW,230,0.0,0.0,89,0.00,,,0.00,0.00,VWS V14.01,2013-09-20 06:00:00,
2013-09-20 01:01:00,68.8,65.4,29.00,SW,231,0.0,1.0,89,0.00,,,0.00,0.00,VWS V14.01,2013-09-20 06:01:00,
2013-09-20 01:02:00,68.8,65.4,29.00,SW,231,0.0,0.0,89,0.00,,,0.00,0.00,VWS V14.01,2013-09-20 06:02:00,
2013-09-20 01:03:00,68.8,65.4,29.00,SW,231,0.0,0.0,89,0.00,,BKN002,0.00,0.00,VWS V14.01,2013-09-20 06:03:00,
2013-09-20 01:04:00,68.8,65.4,29.00,SW,231,0.0,0.0,89,0.00,,BKN002,0.00,0.00,VWS V14.01,2013-09-20 06:04:00,
2013-09-20 01:05:00,68.7,65.3,28.99,SW,231,0.0,0.0,89,0.00,,BKN002,0.00,0.00,VWS V14.01,2013-09-20 06:05:00,
2013-09-20 01:06:00,68.7,65.3,29.00,SW,230,0.0,0.0,89,0.00,,BKN002,0.00,0.00,VWS V14.01,2013-09-20 06:06:00,
2013-09-20 01:07:00,68.7,65.3,28.99,SW,230,0.0,0.0,89,0.00,,,0.00,0.00,VWS V14.01,2013-09-20 06:07:00,
2013-09-20 01:08:00,68.7,65.3,29.00,SW,230,0.0,0.0,89,0.00,,BKN002,0.00,0.00,VWS V14.01,2013-09-20 06:08:00,
2013-09-20 01:09:00,68.6,65.2,28.99,SW,231,0.0,1.0,89,0.00,,,0.00,0.00,VWS V14.01,2013-09-20 06:09:00,
2013-09-20 01:10:00,68.6,65.2,28.99,SW,231,0.0,0.0,89,0.00,,BKN002,0.00,0.00,VWS V14.01,2013-09-20 06:10:00,
2013-09-20 01:11:00,68.6,65.2,28.99,SW,231,0.0,0.0,89,0.00,,,0.00,0.00,VWS V14.01,2013-09-20 06:11:00,
2013-09-20 01:12:00,68.6,65.2,28.99,SW,231,0.0,0.0,89,0.00,,BKN002,0.00,0.00,VWS V14.01,2013-09-20 06:12:00,
2013-09-20 01:13:00,68.6,65.2,28.99,SW,231,0.0,0.0,89,0.00,,,0.00,0.00,VWS V14.01,2013-09-20 06:13:00,
2013-09-20 01:14:00,68.6,65.2,28.99,SW,230,0.0,0.0,89,0.00,,,0.00,0.00,VWS V14.01,2013-09-20 06:14:00,
2013-09-20 01:15:00,68.6,65.2,28.99,SW,230,0.0,0.0,89,0.00,,BKN002,0.00,0.00,VWS V14.01,2013-09-20 06:15:00,
2013-09-20 01:16:00,68.6,65.2,28.99,SW,231,0.0,0.0,89,0.00,,,0.00,0.00,VWS V14.01,2013-09-20 06:16:00,
2013-09-20 01:17:00,68.6,65.2,28.99,SW,231,0.0,0.0,89,0.00,,BKN002,0.00,0.00,VWS V14.01,2013-09-20 06:17:00,
2013-09-20 01:18:00,68.6,65.2,28.99,SW,231,0.0,0.0,89,0.00,,BKN002,0.00,0.00,VWS V14.01,2013-09-20 06:18:00,
2013-09-20 01:19:00,68.6,65.2,28.99,SW,230,0.0,0.0,89,0.00,,,0.00,0.00,VWS V14.01,2013-09-20 06:19:00,
2013-09-20 01:20:00,68.6,65.2,28.99,SW,230,0.0,0.0,89,0.00,,BKN002,0.00,0.00,VWS V14.01,2013-09-20 06:20:00,
2013-09-20 01:21:00,68.5,65.5,28.99,SW,230,0.0,0.0,90,0.00,,,0.00,0.00,VWS V14.01,2013-09-20 06:21:00,
2013-09-20 01:22:00,68.6,65.6,28.99,SW,231,0.0,0.0,90,0.00,,,0.00,0.00,VWS V14.01,2013-09-20 06:22:00,
2013-09-20 01:23:00,68.5,65.5,28.99,SW,231,0.0,0.0,90,0.00,,,0.00,0.00,VWS V14.01,2013-09-20 06:23:00,
2013-09-20 01:24:00,68.6,65.6,28.99,SW,231,0.0,0.0,90,0.00,,BKN002,0.00,0.00,VWS V14.01,2013-09-20 06:24:00,
2013-09-20 01:25:00,68.6,65.6,28.99,SW,231,0.0,0.0,90,0.00,,,0.00,0.00,VWS V14.01,2013-09-20 06:25:00,
2013-09-20 01:26:00,68.6,65.6,28.99,SW,231,0.0,0.0,90,0.00,,,0.00,0.00,VWS V14.01,2013-09-20 06:26:00,
2013-09-20 01:27:00,68.6,65.6,28.98,SW,230,0.0,0.0,90,0.00,,,0.00,0.00,VWS V14.01,2013-09-20 06:27:00,
2013-09-20 01:28:00,68.6,65.6,28.98,SW,231,0.0,0.0,90,0.00,,BKN002,0.00,0.00,VWS V14.01,2013-09-20 06:28:00,
2013-09-20 01:29:00,68.7,65.7,28.98,SW,231,0.0,0.0,90,0.00,,,0.00,0.00,VWS V14.01,2013-09-20 06:29:00,
2013-09-20 01:30:00,68.7,65.7,28.98,SW,231,0.0,0.0,90,0.00,,-RA,0.00,0.00,VWS V14.01,2013-09-20 06:30:00,
2013-09-20 01:31:00,68.7,65.7,28.98,SW,231,0.0,0.0,90,0.00,,BKN002,0.00,0.00,VWS V14.01,2013-09-20 06:31:00,
2013-09-20 01:32:00,68.8,65.8,28.98,SW,231,0.0,0.0,90,0.00,,BKN002,0.00,0.00,VWS V14.01,2013-09-20 06:32:00,
2013-09-20 01:33:00,68.8,65.8,28.98,SW,231,0.0,0.0,90,0.00,,-RA,0.00,0.00,VWS V14.01,2013-09-20 06:33:00,
2013-09-20 01:34:00,68.8,65.8,28.98,SW,231,0.0,0.0,90,0.00,,-RA,0.00,0.00,VWS V14.01,2013-09-20 06:34:00,
2013-09-20 01:35:00,68.8,65.8,28.98,SW,231,0.0,0.0,90,0.00,,-RA,0.00,0.00,VWS V14.01,2013-09-20 06:35:00,
2013-09-20 01:36:00,68.8,65.8,28.98,SW,231,0.0,0.0,90,0.00,,-RA,0.00,0.00,VWS V14.01,2013-09-20 06:36:00,
2013-09-20 01:37:00,68.8,65.8,28.98,SW,231,0.0,0.0,90,0.00,,BKN002,0.00,0.00,VWS V14.01,2013-09-20 06:37:00,
2013-09-20 01:38:00,68.8,65.8,28.98,SW,231,0.0,0.0,90,0.00,,BKN002,0.00,0.00,VWS V14.01,2013-09-20 06:38:00,
2013-09-20 01:39:00,68.8,65.8,28.98,SW,230,0.0,0.0,90,0.00,,-RA,0.00,0.00,VWS V14.01,2013-09-20 06:39:00,
2013-09-20 01:40:00,68.8,65.8,28.98,SW,230,0.0,0.0,90,0.00,,BKN002,0.00,0.00,VWS V14.01,2013-09-20 06:40:00,
2013-09-20 01:41:00,68.8,65.8,28.98,SW,230,0.0,0.0,90,0.00,,-RA,0.00,0.00,VWS V14.01,2013-09-20 06:41:00,
2013-09-20 01:42:00,68.8,65.8,28.98,SW,231,0.0,0.0,90,0.00,,-RA,0.00,0.00,VWS V14.01,2013-09-20 06:42:00,
2013-09-20 01:43:00,68.8,65.8,28.98,SW,230,0.0,0.0,90,0.00,,BKN002,0.00,0.00,VWS V14.01,2013-09-20 06:43:00,
2013-09-20 01:44:00,68.8,65.8,28.98,SW,231,0.0,0.0,90,0.00,,-RA,0.00,0.00,VWS V14.01,2013-09-20 06:44:00,
2013-09-20 01:45:00,68.8,65.8,28.98,SW,231,0.0,0.0,90,0.00,,-RA,0.00,0.00,VWS V14.01,2013-09-20 06:45:00,
2013-09-20 01:46:00,68.8,65.8,28.98,SW,231,0.0,0.0,90,0.00,,BKN002,0.00,0.00,VWS V14.01,2013-09-20 06:46:00,
2013-09-20 01:47:00,68.8,65.8,28.98,SW,231,0.0,0.0,90,0.00,,BKN002,0.00,0.00,VWS V14.01,2013-09-20 06:47:00,
2013-09-20 01:48:00,68.9,65.8,28.98,SW,231,0.0,0.0,90,0.00,,-RA,0.00,0.00,VWS V14.01,2013-09-20 06:48:00,
2013-09-20 01:49:00,68.9,65.8,28.98,SW,230,0.0,0.0,90,0.00,,-RA,0.00,0.00,VWS V14.01,2013-09-20 06:49:00,
2013-09-20 01:50:00,68.9,65.8,28.98,SW,230,0.0,0.0,90,0.00,,BKN002,0.00,0.00,VWS V14.01,2013-09-20 06:50:00,
2013-09-20 01:51:00,68.9,65.8,28.98,SW,231,0.0,0.0,90,0.00,,-RA,0.00,0.00,VWS V14.01,2013-09-20 06:51:00,
2013-09-20 01:52:00,68.9,65.8,28.97,SW,231,0.0,0.0,90,0.00,,-RA,0.00,0.00,VWS V14.01,2013-09-20 06:52:00,
2013-09-20 01:53:00,68.9,65.8,28.97,SW,231,0.0,0.0,90,0.00,,BKN002,0.00,0.00,VWS V14.01,2013-09-20 06:53:00,
2013-09-20 01:54:00,68.9,65.8,28.97,SW,230,0.0,0.0,90,0.00,,BKN002,0.00,0.00,VWS V14.01,2013-09-20 06:54:00,
2013-09-20 01:55:00,68.9,65.8,28.97,SW,230,0.0,0.0,90,0.00,,BKN002,0.00,0.00,VWS V14.01,2013-09-20 06:55:00,
2013-09-20 01:56:00,69.0,65.9,28.97,South,190,0.0,1.0,90,0.00,,-RA,0.00,0.00,VWS V14.01,2013-09-20 06:56:00,
2013-09-20 01:57:00,68.9,65.8,28.97,South,190,0.0,0.0,90,0.00,,-RA,0.00,0.00,VWS V14.01,2013-09-20 06:57:00,
2013-09-20 01:58:00,69.0,65.9,28.97,South,190,0.0,0.0,90,0.00,,BKN002,0.00,0.00,VWS V14.01,2013-09-20 06:58:00,
2013-09-20 01:59:00,68.9,65.8,28.96,South,190,0.0,1.0,90,0.00,,-RA,0.00,0.00,VWS V14.01,2013-09-20 06:59:00,
2013-09-20 02:00:00,68.9,65.8,28.96,South,190,0.0,0.0,90,0.00,,BKN002,0.00,0.00,VWS V14.01,2013-09-20 07:00:00,
2013-09-20 02:01:00,68.9,65.8,28.96,South,190,0.0,0.0,90,0.00,,BKN002,0.00,0.00,VWS V14.01,2013-09-20 07:01:00,
2013-09-20 02:02:00,68.9,65.8,28.96,ESE,122,0.0,1.0,90,0.00,,FEW110,0.00,0.00,VWS V14.01,2013-09-20 07:02:00,
2013-09-20 02:03:00,68.9,65.8,28.96,ESE,118,0.0,1.0,90,0.00,,BKN002,0.00,0.00,VWS V14.01,2013-09-20 07:03:00,
2013-09-20 02:04:00,68.8,65.8,28.96,ESE,118,1.0,1.0,90,0.00,,FEW110,0.00,0.00,VWS V14.01,2013-09-20 07:04:00,
2013-09-20 02:05:00,68.8,65.8,28.96,ESE,118,0.0,1.0,90,0.00,,FEW110,0.00,0.00,VWS V14.01,2013-09-20 07:05:00,
2013-09-20 02:06:00,68.8,65.8,28.96,ESE,118,0.0,0.0,90,0.00,,FEW110,0.00,0.00,VWS V14.01,2013-09-20 07:06:00,
2013-09-20 02:07:00,68.8,65.8,28.96,ESE,118,0.0,0.0,90,0.00,,FEW110,0.00,0.00,VWS V14.01,2013-09-20 07:07:00,
2013-09-20 02:08:00,68.8,65.8,28.96,ESE,123,0.0,1.0,90,0.00,,BKN002,0.00,0.00,VWS V14.01,2013-09-20 07:08:00,
2013-09-20 02:09:00,68.7,65.7,28.96,ESE,123,0.0,1.0,90,0.00,,FEW110,0.00,0.00,VWS V14.01,2013-09-20 07:09:00,
2013-09-20 02:10:00,68.7,65.7,28.97,ESE,123,0.0,1.0,90,0.00,,FEW110,0.00,0.00,VWS V14.01,2013-09-20 07:10:00,
2013-09-20 02:11:00,68.7,65.7,28.96,ESE,123,0.0,1.0,90,0.00,,BKN002,0.00,0.00,VWS V14.01,2013-09-20 07:11:00,
2013-09-20 02:12:00,68.6,65.6,28.96,ESE,123,0.0,0.0,90,0.00,,BKN002,0.00,0.00,VWS V14.01,2013-09-20 07:12:00,
2013-09-20 02:13:00,68.6,65.6,28.96,ESE,123,0.0,1.0,90,0.00,,FEW110,0.00,0.00,VWS V14.01,2013-09-20 07:13:00,
2013-09-20 02:14:00,68.6,65.6,28.97,ESE,123,0.0,0.0,90,0.00,,BKN002,0.00,0.00,VWS V14.01,2013-09-20 07:14:00,
2013-09-20 02:15:00,68.5,65.5,28.97,ESE,123,0.0,1.0,90,0.00,,FEW110,0.00,0.00,VWS V14.01,2013-09-20 07:15:00,
2013-09-20 02:16:00,68.5,65.5,28.97,ESE,123,0.0,0.0,90,0.00,,BKN002,0.00,0.00,VWS V14.01,2013-09-20 07:16:00,
2013-09-20 02:17:00,68.5,65.5,28.97,ESE,123,0.0,0.0,90,0.00,,FEW110,0.00,0.00,VWS V14.01,2013-09-20 07:17:00,
2013-09-20 02:18:00,68.5,65.5,28.97,ESE,123,0.0,1.0,90,0.00,,BKN002,0.00,0.00,VWS V14.01,2013-09-20 07:18:00,
2013-09-20 02:19:00,68.4,65.4,28.97,ESE,123,0.0,0.0,90,0.00,,FEW110,0.00,0.00,VWS V14.01,2013-09-20 07:19:00,
2013-09-20 02:20:00,68.4,65.4,28.97,ESE,123,0.0,1.0,90,0.00,,FEW110,0.00,0.00,VWS V14.01,2013-09-20 07:20:00,
2013-09-20 02:21:00,68.4,65.4,28.97,ESE,123,0.0,1.0,90,0.00,,BKN002,0.00,0.00,VWS V14.01,2013-09-20 07:21:00,
2013-09-20 02:22:00,68.4,65.4,28.97,ESE,123,0.0,0.0,90,0.00,,FEW110,0.00,0.00,VWS V14.01,2013-09-20 07:22:00,
2013-09-20 02:23:00,68.3,65.3,28.97,ESE,123,0.0,1.0,90,0.00,,BKN002,0.00,0.00,VWS V14.01,2013-09-20 07:23:00,
2013-09-20 02:24:00,68.3,65.3,28.97,ESE,123,0.0,0.0,90,0.00,,FEW110,0.00,0.00,VWS V14.01,2013-09-20 07:24:00,
2013-09-20 02:25:00,68.3,65.3,28.97,ESE,123,0.0,1.0,90,0.00,,BKN002,0.00,0.00,VWS V14.01,2013-09-20 07:25:00,
2013-09-20 02:26:00,68.3,65.3,28.97,ESE,123,0.0,0.0,90,0.00,,BKN002,0.00,0.00,VWS V14.01,2013-09-20 07:26:00,
2013-09-20 02:27:00,68.2,65.2,28.97,ESE,123,0.0,0.0,90,0.00,,FEW110,0.00,0.00,VWS V14.01,2013-09-20 07:27:00,
2013-09-20 02:28:00,68.3,65.3,28.97,ESE,123,0.0,0.0,90,0.00,,FEW110,0.00,0.00,VWS V14.01,2013-09-20 07:28:00,
2013-09-20 02:29:00,68.3,65.3,28.97,ESE,123,0.0,0.0,90,0.00,,FEW110,0.00,0.00,VWS V14.01,2013-09-20 07:29:00,
2013-09-20 02:30:00,68.3,65.3,28.97,ESE,123,0.0,0.0,90,0.00,,BKN002,0.00,0.00,VWS V14.01,2013-09-20 07:30:00,
2013-09-20 02:31:00,68.3,65.3,28.97,ESE,123,0.0,1.0,90,0.00,,BKN002,0.00,0.00,VWS V14.01,2013-09-20 07:31:00,
2013-09-20 02:32:00,68.3,65.3,28.97,ESE,123,0.0,0.0,90,0.00,,FEW110,0.00,0.00,VWS V14.01,2013-09-20 07:32:00,
2013-09-20 02:33:00,68.3,65.3,28.97,ESE,115,0.0,1.0,90,0.00,,FEW110,0.00,0.00,VWS V14.01,2013-09-20 07:33:00,
2013-09-20 02:34:00,68.3,65.3,28.97,ESE,115,0.0,0.0,90,0.00,,FEW110,0.00,0.00,VWS V14.01,2013-09-20 07:34:00,
2013-09-20 02:35:00,68.3,65.3,28.96,ESE,114,0.0,0.0,90,0.00,,BKN002,0.00,0.00,VWS V14.01,2013-09-20 07:35:00,
2013-09-20 02:36:00,68.3,65.3,28.96,ESE,114,0.0,1.0,90,0.00,,BKN002,0.00,0.00,VWS V14.01,2013-09-20 07:36:00,
2013-09-20 02:37:00,68.3,65.3,28.96,SSE,159,0.0,2.0,90,0.00,,BKN002,0.00,0.00,VWS V14.01,2013-09-20 07:37:00,
2013-09-20 02:38:00,68.3,65.3,28.96,SSE,159,0.0,1.0,90,0.00,,FEW110,0.00,0.00,VWS V14.01,2013-09-20 07:38:00,
2013-09-20 02:39:00,68.3,65.3,28.96,SSE,159,0.0,1.0,90,0.00,,BKN002,0.00,0.00,VWS V14.01,2013-09-20 07:39:00,
2013-09-20 02:40:00,68.3,65.3,28.97,SSE,159,0.0,0.0,90,0.00,,BKN002,0.00,0.00,VWS V14.01,2013-09-20 07:40:00,
2013-09-20 02:41:00,68.2,65.2,28.97,SSE,159,0.0,0.0,90,0.00,,FEW110,0.00,0.00,VWS V14.01,2013-09-20 07:41:00,
2013-09-20 02:42:00,68.3,65.3,28.97,SSE,159,0.0,0.0,90,0.00,,FEW110,0.00,0.00,VWS V14.01,2013-09-20 07:42:00,
2013-09-20 02:43:00,68.3,65.3,28.97,South,172,0.0,3.0,90,0.00,,FEW110,0.00,0.00,VWS V14.01,2013-09-20 07:43:00,
2013-09-20 02:44:00,68.3,65.3,28.96,SSE,165,0.0,1.0,90,0.00,,BKN002,0.00,0.00,VWS V14.01,2013-09-20 07:44:00,
2013-09-20 02:45:00,68.3,65.3,28.96,SSE,147,0.0,1.0,90,0.00,,BKN002,0.00,0.00,VWS V14.01,2013-09-20 07:45:00,
2013-09-20 02:46:00,68.3,65.3,28.96,SSE,147,0.0,1.0,90,0.00,,FEW110,0.00,0.00,VWS V14.01,2013-09-20 07:46:00,
2013-09-20 02:47:00,68.3,65.3,28.96,SSE,147,1.0,1.0,90,0.00,,FEW110,0.00,0.00,VWS V14.01,2013-09-20 07:47:00,
2013-09-20 02:48:00,68.2,65.2,28.96,SE,146,0.0,1.0,90,0.00,,FEW110,0.00,0.00,VWS V14.01,2013-09-20 07:48:00,
2013-09-20 02:49:00,68.3,65.3,28.96,SE,128,0.0,2.0,90,0.00,,FEW110,0.00,0.00,VWS V14.01,2013-09-20 07:49:00,
2013-09-20 02:50:00,68.2,65.2,28.96,ESE,119,0.0,4.0,90,0.00,,BKN002,0.00,0.00,VWS V14.01,2013-09-20 07:50:00,
2013-09-20 02:51:00,68.3,65.3,28.96,ESE,119,0.0,0.0,90,0.00,,BKN002,0.00,0.00,VWS V14.01,2013-09-20 07:51:00,
2013-09-20 02:52:00,68.2,65.2,28.96,ESE,119,1.0,1.0,90,0.00,,BKN002,0.00,0.00,VWS V14.01,2013-09-20 07:52:00,
2013-09-20 02:53:00,68.3,65.3,28.96,ESE,119,0.0,1.0,90,0.00,,FEW110,0.00,0.00,VWS V14.01,2013-09-20 07:53:00,
2013-09-20 02:54:00,68.2,65.2,28.96,ESE,119,0.0,2.0,90,0.00,,FEW110,0.00,0.00,VWS V14.01,2013-09-20 07:54:00,
2013-09-20 02:55:00,68.2,65.2,28.96,ESE,119,0.0,0.0,90,0.00,,BKN002,0.00,0.00,VWS V14.01,2013-09-20 07:55:00,
2013-09-20 02:56:00,68.2,65.2,28.96,ESE,119,0.0,0.0,90,0.00,,BKN002,0.00,0.00,VWS V14.01,2013-09-20 07:56:00,
2013-09-20 02:57:00,68.2,65.2,28.96,ESE,119,0.0,1.0,90,0.00,,FEW110,0.00,0.00,VWS V14.01,2013-09-20 07:57:00,
2013-09-20 02:58:00,68.2,65.2,28.96,SSE,159,0.0,1.0,90,0.00,,BKN002,0.00,0.00,VWS V14.01,2013-09-20 07:58:00,
2013-09-20 02:59:00,68.2,65.2,28.96,SSE,159,0.0,0.0,90,0.00,,FEW110,0.00,0.00,VWS V14.01,2013-09-20 07:59:00,
2013-09-20 03:00:00,68.2,65.2,28.96,SSE,159,0.0,0.0,90,0.00,,BKN002,0.00,0.00,VWS V14.01,2013-09-20 08:00:00,
2013-09-20 03:01:00,68.2,65.2,28.96,SSE,159,0.0,0.0,90,0.00,,BKN002,0.00,0.00,VWS V14.01,2013-09-20 08:01:00,
2013-09-20 03:02:00,68.2,65.2,28.96,SSE,159,0.0,0.0,90,0.00,,BKN002,0.00,0.00,VWS V14.01,2013-09-20 08:02:00,
2013-09-20 03:03:00,68.2,65.2,28.96,SSE,159,0.0,1.0,90,0.00,,BKN002,0.00,0.00,VWS V14.01,2013-09-20 08:03:00,
2013-09-20 03:04:00,68.2,65.2,28.97,SSE,159,1.0,1.0,90,0.00,,BKN002,0.00,0.00,VWS V14.01,2013-09-20 08:04:00,
2013-09-20 03:05:00,68.2,65.2,28.96,SSE,159,0.0,1.0,90,0.00,,BKN002,0.00,0.00,VWS V14.01,2013-09-20 08:05:00,
2013-09-20 03:06:00,68.2,65.2,28.96,SSE,162,0.0,1.0,90,0.00,,BKN002,0.00,0.00,VWS V14.01,2013-09-20 08:06:00,
2013-09-20 03:07:00,68.2,65.2,28.96,SSE,162,0.0,0.0,90,0.00,,BKN002,0.00,0.00,VWS V14.01,2013-09-20 08:07:00,
2013-09-20 03:08:00,68.2,65.2,28.96,ESE,123,0.0,1.0,90,0.00,,BKN002,0.00,0.00,VWS V14.01,2013-09-20 08:08:00,
2013-09-20 03:09:00,68.2,65.2,28.96,ESE,123,0.0,0.0,90,0.00,,BKN002,0.00,0.00,VWS V14.01,2013-09-20 08:09:00,
2013-09-20 03:10:00,68.2,65.2,28.96,ESE,123,0.0,1.0,90,0.00,,BKN002,0.00,0.00,VWS V14.01,2013-09-20 08:10:00,
2013-09-20 03:11:00,68.1,65.1,28.97,SE,124,0.0,0.0,90,0.00,,BKN002,0.00,0.00,VWS V14.01,2013-09-20 08:11:00,
2013-09-20 03:12:00,68.2,65.2,28.97,SE,124,0.0,1.0,90,0.00,,BKN002,0.00,0.00,VWS V14.01,2013-09-20 08:12:00,
2013-09-20 03:13:00,68.2,65.2,28.97,SE,124,0.0,0.0,90,0.00,,BKN002,0.00,0.00,VWS V14.01,2013-09-20 08:13:00,
2013-09-20 03:14:00,68.2,65.2,28.97,SE,124,0.0,1.0,90,0.00,,BKN002,0.00,0.00,VWS V14.01,2013-09-20 08:14:00,
2013-09-20 03:15:00,68.2,65.2,28.97,ESE,123,0.0,0.0,90,0.00,,BKN002,0.00,0.00,VWS V14.01,2013-09-20 08:15:00,
2013-09-20 03:16:00,68.2,65.2,28.97,ESE,123,0.0,0.0,90,0.00,,BKN002,0.00,0.00,VWS V14.01,2013-09-20 08:16:00,
2013-09-20 03:17:00,68.2,65.5,28.97,ESE,123,0.0,0.0,91,0.00,,BKN002,0.00,0.00,VWS V14.01,2013-09-20 08:17:00,
2013-09-20 03:18:00,68.2,65.5,28.97,ESE,123,0.0,1.0,91,0.00,,BKN002,0.00,0.00,VWS V14.01,2013-09-20 08:18:00,
2013-09-20 03:19:00,68.2,65.5,28.97,SE,124,0.0,1.0,91,0.00,,BKN002,0.00,0.00,VWS V14.01,2013-09-20 08:19:00,
2013-09-20 03:20:00,68.2,65.5,28.97,SE,124,0.0,0.0,91,0.00,,BKN002,0.00,0.00,VWS V14.01,2013-09-20 08:20:00,
2013-09-20 03:21:00,68.3,65.6,28.97,SE,124,0.0,0.0,91,0.00,,BKN002,0.00,0.00,VWS V14.01,2013-09-20 08:21:00,
2013-09-20 03:22:00,68.3,65.6,28.97,ESE,123,0.0,1.0,91,0.00,,BKN002,0.00,0.00,VWS V14.01,2013-09-20 08:22:00,
2013-09-20 03:23:00,68.2,65.5,28.97,SE,126,0.0,1.0,91,0.00,,BKN002,0.00,0.00,VWS V14.01,2013-09-20 08:23:00,
2013-09-20 03:24:00,68.2,65.5,28.97,SE,126,0.0,0.0,91,0.00,,BKN002,0.00,0.00,VWS V14.01,2013-09-20 08:24:00,
2013-09-20 03:25:00,68.2,65.5,28.97,SE,135,0.0,1.0,91,0.00,,BKN002,0.00,0.00,VWS V14.01,2013-09-20 08:25:00,
2013-09-20 03:26:00,68.1,65.4,28.97,SE,135,0.0,0.0,91,0.00,,BKN002,0.00,0.00,VWS V14.01,2013-09-20 08:26:00,
2013-09-20 03:27:00,68.1,65.4,28.97,SE,135,0.0,1.0,91,0.00,,BKN002,0.00,0.00,VWS V14.01,2013-09-20 08:27:00,
2013-09-20 03:28:00,68.1,65.4,28.97,SE,135,0.0,0.0,91,0.00,,BKN002,0.00,0.00,VWS V14.01,2013-09-20 08:28:00,
2013-09-20 03:29:00,68.1,65.4,28.97,SE,135,0.0,1.0,91,0.00,,BKN002,0.00,0.00,VWS V14.01,2013-09-20 08:29:00,
2013-09-20 03:30:00,68.1,65.4,28.97,SE,135,0.0,0.0,91,0.00,,BKN002,0.00,0.00,VWS V14.01,2013-09-20 08:30:00,
2013-09-20 03:31:00,68.1,65.4,28.97,SE,135,0.0,0.0,91,0.00,,BKN002,0.00,0.00,VWS V14.01,2013-09-20 08:31:00,
2013-09-20 03:32:00,68.1,65.4,28.97,SE,135,0.0,1.0,91,0.00,,BKN002,0.00,0.00,VWS V14.01,2013-09-20 08:32:00,
2013-09-20 03:33:00,68.1,65.4,28.97,SE,135,0.0,0.0,91,0.00,,BKN002,0.00,0.00,VWS V14.01,2013-09-20 08:33:00,
2013-09-20 03:34:00,68.1,65.4,28.98,SE,135,0.0,1.0,91,0.00,,BKN002,0.00,0.00,VWS V14.01,2013-09-20 08:34:00,
2013-09-20 03:35:00,68.1,65.4,28.98,SE,135,0.0,0.0,91,0.00,,BKN002,0.00,0.00,VWS V14.01,2013-09-20 08:35:00,
2013-09-20 03:36:00,68.1,65.4,28.97,SE,134,0.0,0.0,91,0.00,,BKN002,0.00,0.00,VWS V14.01,2013-09-20 08:36:00,
2013-09-20 03:37:00,68.1,65.4,28.98,SE,134,0.0,0.0,91,0.00,,BKN002,0.00,0.00,VWS V14.01,2013-09-20 08:37:00,
2013-09-20 03:38:00,68.0,65.3,28.98,SE,134,0.0,0.0,91,0.00,,BKN002,0.00,0.00,VWS V14.01,2013-09-20 08:38:00,
2013-09-20 03:39:00,68.0,65.3,28.97,SE,135,0.0,0.0,91,0.00,,BKN002,0.00,0.00,VWS V14.01,2013-09-20 08:39:00,
2013-09-20 03:40:00,68.0,65.3,28.98,SE,135,0.0,0.0,91,0.00,,BKN002,0.00,0.00,VWS V14.01,2013-09-20 08:40:00,
2013-09-20 03:41:00,68.1,65.4,28.98,SE,135,0.0,0.0,91,0.00,,BKN002,0.00,0.00,VWS V14.01,2013-09-20 08:41:00,
2013-09-20 03:42:00,68.0,65.3,28.98,SE,135,0.0,0.0,91,0.00,,BKN002,0.00,0.00,VWS V14.01,2013-09-20 08:42:00,
2013-09-20 03:43:00,68.0,65.3,28.98,SE,134,0.0,0.0,91,0.00,,BKN002,0.00,0.00,VWS V14.01,2013-09-20 08:43:00,
2013-09-20 03:44:00,68.0,65.3,28.98,SSW,207,0.0,3.0,91,0.00,,BKN002,0.00,0.00,VWS V14.01,2013-09-20 08:44:00,
2013-09-20 03:45:00,68.0,65.3,28.98,SSW,207,0.0,0.0,91,0.00,,BKN002,0.00,0.00,VWS V14.01,2013-09-20 08:45:00,
2013-09-20 03:46:00,68.0,65.3,28.98,SSW,208,0.0,0.0,91,0.00,,BKN002,0.00,0.00,VWS V14.01,2013-09-20 08:46:00,
2013-09-20 03:47:00,68.0,65.3,28.98,SSW,207,1.0,1.0,91,0.00,,BKN002,0.00,0.00,VWS V14.01,2013-09-20 08:47:00,
2013-09-20 03:48:00,68.0,65.3,28.98,SSW,205,0.0,4.0,91,0.00,,BKN002,0.00,0.00,VWS V14.01,2013-09-20 08:48:00,
2013-09-20 03:49:00,67.9,65.2,28.98,SSW,198,0.0,2.0,91,0.00,,BKN002,0.00,0.00,VWS V14.01,2013-09-20 08:49:00,
2013-09-20 03:50:00,67.9,65.2,28.98,SSW,198,0.0,0.0,91,0.00,,BKN002,0.00,0.00,VWS V14.01,2013-09-20 08:50:00,
2013-09-20 03:51:00,67.9,65.2,28.98,SSW,198,0.0,0.0,91,0.00,,BKN002,0.00,0.00,VWS V14.01,2013-09-20 08:51:00,
2013-09-20 03:52:00,67.9,65.2,28.98,SSW,198,0.0,1.0,91,0.00,,BKN002,0.00,0.00,VWS V14.01,2013-09-20 08:52:00,
2013-09-20 03:53:00,67.9,65.2,28.98,SSW,198,0.0,1.0,91,0.00,,BKN002,0.00,0.00,VWS V14.01,2013-09-20 08:53:00,
2013-09-20 03:54:00,67.9,65.2,28.98,SSW,198,0.0,1.0,91,0.00,,BKN002,0.00,0.00,VWS V14.01,2013-09-20 08:54:00,
2013-09-20 03:55:00,67.9,65.2,28.98,SSW,198,0.0,0.0,91,0.00,,BKN002,0.00,0.00,VWS V14.01,2013-09-20 08:55:00,
2013-09-20 03:56:00,67.9,65.2,28.98,SSW,198,0.0,0.0,91,0.00,,BKN002,0.00,0.00,VWS V14.01,2013-09-20 08:56:00,
2013-09-20 03:57:00,68.0,65.3,28.98,SSW,198,0.0,0.0,91,0.00,,BKN002,0.00,0.00,VWS V14.01,2013-09-20 08:57:00,
2013-09-20 03:58:00,67.9,65.2,28.98,SSW,198,0.0,1.0,91,0.00,,BKN002,0.00,0.00,VWS V14.01,2013-09-20 08:58:00,
2013-09-20 03:59:00,67.9,65.2,28.98,SSW,198,0.0,1.0,91,0.00,,BKN002,0.00,0.00,VWS V14.01,2013-09-20 08:59:00,
2013-09-20 04:00:00,67.9,65.2,28.98,SSW,198,0.0,1.0,91,0.00,,BKN002,0.00,0.00,VWS V14.01,2013-09-20 09:00:00,
2013-09-20 04:01:00,67.9,65.2,28.98,SSW,198,0.0,1.0,91,0.00,,BKN002,0.00,0.00,VWS V14.01,2013-09-20 09:01:00,
2013-09-20 04:02:00,67.9,65.2,28.98,SE,125,0.0,2.0,91,0.00,,BKN002,0.00,0.00,VWS V14.01,2013-09-20 09:02:00,
2013-09-20 04:03:00,67.9,65.2,28.98,SE,125,0.0,1.0,91,0.00,,BKN002,0.00,0.00,VWS V14.01,2013-09-20 09:03:00,
2013-09-20 04:04:00,67.9,65.2,28.98,SE,125,0.0,1.0,91,0.00,,BKN002,0.00,0.00,VWS V14.01,2013-09-20 09:04:00,
2013-09-20 04:05:00,67.9,65.2,28.98,SE,125,0.0,0.0,91,0.00,,BKN002,0.00,0.00,VWS V14.01,2013-09-20 09:05:00,
2013-09-20 04:06:00,67.9,65.2,28.98,SE,144,0.0,1.0,91,0.00,,BKN002,0.00,0.00,VWS V14.01,2013-09-20 09:06:00,
2013-09-20 04:07:00,67.9,65.2,28.98,SE,142,0.0,1.0,91,0.00,,BKN002,0.00,0.00,VWS V14.01,2013-09-20 09:07:00,
2013-09-20 04:08:00,67.9,65.2,28.98,SSE,150,1.0,4.0,91,0.00,,BKN002,0.00,0.00,VWS V14.01,2013-09-20 09:08:00,
2013-09-20 04:09:00,67.9,65.2,28.98,SSE,150,0.0,1.0,91,0.00,,BKN002,0.00,0.00,VWS V14.01,2013-09-20 09:09:00,
2013-09-20 04:10:00,67.8,65.1,28.98,SSE,150,0.0,0.0,91,0.00,,BKN002,0.00,0.00,VWS V14.01,2013-09-20 09:10:00,
2013-09-20 04:11:00,67.8,65.1,28.98,SSE,150,0.0,1.0,91,0.00,,BKN002,0.00,0.00,VWS V14.01,2013-09-20 09:11:00,
2013-09-20 04:12:00,67.9,65.2,28.98,SSE,150,0.0,0.0,91,0.00,,BKN002,0.00,0.00,VWS V14.01,2013-09-20 09:12:00,
2013-09-20 04:13:00,67.9,65.2,28.98,SSE,150,0.0,0.0,91,0.00,,BKN002,0.00,0.00,VWS V14.01,2013-09-20 09:13:00,
2013-09-20 04:14:00,67.9,65.2,28.98,North,0,0.0,0.0,91,0.00,,BKN002,0.00,0.00,VWS V14.01,2013-09-20 09:14:00,
2013-09-20 04:15:00,67.9,65.2,28.98,North,0,0.0,0.0,91,0.00,,BKN002,0.00,0.00,VWS V14.01,2013-09-20 09:15:00,
2013-09-20 04:16:00,67.9,65.2,28.97,North,0,0.0,0.0,91,0.00,,BKN002,0.00,0.00,VWS V14.01,2013-09-20 09:16:00,
2013-09-20 04:17:00,67.9,65.2,28.98,North,0,0.0,0.0,91,0.00,,BKN002,0.00,0.00,VWS V14.01,2013-09-20 09:17:00,
2013-09-20 04:18:00,67.9,65.2,28.98,North,0,0.0,0.0,91,0.00,,BKN002,0.00,0.00,VWS V14.01,2013-09-20 09:18:00,
2013-09-20 04:19:00,67.9,65.2,28.98,South,180,0.0,2.0,91,0.00,,BKN002,0.00,0.00,VWS V14.01,2013-09-20 09:19:00,
2013-09-20 04:20:00,67.8,65.1,28.98,South,180,0.0,1.0,91,0.00,,BKN002,0.00,0.00,VWS V14.01,2013-09-20 09:20:00,
2013-09-20 04:21:00,67.8,65.1,28.97,South,180,0.0,0.0,91,0.00,,BKN002,0.00,0.00,VWS V14.01,2013-09-20 09:21:00,
2013-09-20 04:22:00,67.8,65.1,28.97,ENE,68,0.0,1.0,91,0.00,,BKN002,0.00,0.00,VWS V14.01,2013-09-20 09:22:00,
2013-09-20 04:23:00,67.8,65.1,28.98,ESE,112,0.0,2.0,91,0.00,,BKN002,0.00,0.00,VWS V14.01,2013-09-20 09:23:00,
2013-09-20 04:24:00,67.8,65.1,28.97,ESE,112,0.0,0.0,91,0.00,,BKN002,0.00,0.00,VWS V14.01,2013-09-20 09:24:00,
2013-09-20 04:25:00,67.8,65.1,28.97,ESE,112,0.0,0.0,91,0.00,,BKN002,0.00,0.00,VWS V14.01,2013-09-20 09:25:00,
2013-09-20 04:26:00,67.8,65.1,28.98,ESE,112,0.0,0.0,91,0.00,,BKN002,0.00,0.00,VWS V14.01,2013-09-20 09:26:00,
2013-09-20 04:27:00,67.8,65.1,28.98,ESE,112,0.0,0.0,91,0.00,,BKN002,0.00,0.00,VWS V14.01,2013-09-20 09:27:00,
2013-09-20 04:28:00,67.8,65.1,28.97,ESE,112,0.0,1.0,91,0.00,,BKN002,0.00,0.00,VWS V14.01,2013-09-20 09:28:00,
2013-09-20 04:29:00,67.8,65.1,28.97,ESE,112,0.0,1.0,91,0.00,,BKN002,0.00,0.00,VWS V14.01,2013-09-20 09:29:00,
2013-09-20 04:30:00,67.8,65.1,28.97,ESE,112,0.0,0.0,91,0.00,,BKN002,0.00,0.00,VWS V14.01,2013-09-20 09:30:00,
2013-09-20 04:31:00,67.8,65.1,28.97,ESE,112,0.0,0.0,91,0.00,,BKN002,0.00,0.00,VWS V14.01,2013-09-20 09:31:00,
2013-09-20 04:32:00,67.8,65.1,28.97,ESE,112,0.0,1.0,91,0.00,,BKN002,0.00,0.00,VWS V14.01,2013-09-20 09:32:00,
2013-09-20 04:33:00,67.8,65.1,28.97,ESE,112,0.0,0.0,91,0.00,,BKN002,0.00,0.00,VWS V14.01,2013-09-20 09:33:00,
2013-09-20 04:34:00,67.8,65.1,28.97,ESE,112,0.0,1.0,91,0.00,,BKN002,0.00,0.00,VWS V14.01,2013-09-20 09:34:00,
2013-09-20 04:35:00,67.7,65.0,28.97,ESE,112,0.0,0.0,91,0.00,,BKN002,0.00,0.00,VWS V14.01,2013-09-20 09:35:00,
2013-09-20 04:36:00,67.7,65.0,28.97,ESE,112,0.0,1.0,91,0.00,,BKN002,0.00,0.00,VWS V14.01,2013-09-20 09:36:00,
2013-09-20 04:37:00,67.7,65.0,28.98,ESE,112,0.0,0.0,91,0.00,,BKN002,0.00,0.00,VWS V14.01,2013-09-20 09:37:00,
2013-09-20 04:38:00,67.7,65.0,28.98,ESE,112,0.0,0.0,91,0.00,,BKN002,0.00,0.00,VWS V14.01,2013-09-20 09:38:00,
2013-09-20 04:39:00,67.7,65.0,28.98,ESE,112,0.0,1.0,91,0.00,,BKN002,0.00,0.00,VWS V14.01,2013-09-20 09:39:00,
2013-09-20 04:40:00,67.7,65.0,28.98,ESE,112,0.0,0.0,91,0.00,,BKN002,0.00,0.00,VWS V14.01,2013-09-20 09:40:00,
2013-09-20 04:41:00,67.7,65.0,28.98,ESE,112,0.0,0.0,91,0.00,,BKN002,0.00,0.00,VWS V14.01,2013-09-20 09:41:00,
2013-09-20 04:42:00,67.7,65.0,28.98,ESE,112,0.0,0.0,91,0.00,,BKN002,0.00,0.00,VWS V14.01,2013-09-20 09:42:00,
2013-09-20 04:43:00,67.7,65.0,28.98,ESE,112,0.0,1.0,91,0.00,,BKN002,0.00,0.00,VWS V14.01,2013-09-20 09:43:00,
2013-09-20 04:44:00,67.7,65.0,28.98,ESE,112,0.0,1.0,91,0.00,,BKN002,0.00,0.00,VWS V14.01,2013-09-20 09:44:00,
2013-09-20 04:45:00,67.6,65.2,28.98,ESE,112,0.0,0.0,92,0.00,,BKN002,0.00,0.00,VWS V14.01,2013-09-20 09:45:00,
2013-09-20 04:46:00,67.6,65.2,28.98,ESE,112,0.0,0.0,92,0.00,,BKN002,0.00,0.00,VWS V14.01,2013-09-20 09:46:00,
2013-09-20 04:47:00,67.6,64.9,28.98,ESE,112,0.0,0.0,91,0.00,,BKN002,0.00,0.00,VWS V14.01,2013-09-20 09:47:00,
2013-09-20 04:48:00,67.6,64.9,28.98,ESE,112,0.0,0.0,91,0.00,,BKN002,0.00,0.00,VWS V14.01,2013-09-20 09:48:00,
2013-09-20 04:49:00,67.6,64.9,28.98,ESE,112,0.0,0.0,91,0.00,,BKN002,0.00,0.00,VWS V14.01,2013-09-20 09:49:00,
2013-09-20 04:50:00,67.6,64.9,28.98,ESE,112,0.0,0.0,91,0.00,,BKN002,0.00,0.00,VWS V14.01,2013-09-20 09:50:00,
2013-09-20 04:51:00,67.6,64.9,28.98,ESE,112,0.0,0.0,91,0.00,,BKN002,0.00,0.00,VWS V14.01,2013-09-20 09:51:00,
2013-09-20 04:52:00,67.6,64.9,28.98,ESE,112,0.0,1.0,91,0.00,,BKN002,0.00,0.00,VWS V14.01,2013-09-20 09:52:00,
2013-09-20 04:53:00,67.6,64.9,28.98,ESE,112,0.0,0.0,91,0.00,,BKN002,0.00,0.00,VWS V14.01,2013-09-20 09:53:00,
2013-09-20 04:54:00,67.6,64.9,28.99,ESE,112,0.0,0.0,91,0.00,,BKN002,0.00,0.00,VWS V14.01,2013-09-20 09:54:00,
2013-09-20 04:55:00,67.6,64.9,28.99,ESE,112,0.0,0.0,91,0.00,,BKN002,0.00,0.00,VWS V14.01,2013-09-20 09:55:00,
2013-09-20 04:56:00,67.5,64.8,28.99,ESE,112,0.0,0.0,91,0.00,,BKN002,0.00,0.00,VWS V14.01,2013-09-20 09:56:00,
2013-09-20 04:57:00,67.5,64.8,28.99,ESE,112,0.0,0.0,91,0.00,,BKN002,0.00,0.00,VWS V14.01,2013-09-20 09:57:00,
2013-09-20 04:58:00,67.5,64.8,28.99,ESE,112,0.0,0.0,91,0.00,,BKN002,0.00,0.00,VWS V14.01,2013-09-20 09:58:00,
2013-09-20 04:59:00,67.5,64.8,28.99,ESE,112,0.0,0.0,91,0.00,,BKN002,0.00,0.00,VWS V14.01,2013-09-20 09:59:00,
2013-09-20 05:00:00,67.6,64.9,28.99,ESE,112,0.0,0.0,91,0.00,,BKN002,0.00,0.00,VWS V14.01,2013-09-20 10:00:00,
2013-09-20 05:01:00,67.5,64.8,28.98,ESE,112,0.0,0.0,91,0.00,,BKN002,0.00,0.00,VWS V14.01,2013-09-20 10:01:00,
2013-09-20 05:02:00,67.5,64.8,28.99,ESE,112,0.0,0.0,91,0.00,,BKN002,0.00,0.00,VWS V14.01,2013-09-20 10:02:00,
2013-09-20 05:03:00,67.5,64.8,28.99,ESE,112,0.0,0.0,91,0.00,,BKN002,0.00,0.00,VWS V14.01,2013-09-20 10:03:00,
2013-09-20 05:04:00,67.5,64.8,28.99,ESE,112,0.0,0.0,91,0.00,,BKN002,0.00,0.00,VWS V14.01,2013-09-20 10:04:00,
2013-09-20 05:05:00,67.5,64.8,28.99,ESE,112,0.0,0.0,91,0.00,,BKN002,0.00,0.00,VWS V14.01,2013-09-20 10:05:00,
2013-09-20 05:06:00,67.5,64.8,28.99,ESE,112,0.0,0.0,91,0.00,,BKN002,0.00,0.00,VWS V14.01,2013-09-20 10:06:00,
2013-09-20 05:07:00,67.5,64.8,28.99,ESE,112,0.0,0.0,91,0.00,,BKN002,0.00,0.00,VWS V14.01,2013-09-20 10:07:00,
2013-09-20 05:08:00,67.5,64.8,28.99,ESE,112,0.0,0.0,91,0.00,,BKN002,0.00,0.00,VWS V14.01,2013-09-20 10:08:00,
2013-09-20 05:09:00,67.5,64.8,28.99,ESE,112,0.0,0.0,91,0.00,,BKN002,0.00,0.00,VWS V14.01,2013-09-20 10:09:00,
2013-09-20 05:10:00,67.5,64.8,28.99,ESE,112,0.0,0.0,91,0.00,,BKN002,0.00,0.00,VWS V14.01,2013-09-20 10:10:00,
2013-09-20 05:11:00,67.5,64.8,28.99,ESE,112,0.0,0.0,91,0.00,,BKN002,0.00,0.00,VWS V14.01,2013-09-20 10:11:00,
2013-09-20 05:12:00,67.5,64.8,28.99,ESE,112,0.0,0.0,91,0.00,,BKN002,0.00,0.00,VWS V14.01,2013-09-20 10:12:00,
2013-09-20 05:13:00,67.5,64.8,28.99,ESE,112,0.0,0.0,91,0.00,,BKN002,0.00,0.00,VWS V14.01,2013-09-20 10:13:00,
2013-09-20 05:14:00,67.5,64.8,28.99,ESE,112,0.0,0.0,91,0.00,,BKN002,0.00,0.00,VWS V14.01,2013-09-20 10:14:00,
2013-09-20 05:15:00,67.5,64.8,28.99,ESE,112,0.0,0.0,91,0.00,,BKN002,0.00,0.00,VWS V14.01,2013-09-20 10:15:00,
2013-09-20 05:16:00,67.5,64.8,28.99,ESE,112,0.0,2.0,91,0.00,,BKN002,0.00,0.00,VWS V14.01,2013-09-20 10:16:00,
2013-09-20 05:17:00,67.5,64.8,28.99,ESE,112,0.0,0.0,91,0.00,,BKN002,0.00,0.00,VWS V14.01,2013-09-20 10:17:00,
2013-09-20 05:18:00,67.5,64.8,28.99,ESE,112,0.0,1.0,91,0.00,,BKN002,0.00,0.00,VWS V14.01,2013-09-20 10:18:00,
2013-09-20 05:19:00,67.5,64.8,28.99,ESE,112,0.0,0.0,91,0.00,,BKN002,0.00,0.00,VWS V14.01,2013-09-20 10:19:00,
2013-09-20 05:20:00,67.5,64.8,28.99,ESE,112,0.0,0.0,91,0.00,,BKN002,0.00,0.00,VWS V14.01,2013-09-20 10:20:00,
2013-09-20 05:21:00,67.5,64.8,28.99,SE,135,0.0,1.0,91,0.00,,BKN002,0.00,0.00,VWS V14.01,2013-09-20 10:21:00,
2013-09-20 05:22:00,67.5,64.8,28.99,SE,135,0.0,0.0,91,0.00,,BKN002,0.00,0.00,VWS V14.01,2013-09-20 10:22:00,
2013-09-20 05:23:00,67.5,64.8,28.99,SE,135,0.0,0.0,91,0.00,,BKN002,0.00,0.00,VWS V14.01,2013-09-20 10:23:00,
2013-09-20 05:24:00,67.5,64.8,28.99,SE,135,0.0,1.0,91,0.00,,BKN002,0.00,0.00,VWS V14.01,2013-09-20 10:24:00,
2013-09-20 05:25:00,67.5,64.8,28.99,ESE,112,0.0,1.0,91,0.00,,BKN002,0.00,0.00,VWS V14.01,2013-09-20 10:25:00,
2013-09-20 05:26:00,67.5,64.8,28.99,ESE,112,0.0,1.0,91,0.00,,BKN002,0.00,0.00,VWS V14.01,2013-09-20 10:26:00,
2013-09-20 05:27:00,67.5,64.8,28.99,ESE,112,0.0,0.0,91,0.00,,BKN002,0.00,0.00,VWS V14.01,2013-09-20 10:27:00,
2013-09-20 05:28:00,67.5,64.8,28.99,ESE,112,0.0,1.0,91,0.00,,BKN002,0.00,0.00,VWS V14.01,2013-09-20 10:28:00,
2013-09-20 05:29:00,67.5,64.8,28.99,ESE,112,0.0,1.0,91,0.00,,BKN002,0.00,0.00,VWS V14.01,2013-09-20 10:29:00,
2013-09-20 05:30:00,67.5,64.8,28.99,South,180,0.0,2.0,91,0.00,,BKN002,0.00,0.00,VWS V14.01,2013-09-20 10:30:00,
2013-09-20 05:31:00,67.5,64.8,28.99,South,180,0.0,0.0,91,0.00,,BKN002,0.00,0.00,VWS V14.01,2013-09-20 10:31:00,
2013-09-20 05:32:00,67.5,64.8,28.99,South,180,0.0,0.0,91,0.00,,BKN002,0.00,0.00,VWS V14.01,2013-09-20 10:32:00,
2013-09-20 05:33:00,67.5,64.8,28.99,SE,135,0.0,1.0,91,0.00,,BKN002,0.00,0.00,VWS V14.01,2013-09-20 10:33:00,
2013-09-20 05:34:00,67.5,64.8,28.99,SE,135,0.0,1.0,91,0.00,,BKN002,0.00,0.00,VWS V14.01,2013-09-20 10:34:00,
2013-09-20 05:35:00,67.5,64.8,28.99,SE,135,0.0,1.0,91,0.00,,BKN002,0.00,0.00,VWS V14.01,2013-09-20 10:35:00,
2013-09-20 05:36:00,67.5,64.8,28.99,SE,135,0.0,1.0,91,0.00,,BKN002,0.00,0.00,VWS V14.01,2013-09-20 10:36:00,
2013-09-20 05:37:00,67.5,64.8,28.99,SE,135,0.0,0.0,91,0.00,,BKN002,0.00,0.00,VWS V14.01,2013-09-20 10:37:00,
2013-09-20 05:38:00,67.5,64.8,28.99,SE,135,0.0,0.0,91,0.00,,BKN002,0.00,0.00,VWS V14.01,2013-09-20 10:38:00,
2013-09-20 05:39:00,67.5,64.8,28.99,SE,135,0.0,1.0,91,0.00,,BKN002,0.00,0.00,VWS V14.01,2013-09-20 10:39:00,
2013-09-20 05:40:00,67.5,64.8,28.99,SE,135,0.0,0.0,91,0.00,,BKN002,0.00,0.00,VWS V14.01,2013-09-20 10:40:00,
2013-09-20 05:41:00,67.5,64.8,28.99,SE,135,0.0,0.0,91,0.00,,BKN002,0.00,0.00,VWS V14.01,2013-09-20 10:41:00,
2013-09-20 05:42:00,67.5,64.8,28.99,SE,135,0.0,0.0,91,0.00,,BKN002,0.00,0.00,VWS V14.01,2013-09-20 10:42:00,
2013-09-20 05:43:00,67.5,64.8,28.99,ESE,112,0.0,1.0,91,0.00,,BKN002,0.00,0.00,VWS V14.01,2013-09-20 10:43:00,
2013-09-20 05:44:00,67.5,64.8,28.99,ESE,112,0.0,1.0,91,0.00,,BKN002,0.00,0.00,VWS V14.01,2013-09-20 10:44:00,
2013-09-20 05:45:00,67.5,64.8,28.99,ESE,112,0.0,1.0,91,0.00,,BKN002,0.00,0.00,VWS V14.01,2013-09-20 10:45:00,
2013-09-20 05:46:00,67.5,64.8,28.99,ESE,112,0.0,1.0,91,0.00,,BKN002,0.00,0.00,VWS V14.01,2013-09-20 10:46:00,
2013-09-20 05:47:00,67.6,64.9,28.99,ESE,112,0.0,1.0,91,0.00,,BKN002,0.00,0.00,VWS V14.01,2013-09-20 10:47:00,
2013-09-20 05:48:00,67.6,64.9,28.99,ESE,112,0.0,0.0,91,0.00,,BKN002,0.00,0.00,VWS V14.01,2013-09-20 10:48:00,
2013-09-20 05:49:00,67.5,64.8,28.99,ESE,112,0.0,0.0,91,0.00,,BKN002,0.00,0.00,VWS V14.01,2013-09-20 10:49:00,
2013-09-20 05:50:00,67.5,64.8,28.99,ESE,112,0.0,0.0,91,0.00,,BKN002,0.00,0.00,VWS V14.01,2013-09-20 10:50:00,
2013-09-20 05:51:00,67.5,64.8,28.99,ESE,112,0.0,0.0,91,0.00,,BKN002,0.00,0.00,VWS V14.01,2013-09-20 10:51:00,
2013-09-20 05:52:00,67.6,64.9,28.99,ESE,112,0.0,1.0,91,0.00,,BKN002,0.00,0.00,VWS V14.01,2013-09-20 10:52:00,
2013-09-20 05:53:00,67.6,64.9,28.99,ESE,112,0.0,0.0,91,0.00,,BKN002,0.00,0.00,VWS V14.01,2013-09-20 10:53:00,
2013-09-20 05:54:00,67.6,64.9,28.99,ESE,112,0.0,0.0,91,0.00,,BKN002,0.00,0.00,VWS V14.01,2013-09-20 10:54:00,
2013-09-20 05:55:00,67.6,64.9,28.99,ESE,112,0.0,0.0,91,0.00,,BKN002,0.00,0.00,VWS V14.01,2013-09-20 10:55:00,
2013-09-20 05:56:00,67.6,64.9,28.98,ESE,112,0.0,0.0,91,0.00,,BKN002,0.00,0.00,VWS V14.01,2013-09-20 10:56:00,
2013-09-20 05:57:00,67.6,64.9,28.98,ESE,112,0.0,0.0,91,0.00,,BKN002,0.00,0.00,VWS V14.01,2013-09-20 10:57:00,
2013-09-20 05:58:00,67.6,64.9,28.99,South,180,1.0,3.0,91,0.00,,BKN002,0.00,0.00,VWS V14.01,2013-09-20 10:58:00,
2013-09-20 05:59:00,67.5,64.8,28.99,NNE,22,0.0,1.0,91,0.00,,BKN002,0.00,0.00,VWS V14.01,2013-09-20 10:59:00,
2013-09-20 06:00:00,67.5,64.8,28.99,NNE,22,0.0,0.0,91,0.00,,BKN002,0.00,0.00,VWS V14.01,2013-09-20 11:00:00,
2013-09-20 06:01:00,67.5,64.8,28.98,NNE,22,0.0,0.0,91,0.00,,BKN002,0.00,0.00,VWS V14.01,2013-09-20 11:01:00,
2013-09-20 06:02:00,67.5,64.8,28.98,NNE,22,0.0,0.0,91,0.00,,BKN002,0.00,0.00,VWS V14.01,2013-09-20 11:02:00,
2013-09-20 06:03:00,67.5,64.8,28.98,NNE,22,0.0,1.0,91,0.00,,BKN002,0.00,0.00,VWS V14.01,2013-09-20 11:03:00,
2013-09-20 06:04:00,67.4,64.7,28.98,NNE,22,0.0,0.0,91,0.00,,BKN002,0.00,0.00,VWS V14.01,2013-09-20 11:04:00,
2013-09-20 06:05:00,67.5,64.8,28.98,NNE,22,0.0,1.0,91,0.00,,BKN002,0.00,0.00,VWS V14.01,2013-09-20 11:05:00,
2013-09-20 06:06:00,67.5,64.8,28.98,NNE,22,0.0,0.0,91,0.00,,BKN002,0.00,0.00,VWS V14.01,2013-09-20 11:06:00,
2013-09-20 06:07:00,67.4,64.7,28.98,NNE,22,0.0,0.0,91,0.00,,BKN002,0.00,0.00,VWS V14.01,2013-09-20 11:07:00,
2013-09-20 06:08:00,67.5,64.8,28.98,NNE,22,0.0,0.0,91,0.00,,BKN002,0.00,0.00,VWS V14.01,2013-09-20 11:08:00,
2013-09-20 06:09:00,67.4,64.7,28.98,NNE,22,0.0,1.0,91,0.00,,BKN002,0.00,0.00,VWS V14.01,2013-09-20 11:09:00,
2013-09-20 06:10:00,67.4,64.7,28.99,NNE,22,0.0,1.0,91,0.00,,BKN002,0.00,0.00,VWS V14.01,2013-09-20 11:10:00,
2013-09-20 06:11:00,67.4,64.7,28.98,NNE,22,0.0,0.0,91,0.00,,BKN002,0.00,0.00,VWS V14.01,2013-09-20 11:11:00,
2013-09-20 06:12:00,67.4,64.7,28.98,North,0,1.0,2.0,91,0.00,,BKN002,0.00,0.00,VWS V14.01,2013-09-20 11:12:00,
2013-09-20 06:13:00,67.4,64.7,28.98,North,0,0.0,0.0,91,0.00,,BKN002,0.00,0.00,VWS V14.01,2013-09-20 11:13:00,
2013-09-20 06:14:00,67.4,64.7,28.98,SE,135,0.0,1.0,91,0.00,,BKN002,0.00,0.00,VWS V14.01,2013-09-20 11:14:00,
2013-09-20 06:15:00,67.4,64.7,28.98,SE,135,0.0,1.0,91,0.00,,BKN002,0.00,0.00,VWS V14.01,2013-09-20 11:15:00,
2013-09-20 06:16:00,67.4,64.7,28.98,SE,135,0.0,0.0,91,0.00,,BKN002,0.00,0.00,VWS V14.01,2013-09-20 11:16:00,
2013-09-20 06:17:00,67.3,64.6,28.98,SE,135,0.0,1.0,91,0.00,,BKN002,0.00,0.00,VWS V14.01,2013-09-20 11:17:00,
2013-09-20 06:18:00,67.3,64.6,28.99,SE,135,0.0,0.0,91,0.00,,BKN002,0.00,0.00,VWS V14.01,2013-09-20 11:18:00,
2013-09-20 06:19:00,67.3,64.6,28.99,SE,135,0.0,0.0,91,0.00,,BKN002,0.00,0.00,VWS V14.01,2013-09-20 11:19:00,
2013-09-20 06:20:00,67.3,64.6,28.99,SE,135,0.0,0.0,91,0.00,,BKN002,0.00,0.00,VWS V14.01,2013-09-20 11:20:00,
2013-09-20 06:21:00,67.3,64.6,28.99,SE,135,0.0,1.0,91,0.00,,BKN002,0.00,0.00,VWS V14.01,2013-09-20 11:21:00,
2013-09-20 06:22:00,67.2,64.5,28.99,SE,135,0.0,1.0,91,0.00,,BKN002,0.00,0.00,VWS V14.01,2013-09-20 11:22:00,
2013-09-20 06:23:00,67.2,64.5,28.99,SE,135,0.0,1.0,91,0.00,,BKN002,0.00,0.00,VWS V14.01,2013-09-20 11:23:00,
2013-09-20 06:24:00,67.2,64.5,28.99,SE,135,0.0,0.0,91,0.00,,BKN002,0.00,0.00,VWS V14.01,2013-09-20 11:24:00,
2013-09-20 06:25:00,67.2,64.5,28.99,SE,135,0.0,0.0,91,0.00,,BKN002,0.00,0.00,VWS V14.01,2013-09-20 11:25:00,
2013-09-20 06:26:00,67.2,64.5,28.99,SE,135,0.0,1.0,91,0.00,,BKN002,0.00,0.00,VWS V14.01,2013-09-20 11:26:00,
2013-09-20 06:27:00,67.2,64.5,28.99,SE,135,0.0,1.0,91,0.00,,BKN002,0.00,0.00,VWS V14.01,2013-09-20 11:27:00,
2013-09-20 06:28:00,67.2,64.5,28.99,SE,135,0.0,0.0,91,0.00,,BKN002,0.00,0.00,VWS V14.01,2013-09-20 11:28:00,
2013-09-20 06:29:00,67.2,64.5,28.99,SE,135,0.0,1.0,91,0.00,,BKN002,0.00,0.00,VWS V14.01,2013-09-20 11:29:00,
2013-09-20 06:30:00,67.2,64.5,28.99,SE,135,0.0,0.0,91,0.00,,BKN002,0.00,0.00,VWS V14.01,2013-09-20 11:30:00,
2013-09-20 06:31:00,67.2,64.5,28.99,SE,135,0.0,0.0,91,0.00,,BKN002,0.00,0.00,VWS V14.01,2013-09-20 11:31:00,
2013-09-20 06:32:00,67.2,64.5,28.99,SE,135,0.0,1.0,91,0.00,,BKN002,0.00,0.00,VWS V14.01,2013-09-20 11:32:00,
2013-09-20 06:33:00,67.1,64.4,28.99,SE,135,0.0,0.0,91,0.00,,BKN002,0.00,0.00,VWS V14.01,2013-09-20 11:33:00,
2013-09-20 06:34:00,67.1,64.4,28.99,SE,135,0.0,0.0,91,0.00,,BKN002,0.00,0.00,VWS V14.01,2013-09-20 11:34:00,
2013-09-20 06:35:00,67.1,64.4,29.00,SE,135,0.0,1.0,91,0.00,,BKN002,0.00,0.00,VWS V14.01,2013-09-20 11:35:00,
2013-09-20 06:36:00,67.1,64.4,29.00,SE,135,0.0,0.0,91,0.00,,BKN002,0.00,0.00,VWS V14.01,2013-09-20 11:36:00,
2013-09-20 06:37:00,67.1,64.4,29.00,SE,135,0.0,0.0,91,0.00,,BKN002,0.00,0.00,VWS V14.01,2013-09-20 11:37:00,
2013-09-20 06:38:00,67.1,64.4,29.00,SE,135,0.0,2.0,91,0.00,,BKN002,0.00,0.00,VWS V14.01,2013-09-20 11:38:00,
2013-09-20 06:39:00,67.0,64.3,29.00,SE,135,0.0,1.0,91,0.00,,BKN002,0.00,0.00,VWS V14.01,2013-09-20 11:39:00,
2013-09-20 06:40:00,67.0,64.3,29.00,SE,135,0.0,1.0,91,0.00,,BKN002,0.00,0.00,VWS V14.01,2013-09-20 11:40:00,
2013-09-20 06:41:00,67.0,64.3,29.00,ENE,68,0.0,1.0,91,0.00,,BKN002,0.00,0.00,VWS V14.01,2013-09-20 11:41:00,
2013-09-20 06:42:00,67.0,64.3,28.99,ENE,68,0.0,0.0,91,0.00,,BKN002,0.00,0.00,VWS V14.01,2013-09-20 11:42:00,
2013-09-20 06:43:00,67.0,64.3,28.99,SSE,158,0.0,2.0,91,0.00,,BKN002,0.00,0.00,VWS V14.01,2013-09-20 11:43:00,
2013-09-20 06:44:00,67.0,64.3,28.99,SSE,158,0.0,1.0,91,0.00,,BKN002,0.00,0.00,VWS V14.01,2013-09-20 11:44:00,
2013-09-20 06:45:00,67.1,64.4,28.99,SSE,158,0.0,0.0,91,0.00,,BKN002,0.00,0.00,VWS V14.01,2013-09-20 11:45:00,
2013-09-20 06:46:00,67.1,64.4,28.99,SSE,158,0.0,0.0,91,0.00,,BKN002,0.00,0.00,VWS V14.01,2013-09-20 11:46:00,
2013-09-20 06:47:00,67.1,64.4,28.99,SSE,158,0.0,0.0,91,0.00,,BKN002,0.00,0.00,VWS V14.01,2013-09-20 11:47:00,
2013-09-20 06:48:00,67.1,64.4,28.99,SSE,158,0.0,1.0,91,0.00,,BKN002,0.00,0.00,VWS V14.01,2013-09-20 11:48:00,
2013-09-20 06:49:00,67.1,64.4,28.99,SSE,158,0.0,0.0,91,0.00,,BKN002,0.00,0.00,VWS V14.01,2013-09-20 11:49:00,
2013-09-20 06:50:00,67.1,64.4,28.99,SSE,158,0.0,0.0,91,0.00,,BKN002,0.00,0.00,VWS V14.01,2013-09-20 11:50:00,
2013-09-20 06:51:00,67.1,64.4,28.99,SSE,158,0.0,0.0,91,0.00,,BKN002,0.00,0.00,VWS V14.01,2013-09-20 11:51:00,
2013-09-20 06:52:00,67.1,64.4,28.99,SSE,158,0.0,0.0,91,0.00,,BKN002,0.00,0.00,VWS V14.01,2013-09-20 11:52:00,
2013-09-20 06:53:00,67.1,64.4,28.99,SSE,158,0.0,0.0,91,0.00,,BKN002,0.00,0.00,VWS V14.01,2013-09-20 11:53:00,
2013-09-20 06:54:00,67.1,64.4,28.99,SSE,158,0.0,0.0,91,0.00,,BKN002,0.00,0.00,VWS V14.01,2013-09-20 11:54:00,
2013-09-20 06:55:00,67.1,64.4,28.99,SSE,158,0.0,0.0,91,0.00,,BKN002,0.00,0.00,VWS V14.01,2013-09-20 11:55:00,
2013-09-20 06:56:00,67.1,64.4,28.99,SSE,158,0.0,1.0,91,0.00,,BKN002,0.00,3.00,VWS V14.01,2013-09-20 11:56:00,
2013-09-20 06:57:00,67.1,64.4,28.99,SSE,158,0.0,0.0,91,0.00,,BKN002,0.00,5.00,VWS V14.01,2013-09-20 11:57:00,
2013-09-20 06:58:00,67.1,64.4,28.98,SSE,158,0.0,1.0,91,0.00,,BKN002,0.00,5.00,VWS V14.01,2013-09-20 11:58:00,
2013-09-20 06:59:00,67.1,64.4,28.98,SSE,158,0.0,0.0,91,0.00,,BKN002,0.00,5.00,VWS V14.01,2013-09-20 11:59:00,
2013-09-20 07:00:00,67.1,64.4,28.98,SSE,158,0.0,1.0,91,0.00,,BKN002,0.00,5.00,VWS V14.01,2013-09-20 12:00:00,
2013-09-20 07:01:00,67.0,64.3,28.98,SSE,158,0.0,1.0,91,0.00,,BKN002,0.00,7.00,VWS V14.01,2013-09-20 12:01:00,
2013-09-20 07:02:00,67.0,64.3,28.98,SSE,158,0.0,0.0,91,0.00,,BKN002,0.00,7.00,VWS V14.01,2013-09-20 12:02:00,
2013-09-20 07:03:00,67.0,64.3,28.99,SSE,158,0.0,0.0,91,0.00,,BKN002,0.00,7.00,VWS V14.01,2013-09-20 12:03:00,
2013-09-20 07:04:00,67.0,64.3,28.99,SSE,158,0.0,0.0,91,0.00,,BKN002,0.00,9.00,VWS V14.01,2013-09-20 12:04:00,
2013-09-20 07:05:00,67.0,64.3,28.99,SSE,158,0.0,0.0,91,0.00,,BKN002,0.00,9.00,VWS V14.01,2013-09-20 12:05:00,
2013-09-20 07:06:00,67.0,64.3,28.99,SSE,158,0.0,1.0,91,0.00,,BKN002,0.00,9.00,VWS V14.01,2013-09-20 12:06:00,
2013-09-20 07:07:00,67.0,64.3,29.00,SSE,158,0.0,0.0,91,0.00,,BKN002,0.00,9.00,VWS V14.01,2013-09-20 12:07:00,
2013-09-20 07:08:00,67.0,64.3,29.00,East,90,0.0,2.0,91,0.00,,BKN002,0.00,10.00,VWS V14.01,2013-09-20 12:08:00,
2013-09-20 07:09:00,67.0,64.3,29.00,East,90,0.0,0.0,91,0.00,,BKN002,0.00,11.00,VWS V14.01,2013-09-20 12:09:00,
2013-09-20 07:10:00,67.0,64.3,29.00,East,90,0.0,1.0,91,0.00,,BKN002,0.00,11.00,VWS V14.01,2013-09-20 12:10:00,
2013-09-20 07:11:00,67.0,64.3,29.00,East,90,0.0,1.0,91,0.00,,BKN002,0.00,12.00,VWS V14.01,2013-09-20 12:11:00,
2013-09-20 07:12:00,67.0,64.3,29.00,East,90,0.0,1.0,91,0.00,,BKN002,0.00,14.00,VWS V14.01,2013-09-20 12:12:00,
2013-09-20 07:13:00,67.0,64.3,29.00,East,90,0.0,0.0,91,0.00,,BKN002,0.00,14.00,VWS V14.01,2013-09-20 12:13:00,
2013-09-20 07:14:00,67.0,64.3,29.00,East,90,0.0,0.0,91,0.00,,BKN002,0.00,17.00,VWS V14.01,2013-09-20 12:14:00,
2013-09-20 07:15:00,67.0,64.3,29.00,SE,135,0.0,2.0,91,0.00,,BKN002,0.00,19.00,VWS V14.01,2013-09-20 12:15:00,
2013-09-20 07:16:00,67.0,64.3,29.00,ESE,112,0.0,2.0,91,0.00,,BKN002,0.00,21.00,VWS V14.01,2013-09-20 12:16:00,
2013-09-20 07:17:00,67.0,64.3,29.00,ESE,112,0.0,1.0,91,0.00,,BKN002,0.00,23.00,VWS V14.01,2013-09-20 12:17:00,
2013-09-20 07:18:00,67.0,64.3,29.00,ESE,112,0.0,0.0,91,0.00,,BKN002,0.00,23.00,VWS V14.01,2013-09-20 12:18:00,
2013-09-20 07:19:00,67.0,64.3,29.00,ESE,112,0.0,0.0,91,0.00,,BKN002,0.00,21.00,VWS V14.01,2013-09-20 12:19:00,
2013-09-20 07:20:00,67.0,64.3,29.00,ESE,112,0.0,0.0,91,0.00,,BKN002,0.00,23.00,VWS V14.01,2013-09-20 12:20:00,
2013-09-20 07:21:00,67.0,64.3,29.00,ESE,112,0.0,0.0,91,0.00,,BKN002,0.00,21.00,VWS V14.01,2013-09-20 12:21:00,
2013-09-20 07:22:00,67.0,64.6,29.00,ESE,112,0.0,0.0,92,0.00,,BKN002,0.00,18.00,VWS V14.01,2013-09-20 12:22:00,
2013-09-20 07:23:00,67.0,64.6,29.00,ESE,112,0.0,1.0,92,0.00,,BKN002,0.00,19.00,VWS V14.01,2013-09-20 12:23:00,
2013-09-20 07:24:00,67.0,64.6,29.00,ESE,112,0.0,1.0,92,0.00,,BKN002,0.00,19.00,VWS V14.01,2013-09-20 12:24:00,
2013-09-20 07:25:00,67.0,64.6,29.00,ESE,112,0.0,0.0,92,0.00,,BKN002,0.00,20.00,VWS V14.01,2013-09-20 12:25:00,
2013-09-20 07:26:00,67.1,64.7,28.99,ESE,112,0.0,1.0,92,0.00,,BKN002,0.00,21.00,VWS V14.01,2013-09-20 12:26:00,
2013-09-20 07:27:00,67.0,64.6,28.99,ESE,112,0.0,0.0,92,0.00,,BKN002,0.00,23.00,VWS V14.01,2013-09-20 12:27:00,
2013-09-20 07:28:00,67.0,64.3,28.99,ESE,112,0.0,0.0,91,0.00,,BKN002,0.00,26.00,VWS V14.01,2013-09-20 12:28:00,
2013-09-20 07:29:00,67.0,64.3,28.99,ESE,112,0.0,0.0,91,0.00,,BKN002,0.00,28.00,VWS V14.01,2013-09-20 12:29:00,
2013-09-20 07:30:00,67.0,64.3,28.99,ESE,112,0.0,0.0,91,0.00,,BKN002,0.00,28.00,VWS V14.01,2013-09-20 12:30:00,
2013-09-20 07:31:00,67.0,64.3,28.99,ESE,112,0.0,0.0,91,0.00,,BKN002,0.00,29.00,VWS V14.01,2013-09-20 12:31:00,
2013-09-20 07:32:00,67.0,64.3,28.99,ESE,112,0.0,1.0,91,0.00,,BKN002,0.00,30.00,VWS V14.01,2013-09-20 12:32:00,
2013-09-20 07:33:00,67.0,64.3,28.99,ESE,112,0.0,0.0,91,0.00,,BKN002,0.00,30.00,VWS V14.01,2013-09-20 12:33:00,
2013-09-20 07:34:00,67.0,64.6,28.99,ESE,112,0.0,0.0,92,0.00,,BKN002,0.00,30.00,VWS V14.01,2013-09-20 12:34:00,
2013-09-20 07:35:00,67.1,64.7,28.99,ESE,112,0.0,0.0,92,0.00,,BKN002,0.00,30.00,VWS V14.01,2013-09-20 12:35:00,
2013-09-20 07:36:00,67.1,64.7,28.99,ESE,112,0.0,1.0,92,0.00,,BKN002,0.00,32.00,VWS V14.01,2013-09-20 12:36:00,
2013-09-20 07:37:00,67.1,64.7,28.99,ESE,112,0.0,0.0,92,0.00,,BKN002,0.00,33.00,VWS V14.01,2013-09-20 12:37:00,
2013-09-20 07:38:00,67.0,64.6,28.99,ESE,112,0.0,1.0,92,0.00,,BKN002,0.00,32.00,VWS V14.01,2013-09-20 12:38:00,
2013-09-20 07:39:00,67.0,64.6,28.99,ESE,112,0.0,0.0,92,0.00,,BKN002,0.00,30.00,VWS V14.01,2013-09-20 12:39:00,
2013-09-20 07:40:00,67.0,64.6,28.99,ESE,112,0.0,0.0,92,0.00,,BKN002,0.00,30.00,VWS V14.01,2013-09-20 12:40:00,
2013-09-20 07:41:00,67.0,64.6,28.99,ESE,112,0.0,0.0,92,0.00,,BKN002,0.00,30.00,VWS V14.01,2013-09-20 12:41:00,
2013-09-20 07:42:00,67.0,64.6,28.99,ESE,112,0.0,0.0,92,0.00,,BKN002,0.00,30.00,VWS V14.01,2013-09-20 12:42:00,
2013-09-20 07:43:00,67.0,64.6,28.99,ESE,112,0.0,1.0,92,0.00,,BKN002,0.00,29.00,VWS V14.01,2013-09-20 12:43:00,
2013-09-20 07:44:00,67.0,64.6,28.99,ESE,112,0.0,0.0,92,0.00,,BKN002,0.00,30.00,VWS V14.01,2013-09-20 12:44:00,
2013-09-20 07:45:00,67.0,64.6,28.99,ESE,112,0.0,0.0,92,0.00,,BKN002,0.00,30.00,VWS V14.01,2013-09-20 12:45:00,
2013-09-20 07:46:00,67.0,64.6,28.99,ESE,112,0.0,0.0,92,0.00,,BKN002,0.00,30.00,VWS V14.01,2013-09-20 12:46:00,
2013-09-20 07:47:00,67.0,64.6,28.99,ESE,112,0.0,1.0,92,0.00,,BKN002,0.00,32.00,VWS V14.01,2013-09-20 12:47:00,
2013-09-20 07:48:00,67.0,64.6,28.99,ESE,112,0.0,0.0,92,0.00,,BKN002,0.00,32.00,VWS V14.01,2013-09-20 12:48:00,
2013-09-20 07:49:00,67.0,64.6,28.99,ESE,112,0.0,0.0,92,0.00,,BKN002,0.00,35.00,VWS V14.01,2013-09-20 12:49:00,
2013-09-20 07:50:00,67.0,64.6,28.99,ESE,112,0.0,0.0,92,0.00,,BKN002,0.00,39.00,VWS V14.01,2013-09-20 12:50:00,
2013-09-20 07:51:00,67.0,64.6,28.99,ESE,112,0.0,0.0,92,0.00,,BKN002,0.00,42.00,VWS V14.01,2013-09-20 12:51:00,
2013-09-20 07:52:00,67.1,64.7,28.99,ESE,112,0.0,0.0,92,0.00,,BKN002,0.00,40.00,VWS V14.01,2013-09-20 12:52:00,
2013-09-20 07:53:00,67.1,64.7,28.99,ESE,112,0.0,1.0,92,0.00,,BKN002,0.00,40.00,VWS V14.01,2013-09-20 12:53:00,
2013-09-20 07:54:00,67.1,64.7,28.99,ESE,112,0.0,0.0,92,0.00,,BKN002,0.00,47.00,VWS V14.01,2013-09-20 12:54:00,
2013-09-20 07:55:00,67.1,64.7,28.99,ESE,112,0.0,0.0,92,0.00,,BKN002,0.00,47.00,VWS V14.01,2013-09-20 12:55:00,
2013-09-20 07:56:00,67.1,64.7,28.99,ESE,112,0.0,0.0,92,0.00,,BKN002,0.00,49.00,VWS V14.01,2013-09-20 12:56:00,
2013-09-20 07:57:00,67.1,64.7,28.99,ESE,112,0.0,0.0,92,0.00,,BKN002,0.00,47.00,VWS V14.01,2013-09-20 12:57:00,
2013-09-20 07:58:00,67.1,64.7,28.99,ESE,112,0.0,0.0,92,0.00,,BKN002,0.00,44.00,VWS V14.01,2013-09-20 12:58:00,
2013-09-20 07:59:00,67.1,64.7,28.99,ESE,112,0.0,0.0,92,0.00,,BKN002,0.00,46.00,VWS V14.01,2013-09-20 12:59:00,
2013-09-20 08:00:00,67.1,64.7,28.99,ESE,112,0.0,0.0,92,0.00,,BKN002,0.00,45.00,VWS V14.01,2013-09-20 13:00:00,
2013-09-20 08:01:00,67.1,64.7,28.99,ESE,112,0.0,0.0,92,0.00,,BKN002,0.00,40.00,VWS V14.01,2013-09-20 13:01:00,
2013-09-20 08:02:00,67.1,64.7,28.99,ESE,112,0.0,0.0,92,0.00,,BKN002,0.00,39.00,VWS V14.01,2013-09-20 13:02:00,
2013-09-20 08:03:00,67.1,64.7,28.99,ESE,112,0.0,0.0,92,0.00,,BKN002,0.00,37.00,VWS V14.01,2013-09-20 13:03:00,
2013-09-20 08:04:00,67.2,64.8,28.99,ESE,112,0.0,0.0,92,0.00,,BKN002,0.00,37.00,VWS V14.01,2013-09-20 13:04:00,
2013-09-20 08:05:00,67.2,64.8,28.99,ESE,112,0.0,0.0,92,0.00,,BKN002,0.00,39.00,VWS V14.01,2013-09-20 13:05:00,
2013-09-20 08:06:00,67.2,64.8,28.99,SE,135,0.0,1.0,92,0.00,,BKN002,0.00,41.00,VWS V14.01,2013-09-20 13:06:00,
2013-09-20 08:07:00,67.2,64.8,28.99,SE,135,0.0,1.0,92,0.00,,BKN002,0.00,47.00,VWS V14.01,2013-09-20 13:07:00,
2013-09-20 08:08:00,67.2,64.8,28.99,SE,135,0.0,1.0,92,0.00,,BKN002,0.00,49.00,VWS V14.01,2013-09-20 13:08:00,
2013-09-20 08:09:00,67.2,64.8,28.99,SE,135,0.0,0.0,92,0.00,,BKN002,0.00,53.00,VWS V14.01,2013-09-20 13:09:00,
2013-09-20 08:10:00,67.2,64.8,28.99,SE,135,0.0,0.0,92,0.00,,BKN002,0.00,54.00,VWS V14.01,2013-09-20 13:10:00,
2013-09-20 08:11:00,67.2,64.8,28.99,SE,135,0.0,1.0,92,0.00,,BKN002,0.00,53.00,VWS V14.01,2013-09-20 13:11:00,
2013-09-20 08:12:00,67.2,64.8,28.99,SE,135,0.0,1.0,92,0.00,,BKN002,0.00,51.00,VWS V14.01,2013-09-20 13:12:00,
2013-09-20 08:13:00,67.2,64.8,28.99,SE,135,0.0,1.0,92,0.00,,BKN002,0.00,54.00,VWS V14.01,2013-09-20 13:13:00,
2013-09-20 08:14:00,67.2,64.8,28.99,SE,135,0.0,1.0,92,0.00,,BKN002,0.00,62.00,VWS V14.01,2013-09-20 13:14:00,
2013-09-20 08:15:00,67.2,64.8,28.99,SE,135,1.0,4.0,92,0.00,,BKN002,0.00,67.00,VWS V14.01,2013-09-20 13:15:00,
2013-09-20 08:16:00,67.2,64.8,28.99,SE,135,0.0,1.0,92,0.00,,BKN002,0.00,63.00,VWS V14.01,2013-09-20 13:16:00,
2013-09-20 08:17:00,67.1,64.7,28.99,SE,135,0.0,1.0,92,0.00,,BKN002,0.00,60.00,VWS V14.01,2013-09-20 13:17:00,
2013-09-20 08:18:00,67.1,64.7,28.99,SE,135,0.0,0.0,92,0.00,,BKN002,0.00,49.00,VWS V14.01,2013-09-20 13:18:00,
2013-09-20 08:19:00,67.1,64.7,28.99,SE,135,0.0,2.0,92,0.00,,BKN002,0.00,39.00,VWS V14.01,2013-09-20 13:19:00,
2013-09-20 08:20:00,67.1,64.7,28.99,SE,135,0.0,0.0,92,0.00,,BKN002,0.00,33.00,VWS V14.01,2013-09-20 13:20:00,
2013-09-20 08:21:00,67.2,64.8,28.99,SE,135,0.0,0.0,92,0.00,,BKN002,0.00,32.00,VWS V14.01,2013-09-20 13:21:00,
2013-09-20 08:22:00,67.2,64.8,28.99,SE,135,0.0,0.0,92,0.00,,BKN002,0.00,33.00,VWS V14.01,2013-09-20 13:22:00,
2013-09-20 08:23:00,67.2,64.8,28.99,SE,135,0.0,0.0,92,0.00,,BKN002,0.00,40.00,VWS V14.01,2013-09-20 13:23:00,
2013-09-20 08:24:00,67.2,64.8,28.99,SE,135,0.0,0.0,92,0.00,,BKN002,0.00,47.00,VWS V14.01,2013-09-20 13:24:00,
2013-09-20 08:25:00,67.2,64.8,28.99,SE,135,0.0,1.0,92,0.00,,BKN002,0.00,44.00,VWS V14.01,2013-09-20 13:25:00,
2013-09-20 08:26:00,67.3,64.9,28.99,SE,135,0.0,0.0,92,0.00,,BKN002,0.00,39.00,VWS V14.01,2013-09-20 13:26:00,
2013-09-20 08:27:00,67.3,64.9,28.99,SE,135,0.0,0.0,92,0.00,,BKN002,0.00,39.00,VWS V14.01,2013-09-20 13:27:00,
2013-09-20 08:28:00,67.3,64.9,29.00,SE,135,0.0,0.0,92,0.00,,BKN002,0.00,28.00,VWS V14.01,2013-09-20 13:28:00,
2013-09-20 08:29:00,67.4,65.0,28.99,SE,135,0.0,0.0,92,0.00,,BKN002,0.00,26.00,VWS V14.01,2013-09-20 13:29:00,
2013-09-20 08:30:00,67.4,65.0,29.00,SE,135,0.0,0.0,92,0.00,,BKN002,0.00,24.00,VWS V14.01,2013-09-20 13:30:00,
2013-09-20 08:31:00,67.4,65.0,28.99,SE,135,0.0,1.0,92,0.00,,BKN002,0.00,30.00,VWS V14.01,2013-09-20 13:31:00,
2013-09-20 08:32:00,67.4,65.0,28.99,SE,135,0.0,1.0,92,0.00,,BKN002,0.00,35.00,VWS V14.01,2013-09-20 13:32:00,
2013-09-20 08:33:00,67.4,65.0,28.99,SE,135,0.0,0.0,92,0.00,,BKN002,0.00,35.00,VWS V14.01,2013-09-20 13:33:00,
2013-09-20 08:34:00,67.4,65.0,28.99,SE,135,0.0,1.0,92,0.00,,BKN002,0.00,32.00,VWS V14.01,2013-09-20 13:34:00,
2013-09-20 08:35:00,67.4,65.0,29.00,SE,135,0.0,0.0,92,0.00,,BKN002,0.00,28.00,VWS V14.01,2013-09-20 13:35:00,
2013-09-20 08:36:00,67.4,65.0,29.00,SE,135,0.0,1.0,92,0.00,,BKN002,0.00,27.00,VWS V14.01,2013-09-20 13:36:00,
2013-09-20 08:37:00,67.4,65.0,29.00,SE,135,0.0,0.0,92,0.00,,BKN002,0.00,25.00,VWS V14.01,2013-09-20 13:37:00,
2013-09-20 08:38:00,67.4,65.0,29.00,SE,135,0.0,0.0,92,0.00,,BKN002,0.00,21.00,VWS V14.01,2013-09-20 13:38:00,
2013-09-20 08:39:00,67.4,65.0,29.00,SE,135,0.0,1.0,92,0.00,,BKN002,0.00,28.00,VWS V14.01,2013-09-20 13:39:00,
2013-09-20 08:40:00,67.4,65.0,29.00,SE,135,0.0,1.0,92,0.00,,BKN002,0.00,33.00,VWS V14.01,2013-09-20 13:40:00,
2013-09-20 08:41:00,67.4,65.0,29.00,SE,135,0.0,0.0,92,0.00,,BKN002,0.00,34.00,VWS V14.01,2013-09-20 13:41:00,
2013-09-20 08:42:00,67.5,65.1,29.00,SE,135,0.0,1.0,92,0.00,,BKN002,0.00,33.00,VWS V14.01,2013-09-20 13:42:00,
2013-09-20 08:43:00,67.4,65.0,29.00,SE,135,0.0,0.0,92,0.00,,BKN002,0.00,35.00,VWS V14.01,2013-09-20 13:43:00,
2013-09-20 08:44:00,67.4,65.0,29.00,SE,135,0.0,0.0,92,0.00,,BKN002,0.00,35.00,VWS V14.01,2013-09-20 13:44:00,
2013-09-20 08:45:00,67.4,65.0,29.00,SE,135,0.0,1.0,92,0.00,,BKN002,0.00,33.00,VWS V14.01,2013-09-20 13:45:00,
2013-09-20 08:46:00,67.4,65.0,28.99,SE,135,0.0,0.0,92,0.00,,BKN002,0.00,33.00,VWS V14.01,2013-09-20 13:46:00,
2013-09-20 08:47:00,67.5,65.1,28.99,SE,135,0.0,0.0,92,0.00,,BKN002,0.00,34.00,VWS V14.01,2013-09-20 13:47:00,
2013-09-20 08:48:00,67.5,65.1,28.99,SE,135,0.0,0.0,92,0.00,,BKN002,0.00,32.00,VWS V14.01,2013-09-20 13:48:00,
2013-09-20 08:49:00,67.5,65.1,29.00,SE,135,0.0,2.0,92,0.00,,BKN002,0.00,33.00,VWS V14.01,2013-09-20 13:49:00,
2013-09-20 08:50:00,67.5,65.1,28.99,SE,135,0.0,2.0,92,0.00,,BKN002,0.00,33.00,VWS V14.01,2013-09-20 13:50:00,
2013-09-20 08:51:00,67.4,64.7,29.00,SE,135,0.0,0.0,91,0.00,,BKN002,0.00,33.00,VWS V14.01,2013-09-20 13:51:00,
2013-09-20 08:52:00,67.4,64.7,28.99,SE,135,0.0,0.0,91,0.00,,BKN002,0.00,35.00,VWS V14.01,2013-09-20 13:52:00,
2013-09-20 08:53:00,67.4,64.7,29.00,SE,135,0.0,1.0,91,0.00,,BKN002,0.00,38.00,VWS V14.01,2013-09-20 13:53:00,
2013-09-20 08:54:00,67.4,64.7,28.99,SE,135,1.0,2.0,91,0.00,,BKN002,0.00,46.00,VWS V14.01,2013-09-20 13:54:00,
2013-09-20 08:55:00,67.5,64.8,28.99,SE,135,0.0,0.0,91,0.00,,BKN002,0.00,46.00,VWS V14.01,2013-09-20 13:55:00,
2013-09-20 08:56:00,67.4,64.7,28.99,SSE,158,1.0,4.0,91,0.00,,BKN002,0.00,51.00,VWS V14.01,2013-09-20 13:56:00,
2013-09-20 08:57:00,67.4,64.7,28.99,East,90,0.0,2.0,91,0.00,,BKN002,0.00,44.00,VWS V14.01,2013-09-20 13:57:00,
2013-09-20 08:58:00,67.4,64.7,28.99,SE,135,0.0,1.0,91,0.00,,BKN002,0.00,42.00,VWS V14.01,2013-09-20 13:58:00,
2013-09-20 08:59:00,67.5,64.8,29.00,SE,135,0.0,0.0,91,0.00,,BKN002,0.00,41.00,VWS V14.01,2013-09-20 13:59:00,
2013-09-20 09:00:00,67.4,64.7,28.99,SE,135,0.0,1.0,91,0.00,,BKN002,0.00,42.00,VWS V14.01,2013-09-20 14:00:00,
2013-09-20 09:01:00,67.4,64.7,29.00,SE,135,0.0,1.0,91,0.00,,BKN002,0.00,42.00,VWS V14.01,2013-09-20 14:01:00,
2013-09-20 09:02:00,67.5,64.8,29.00,ENE,68,0.0,2.0,91,0.00,,BKN002,0.00,42.00,VWS V14.01,2013-09-20 14:02:00,
2013-09-20 09:03:00,67.5,64.8,29.00,ENE,68,0.0,1.0,91,0.00,,BKN002,0.00,39.00,VWS V14.01,2013-09-20 14:03:00,
2013-09-20 09:04:00,67.5,64.8,29.00,ENE,68,0.0,0.0,91,0.00,,BKN002,0.00,39.00,VWS V14.01,2013-09-20 14:04:00,
2013-09-20 09:05:00,67.5,64.8,29.00,ENE,68,0.0,0.0,91,0.00,,BKN002,0.00,41.00,VWS V14.01,2013-09-20 14:05:00,
2013-09-20 09:06:00,67.5,64.8,29.00,ENE,68,0.0,0.0,91,0.00,,BKN002,0.00,40.00,VWS V14.01,2013-09-20 14:06:00,
2013-09-20 09:07:00,67.5,64.8,29.00,ENE,68,0.0,1.0,91,0.00,,BKN002,0.00,44.00,VWS V14.01,2013-09-20 14:07:00,
2013-09-20 09:08:00,67.5,64.8,29.00,ENE,68,0.0,1.0,91,0.00,,BKN002,0.00,49.00,VWS V14.01,2013-09-20 14:08:00,
2013-09-20 09:09:00,67.5,64.8,29.00,SE,135,0.0,1.0,91,0.00,,BKN002,0.00,46.00,VWS V14.01,2013-09-20 14:09:00,
2013-09-20 09:10:00,67.5,64.8,29.00,South,180,0.0,1.0,91,0.00,,BKN002,0.00,47.00,VWS V14.01,2013-09-20 14:10:00,
2013-09-20 09:11:00,67.5,64.8,29.00,South,180,0.0,1.0,91,0.00,,BKN002,0.00,50.00,VWS V14.01,2013-09-20 14:11:00,
2013-09-20 09:12:00,67.5,64.8,29.00,South,180,0.0,0.0,91,0.00,,BKN002,0.00,40.00,VWS V14.01,2013-09-20 14:12:00,
2013-09-20 09:13:00,67.5,64.8,29.00,South,180,0.0,0.0,91,0.00,,BKN002,0.00,33.00,VWS V14.01,2013-09-20 14:13:00,
2013-09-20 09:14:00,67.5,64.8,29.00,South,180,0.0,1.0,91,0.00,,BKN002,0.00,33.00,VWS V14.01,2013-09-20 14:14:00,
2013-09-20 09:15:00,67.6,65.2,29.00,South,180,0.0,0.0,92,0.00,,BKN002,0.00,33.00,VWS V14.01,2013-09-20 14:15:00,
2013-09-20 09:16:00,67.6,65.2,29.00,South,180,0.0,0.0,92,0.00,,BKN002,0.00,32.00,VWS V14.01,2013-09-20 14:16:00,
2013-09-20 09:17:00,67.7,65.3,29.00,South,180,0.0,1.0,92,0.00,,BKN002,0.00,35.00,VWS V14.01,2013-09-20 14:17:00,
2013-09-20 09:18:00,67.7,65.3,29.00,South,180,0.0,0.0,92,0.00,,BKN002,0.00,42.00,VWS V14.01,2013-09-20 14:18:00,
2013-09-20 09:19:00,67.7,65.3,29.00,SE,135,0.0,2.0,92,0.00,,BKN002,0.00,53.00,VWS V14.01,2013-09-20 14:19:00,
2013-09-20 09:20:00,67.7,65.3,29.00,SE,135,0.0,2.0,92,0.00,,BKN002,0.00,58.00,VWS V14.01,2013-09-20 14:20:00,
2013-09-20 09:21:00,67.6,64.9,29.00,SSW,202,0.0,2.0,91,0.00,,BKN002,0.00,63.00,VWS V14.01,2013-09-20 14:21:00,
2013-09-20 09:22:00,67.6,64.9,29.00,North,0,1.0,2.0,91,0.00,,BKN002,0.00,66.00,VWS V14.01,2013-09-20 14:22:00,
2013-09-20 09:23:00,67.6,64.9,29.00,North,0,0.0,1.0,91,0.00,,BKN002,0.00,63.00,VWS V14.01,2013-09-20 14:23:00,
2013-09-20 09:24:00,67.6,64.9,29.00,North,0,0.0,0.0,91,0.00,,BKN002,0.00,67.00,VWS V14.01,2013-09-20 14:24:00,
2013-09-20 09:25:00,67.6,64.9,29.00,North,0,0.0,1.0,91,0.00,,BKN002,0.00,83.00,VWS V14.01,2013-09-20 14:25:00,
2013-09-20 09:26:00,67.7,65.0,29.00,SW,225,1.0,3.0,91,0.00,,BKN002,0.00,79.00,VWS V14.01,2013-09-20 14:26:00,
2013-09-20 09:27:00,67.6,64.9,28.99,WSW,248,0.0,1.0,91,0.00,,BKN002,0.00,74.00,VWS V14.01,2013-09-20 14:27:00,
2013-09-20 09:28:00,67.6,64.9,28.99,SSW,202,2.0,7.0,91,0.00,,BKN002,0.00,114.00,VWS V14.01,2013-09-20 14:28:00,
2013-09-20 09:29:00,67.6,64.9,28.99,WSW,248,1.0,6.0,91,0.00,,BKN002,0.00,160.00,VWS V14.01,2013-09-20 14:29:00,
2013-09-20 09:30:00,67.6,64.9,28.99,ESE,112,0.0,1.0,91,0.00,,BKN002,0.00,148.00,VWS V14.01,2013-09-20 14:30:00,
2013-09-20 09:31:00,67.7,65.0,28.99,ESE,112,0.0,1.0,91,0.00,,BKN002,0.00,134.00,VWS V14.01,2013-09-20 14:31:00,
2013-09-20 09:32:00,67.7,65.0,28.99,SSE,158,0.0,1.0,91,0.00,,BKN002,0.00,100.00,VWS V14.01,2013-09-20 14:32:00,
2013-09-20 09:33:00,67.7,65.3,28.99,SSE,158,0.0,1.0,92,0.00,,BKN002,0.00,91.00,VWS V14.01,2013-09-20 14:33:00,
2013-09-20 09:34:00,67.8,65.4,28.99,SSE,158,0.0,0.0,92,0.00,,BKN002,0.00,99.00,VWS V14.01,2013-09-20 14:34:00,
2013-09-20 09:35:00,67.8,65.4,28.99,SSE,158,0.0,1.0,92,0.00,,BKN002,0.00,98.00,VWS V14.01,2013-09-20 14:35:00,
2013-09-20 09:36:00,67.8,65.4,28.99,SSE,158,0.0,2.0,92,0.00,,BKN002,0.00,116.00,VWS V14.01,2013-09-20 14:36:00,
2013-09-20 09:37:00,67.8,65.4,28.99,SSE,158,0.0,0.0,92,0.00,,BKN002,0.00,137.00,VWS V14.01,2013-09-20 14:37:00,
2013-09-20 09:38:00,67.9,65.5,28.99,SSE,158,0.0,0.0,92,0.00,,BKN002,0.00,146.00,VWS V14.01,2013-09-20 14:38:00,
2013-09-20 09:39:00,67.9,65.5,28.99,SSE,158,0.0,0.0,92,0.00,,BKN002,0.00,174.00,VWS V14.01,2013-09-20 14:39:00,
2013-09-20 09:40:00,68.0,65.6,28.99,SSE,158,0.0,0.0,92,0.00,,BKN002,0.00,139.00,VWS V14.01,2013-09-20 14:40:00,
2013-09-20 09:41:00,68.0,65.6,28.99,SSE,158,0.0,1.0,92,0.00,,BKN002,0.00,144.00,VWS V14.01,2013-09-20 14:41:00,
2013-09-20 09:42:00,68.0,65.6,28.99,SSE,158,0.0,1.0,92,0.00,,BKN002,0.00,127.00,VWS V14.01,2013-09-20 14:42:00,
2013-09-20 09:43:00,68.0,65.6,28.99,SSE,158,0.0,0.0,92,0.00,,BKN002,0.00,104.00,VWS V14.01,2013-09-20 14:43:00,
2013-09-20 09:44:00,68.0,65.6,28.99,SSE,158,0.0,0.0,92,0.00,,BKN002,0.00,102.00,VWS V14.01,2013-09-20 14:44:00,
2013-09-20 09:45:00,68.1,65.7,28.99,SSE,158,0.0,0.0,92,0.00,,BKN002,0.00,81.00,VWS V14.01,2013-09-20 14:45:00,
2013-09-20 09:46:00,68.1,65.7,28.99,SSE,158,0.0,1.0,92,0.00,,BKN002,0.00,73.00,VWS V14.01,2013-09-20 14:46:00,
2013-09-20 09:47:00,68.1,65.7,28.99,SSE,158,0.0,1.0,92,0.00,,BKN002,0.00,67.00,VWS V14.01,2013-09-20 14:47:00,
2013-09-20 09:48:00,68.1,65.7,28.99,SSE,158,0.0,1.0,92,0.00,,BKN002,0.00,67.00,VWS V14.01,2013-09-20 14:48:00,
2013-09-20 09:49:00,68.1,65.4,29.00,NW,315,0.0,1.0,91,0.00,,BKN002,0.00,65.00,VWS V14.01,2013-09-20 14:49:00,
2013-09-20 09:50:00,68.1,65.4,29.00,NNW,338,0.0,1.0,91,0.00,,BKN002,0.00,62.00,VWS V14.01,2013-09-20 14:50:00,
2013-09-20 09:51:00,68.1,65.4,29.00,NNW,338,0.0,0.0,91,0.00,,BKN002,0.00,53.00,VWS V14.01,2013-09-20 14:51:00,
2013-09-20 09:52:00,68.1,65.4,29.00,NNW,338,0.0,0.0,91,0.00,,BKN002,0.00,43.00,VWS V14.01,2013-09-20 14:52:00,
2013-09-20 09:53:00,68.1,65.4,29.00,SW,225,0.0,2.0,91,0.00,,BKN002,0.00,33.00,VWS V14.01,2013-09-20 14:53:00,
2013-09-20 09:54:00,68.1,65.4,29.00,SW,225,0.0,1.0,91,0.00,,BKN002,0.00,32.00,VWS V14.01,2013-09-20 14:54:00,
2013-09-20 09:55:00,68.1,65.4,29.00,West,270,0.0,1.0,91,0.00,,BKN002,0.00,32.00,VWS V14.01,2013-09-20 14:55:00,
2013-09-20 09:56:00,68.1,65.4,29.00,West,270,0.0,1.0,91,0.00,,BKN002,0.00,33.00,VWS V14.01,2013-09-20 14:56:00,
2013-09-20 09:57:00,68.0,65.3,29.00,West,270,0.0,1.0,91,0.00,,BKN002,0.00,39.00,VWS V14.01,2013-09-20 14:57:00,
2013-09-20 09:58:00,68.0,65.3,29.00,West,270,0.0,0.0,91,0.00,,BKN002,0.00,51.00,VWS V14.01,2013-09-20 14:58:00,
2013-09-20 09:59:00,68.0,65.3,29.00,West,270,0.0,1.0,91,0.00,,BKN002,0.00,74.00,VWS V14.01,2013-09-20 14:59:00,
2013-09-20 10:00:00,68.0,65.3,29.00,ESE,112,0.0,1.0,91,0.00,,BKN002,0.00,70.00,VWS V14.01,2013-09-20 15:00:00,
2013-09-20 10:01:00,68.0,65.3,29.00,South,180,1.0,4.0,91,0.00,,BKN002,0.00,86.00,VWS V14.01,2013-09-20 15:01:00,
2013-09-20 10:02:00,67.9,65.2,29.00,NW,315,1.0,3.0,91,0.00,,BKN002,0.00,98.00,VWS V14.01,2013-09-20 15:02:00,
2013-09-20 10:03:00,67.9,65.2,29.00,NW,315,0.0,0.0,91,0.00,,BKN002,0.00,77.00,VWS V14.01,2013-09-20 15:03:00,
2013-09-20 10:04:00,67.9,65.2,29.00,NW,315,0.0,0.0,91,0.00,,BKN002,0.00,60.00,VWS V14.01,2013-09-20 15:04:00,
2013-09-20 10:05:00,67.9,65.2,29.00,WNW,292,0.0,1.0,91,0.00,,BKN002,0.00,56.00,VWS V14.01,2013-09-20 15:05:00,
2013-09-20 10:06:00,67.9,65.2,28.99,NW,315,0.0,1.0,91,0.00,,BKN002,0.00,53.00,VWS V14.01,2013-09-20 15:06:00,
2013-09-20 10:07:00,67.9,65.2,29.00,NW,315,0.0,0.0,91,0.00,,BKN002,0.00,58.00,VWS V14.01,2013-09-20 15:07:00,
2013-09-20 10:08:00,67.9,65.2,29.00,NW,315,0.0,0.0,91,0.00,,BKN002,0.00,60.00,VWS V14.01,2013-09-20 15:08:00,
2013-09-20 10:09:00,67.9,65.2,29.00,NW,315,1.0,3.0,91,0.00,,BKN002,0.00,62.00,VWS V14.01,2013-09-20 15:09:00,
2013-09-20 10:10:00,67.9,65.2,29.00,NW,315,0.0,1.0,91,0.00,,BKN002,0.00,49.00,VWS V14.01,2013-09-20 15:10:00,
2013-09-20 10:11:00,68.0,65.3,29.00,NW,315,0.0,0.0,91,0.00,,BKN002,0.00,53.00,VWS V14.01,2013-09-20 15:11:00,
2013-09-20 10:12:00,67.9,65.2,29.00,NW,315,0.0,2.0,91,0.00,,BKN002,0.00,67.00,VWS V14.01,2013-09-20 15:12:00,
2013-09-20 10:13:00,68.0,65.3,29.00,NW,315,0.0,1.0,91,0.00,,BKN002,0.00,65.00,VWS V14.01,2013-09-20 15:13:00,
2013-09-20 10:14:00,68.0,65.3,29.00,NW,315,0.0,1.0,91,0.00,,BKN002,0.00,63.00,VWS V14.01,2013-09-20 15:14:00,
2013-09-20 10:15:00,68.0,65.3,29.00,NW,315,0.0,0.0,91,0.00,,BKN002,0.00,50.00,VWS V14.01,2013-09-20 15:15:00,
2013-09-20 10:16:00,68.0,65.3,29.00,NW,315,0.0,0.0,91,0.00,,BKN002,0.00,47.00,VWS V14.01,2013-09-20 15:16:00,
2013-09-20 10:17:00,68.0,65.3,29.00,NW,315,0.0,0.0,91,0.00,,BKN002,0.00,47.00,VWS V14.01,2013-09-20 15:17:00,
2013-09-20 10:18:00,68.0,65.3,29.00,NW,315,0.0,0.0,91,0.00,,BKN002,0.00,44.00,VWS V14.01,2013-09-20 15:18:00,
2013-09-20 10:19:00,68.0,65.3,29.00,NW,315,0.0,1.0,91,0.00,,BKN002,0.00,51.00,VWS V14.01,2013-09-20 15:19:00,
2013-09-20 10:20:00,68.0,65.3,29.00,NW,315,0.0,1.0,91,0.00,,BKN002,0.00,54.00,VWS V14.01,2013-09-20 15:20:00,
2013-09-20 10:21:00,68.0,65.3,29.00,NW,315,0.0,1.0,91,0.00,,BKN002,0.00,89.00,VWS V14.01,2013-09-20 15:21:00,
2013-09-20 10:22:00,68.0,65.3,29.00,NW,315,0.0,1.0,91,0.00,,BKN002,0.00,125.00,VWS V14.01,2013-09-20 15:22:00,
2013-09-20 10:23:00,68.0,65.3,29.00,NW,315,0.0,0.0,91,0.00,,BKN002,0.00,120.00,VWS V14.01,2013-09-20 15:23:00,
2013-09-20 10:24:00,68.0,65.3,29.00,NW,315,0.0,1.0,91,0.00,,BKN002,0.00,109.00,VWS V14.01,2013-09-20 15:24:00,
2013-09-20 10:25:00,68.0,65.3,29.00,NW,315,0.0,1.0,91,0.00,,BKN002,0.00,97.00,VWS V14.01,2013-09-20 15:25:00,
2013-09-20 10:26:00,68.0,65.3,29.00,NW,315,0.0,0.0,91,0.00,,BKN002,0.00,102.00,VWS V14.01,2013-09-20 15:26:00,
2013-09-20 10:27:00,68.0,65.3,29.00,NW,315,0.0,0.0,91,0.00,,BKN002,0.00,95.00,VWS V14.01,2013-09-20 15:27:00,
2013-09-20 10:28:00,68.1,65.4,29.00,NW,315,0.0,2.0,91,0.00,,BKN002,0.00,84.00,VWS V14.01,2013-09-20 15:28:00,
2013-09-20 10:29:00,68.1,65.4,29.00,NW,315,0.0,1.0,91,0.00,,BKN002,0.00,88.00,VWS V14.01,2013-09-20 15:29:00,
2013-09-20 10:30:00,68.1,65.4,29.00,NW,315,0.0,0.0,91,0.00,,BKN002,0.00,83.00,VWS V14.01,2013-09-20 15:30:00,
2013-09-20 10:31:00,68.1,65.4,29.00,South,180,0.0,2.0,91,0.00,,BKN002,0.00,77.00,VWS V14.01,2013-09-20 15:31:00,
2013-09-20 10:32:00,68.1,65.4,29.00,South,180,0.0,1.0,91,0.00,,BKN002,0.00,79.00,VWS V14.01,2013-09-20 15:32:00,
2013-09-20 10:33:00,68.1,65.4,29.00,South,180,0.0,0.0,91,0.00,,BKN002,0.00,79.00,VWS V14.01,2013-09-20 15:33:00,
2013-09-20 10:34:00,68.1,65.4,29.00,South,180,0.0,0.0,91,0.00,,BKN002,0.00,83.00,VWS V14.01,2013-09-20 15:34:00,
2013-09-20 10:35:00,68.1,65.4,29.00,South,180,0.0,0.0,91,0.00,,BKN002,0.00,84.00,VWS V14.01,2013-09-20 15:35:00,
2013-09-20 10:36:00,68.1,65.4,29.00,South,180,0.0,0.0,91,0.00,,BKN002,0.00,84.00,VWS V14.01,2013-09-20 15:36:00,
2013-09-20 10:37:00,68.1,65.4,29.00,South,180,0.0,2.0,91,0.00,,BKN002,0.00,81.00,VWS V14.01,2013-09-20 15:37:00,
2013-09-20 10:38:00,68.1,65.4,29.00,South,180,0.0,1.0,91,0.00,,BKN002,0.00,76.00,VWS V14.01,2013-09-20 15:38:00,
2013-09-20 10:39:00,68.1,65.4,29.00,South,180,0.0,0.0,91,0.00,,BKN002,0.00,64.00,VWS V14.01,2013-09-20 15:39:00,
2013-09-20 10:40:00,68.1,65.4,29.00,South,180,0.0,0.0,91,0.00,,BKN002,0.00,56.00,VWS V14.01,2013-09-20 15:40:00,
2013-09-20 10:41:00,68.1,65.4,29.00,South,180,0.0,0.0,91,0.00,,BKN002,0.00,60.00,VWS V14.01,2013-09-20 15:41:00,
2013-09-20 10:42:00,68.2,65.5,29.00,South,180,0.0,1.0,91,0.00,,BKN002,0.00,69.00,VWS V14.01,2013-09-20 15:42:00,
2013-09-20 10:43:00,68.1,65.4,29.00,South,180,0.0,1.0,91,0.00,,BKN002,0.00,77.00,VWS V14.01,2013-09-20 15:43:00,
2013-09-20 10:44:00,68.2,65.5,29.00,South,180,0.0,0.0,91,0.00,,BKN002,0.00,93.00,VWS V14.01,2013-09-20 15:44:00,
2013-09-20 10:45:00,68.1,65.4,29.00,South,180,0.0,0.0,91,0.00,,BKN002,0.00,111.00,VWS V14.01,2013-09-20 15:45:00,
2013-09-20 10:46:00,68.2,65.5,29.00,South,180,0.0,0.0,91,0.00,,BKN002,0.00,97.00,VWS V14.01,2013-09-20 15:46:00,
2013-09-20 10:47:00,68.2,65.5,29.00,South,180,0.0,1.0,91,0.00,,BKN002,0.00,95.00,VWS V14.01,2013-09-20 15:47:00,
2013-09-20 10:48:00,68.2,65.5,29.00,South,180,0.0,1.0,91,0.00,,BKN002,0.00,102.00,VWS V14.01,2013-09-20 15:48:00,
2013-09-20 10:49:00,68.2,65.5,29.00,South,180,0.0,0.0,91,0.00,,BKN002,0.00,95.00,VWS V14.01,2013-09-20 15:49:00,
2013-09-20 10:50:00,68.2,65.5,29.00,South,180,0.0,1.0,91,0.00,,BKN002,0.00,100.00,VWS V14.01,2013-09-20 15:50:00,
2013-09-20 10:51:00,68.2,65.5,29.00,South,180,0.0,0.0,91,0.00,,BKN002,0.00,104.00,VWS V14.01,2013-09-20 15:51:00,
2013-09-20 10:52:00,68.2,65.5,29.00,South,180,0.0,0.0,91,0.00,,BKN002,0.00,111.00,VWS V14.01,2013-09-20 15:52:00,
2013-09-20 10:53:00,68.3,65.6,29.00,South,180,0.0,0.0,91,0.00,,BKN002,0.00,118.00,VWS V14.01,2013-09-20 15:53:00,
2013-09-20 10:54:00,68.3,65.6,29.00,South,180,0.0,0.0,91,0.00,,BKN002,0.00,105.00,VWS V14.01,2013-09-20 15:54:00,
2013-09-20 10:55:00,68.3,65.6,29.00,South,180,0.0,1.0,91,0.00,,BKN002,0.00,88.00,VWS V14.01,2013-09-20 15:55:00,
2013-09-20 10:56:00,68.3,65.6,29.00,SSE,158,1.0,4.0,91,0.00,,BKN002,0.00,100.00,VWS V14.01,2013-09-20 15:56:00,
2013-09-20 10:57:00,68.3,65.6,29.00,SSE,158,0.0,1.0,91,0.00,,BKN002,0.00,120.00,VWS V14.01,2013-09-20 15:57:00,
2013-09-20 10:58:00,68.3,65.6,29.00,SSE,158,0.0,1.0,91,0.00,,BKN002,0.00,128.00,VWS V14.01,2013-09-20 15:58:00,
2013-09-20 10:59:00,68.3,65.6,29.00,SSE,158,0.0,0.0,91,0.00,,BKN002,0.00,135.00,VWS V14.01,2013-09-20 15:59:00,
2013-09-20 11:00:00,68.4,65.7,29.00,SSE,158,0.0,0.0,91,0.00,,BKN002,0.00,141.00,VWS V14.01,2013-09-20 16:00:00,
2013-09-20 11:01:00,68.4,65.7,29.00,SSE,158,0.0,0.0,91,0.00,,BKN002,0.00,137.00,VWS V14.01,2013-09-20 16:01:00,
2013-09-20 11:02:00,68.5,65.8,29.00,SSE,158,0.0,0.0,91,0.00,,BKN002,0.00,115.00,VWS V14.01,2013-09-20 16:02:00,
2013-09-20 11:03:00,68.5,65.8,29.00,SSE,158,0.0,0.0,91,0.00,,BKN002,0.00,118.00,VWS V14.01,2013-09-20 16:03:00,
2013-09-20 11:04:00,68.5,65.8,29.00,SSE,158,0.0,1.0,91,0.00,,BKN002,0.00,121.00,VWS V14.01,2013-09-20 16:04:00,
2013-09-20 11:05:00,68.5,65.8,29.00,SSE,158,0.0,0.0,91,0.00,,BKN002,0.00,121.00,VWS V14.01,2013-09-20 16:05:00,
2013-09-20 11:06:00,68.6,65.9,29.00,SSE,158,0.0,0.0,91,0.00,,BKN002,0.00,125.00,VWS V14.01,2013-09-20 16:06:00,
2013-09-20 11:07:00,68.6,65.9,29.00,SSE,158,0.0,0.0,91,0.00,,BKN002,0.00,116.00,VWS V14.01,2013-09-20 16:07:00,
2013-09-20 11:08:00,68.6,65.9,29.00,SSE,158,0.0,2.0,91,0.00,,BKN002,0.00,96.00,VWS V14.01,2013-09-20 16:08:00,
2013-09-20 11:09:00,68.6,65.9,29.00,SSE,158,0.0,2.0,91,0.00,,BKN002,0.00,91.00,VWS V14.01,2013-09-20 16:09:00,
2013-09-20 11:10:00,68.6,65.9,29.00,SSE,158,1.0,2.0,91,0.00,,BKN002,0.00,95.00,VWS V14.01,2013-09-20 16:10:00,
2013-09-20 11:11:00,68.6,65.9,29.00,SSE,158,0.0,0.0,91,0.00,,BKN002,0.00,83.00,VWS V14.01,2013-09-20 16:11:00,
2013-09-20 11:12:00,68.7,66.0,29.00,SSE,158,0.0,0.0,91,0.00,,BKN002,0.00,72.00,VWS V14.01,2013-09-20 16:12:00,
2013-09-20 11:13:00,68.7,66.0,29.00,SSE,158,0.0,0.0,91,0.00,,BKN002,0.00,76.00,VWS V14.01,2013-09-20 16:13:00,
2013-09-20 11:14:00,68.7,66.0,29.00,SSE,158,0.0,1.0,91,0.00,,BKN002,0.00,76.00,VWS V14.01,2013-09-20 16:14:00,
2013-09-20 11:15:00,68.7,66.0,29.00,SSE,158,0.0,0.0,91,0.00,,BKN002,0.00,70.00,VWS V14.01,2013-09-20 16:15:00,
2013-09-20 11:16:00,68.7,66.0,29.00,SSE,158,0.0,2.0,91,0.00,,BKN002,0.00,53.00,VWS V14.01,2013-09-20 16:16:00,
2013-09-20 11:17:00,68.7,66.0,29.00,SSE,158,0.0,0.0,91,0.00,,BKN002,0.00,62.00,VWS V14.01,2013-09-20 16:17:00,
2013-09-20 11:18:00,68.7,66.0,29.00,SSE,158,0.0,0.0,91,0.00,,BKN002,0.00,54.00,VWS V14.01,2013-09-20 16:18:00,
2013-09-20 11:19:00,68.7,66.0,29.00,SSE,158,0.0,1.0,91,0.00,,BKN002,0.00,60.00,VWS V14.01,2013-09-20 16:19:00,
2013-09-20 11:20:00,68.7,66.0,29.00,SSE,158,0.0,0.0,91,0.00,,BKN002,0.00,64.00,VWS V14.01,2013-09-20 16:20:00,
2013-09-20 11:21:00,68.7,66.0,29.00,SSE,158,0.0,0.0,91,0.00,,BKN002,0.00,74.00,VWS V14.01,2013-09-20 16:21:00,
2013-09-20 11:22:00,68.8,66.1,28.99,SSE,158,0.0,0.0,91,0.00,,BKN002,0.00,84.00,VWS V14.01,2013-09-20 16:22:00,
2013-09-20 11:23:00,68.8,66.1,28.99,SSE,158,0.0,0.0,91,0.00,,BKN002,0.00,105.00,VWS V14.01,2013-09-20 16:23:00,
2013-09-20 11:24:00,68.8,66.1,28.99,SSE,158,0.0,0.0,91,0.00,,BKN002,0.00,123.00,VWS V14.01,2013-09-20 16:24:00,
2013-09-20 11:25:00,68.8,66.1,28.99,SSE,158,0.0,0.0,91,0.00,,BKN002,0.00,170.00,VWS V14.01,2013-09-20 16:25:00,
2013-09-20 11:26:00,68.8,66.1,28.99,SSE,158,0.0,0.0,91,0.00,,BKN002,0.00,211.00,VWS V14.01,2013-09-20 16:26:00,
2013-09-20 11:27:00,68.8,66.1,28.99,SSE,158,0.0,0.0,91,0.00,,BKN002,0.00,232.00,VWS V14.01,2013-09-20 16:27:00,
2013-09-20 11:28:00,68.9,66.2,28.99,SSE,158,0.0,0.0,91,0.00,,BKN002,0.00,241.00,VWS V14.01,2013-09-20 16:28:00,
2013-09-20 11:29:00,68.9,66.2,28.99,SSE,158,0.0,0.0,91,0.00,,BKN002,0.00,232.00,VWS V14.01,2013-09-20 16:29:00,
2013-09-20 11:30:00,68.9,66.2,28.99,SSE,158,0.0,1.0,91,0.00,,BKN002,0.00,199.00,VWS V14.01,2013-09-20 16:30:00,
2013-09-20 11:31:00,68.9,66.2,28.99,SSE,158,0.0,1.0,91,0.00,,BKN002,0.00,151.00,VWS V14.01,2013-09-20 16:31:00,
2013-09-20 11:32:00,68.9,66.2,28.99,SSE,158,0.0,1.0,91,0.00,,BKN002,0.00,134.00,VWS V14.01,2013-09-20 16:32:00,
2013-09-20 11:33:00,68.9,66.2,28.99,SSE,158,0.0,0.0,91,0.00,,BKN002,0.00,113.00,VWS V14.01,2013-09-20 16:33:00,
2013-09-20 11:34:00,68.9,66.2,28.99,SSE,158,0.0,0.0,91,0.00,,BKN002,0.00,91.00,VWS V14.01,2013-09-20 16:34:00,
2013-09-20 11:35:00,68.9,66.2,28.99,SSE,158,0.0,0.0,91,0.00,,BKN002,0.00,79.00,VWS V14.01,2013-09-20 16:35:00,
2013-09-20 11:36:00,69.0,66.3,28.99,SSE,158,0.0,0.0,91,0.00,,BKN002,0.00,74.00,VWS V14.01,2013-09-20 16:36:00,
2013-09-20 11:37:00,69.0,66.3,28.99,SSE,158,0.0,0.0,91,0.00,,BKN002,0.00,85.00,VWS V14.01,2013-09-20 16:37:00,
2013-09-20 11:38:00,69.0,66.3,28.99,SSE,158,0.0,0.0,91,0.00,,BKN002,0.00,81.00,VWS V14.01,2013-09-20 16:38:00,
2013-09-20 11:39:00,69.1,66.4,28.99,SSE,158,0.0,0.0,91,0.00,,BKN002,0.00,81.00,VWS V14.01,2013-09-20 16:39:00,
2013-09-20 11:40:00,69.1,66.4,28.99,SSE,158,0.0,0.0,91,0.00,,BKN002,0.00,91.00,VWS V14.01,2013-09-20 16:40:00,
2013-09-20 11:41:00,69.2,66.5,28.99,SSE,158,0.0,0.0,91,0.00,,BKN002,0.00,88.00,VWS V14.01,2013-09-20 16:41:00,
2013-09-20 11:42:00,69.2,66.5,28.99,SSE,158,0.0,0.0,91,0.00,,BKN002,0.00,74.00,VWS V14.01,2013-09-20 16:42:00,
2013-09-20 11:43:00,69.2,66.5,28.99,SSE,158,0.0,0.0,91,0.00,,BKN002,0.00,66.00,VWS V14.01,2013-09-20 16:43:00,
2013-09-20 11:44:00,69.2,66.5,28.99,SSE,158,0.0,1.0,91,0.00,,BKN002,0.00,63.00,VWS V14.01,2013-09-20 16:44:00,
2013-09-20 11:45:00,69.1,66.1,28.99,SSE,158,0.0,2.0,90,0.00,,BKN002,0.00,62.00,VWS V14.01,2013-09-20 16:45:00,
2013-09-20 11:46:00,69.1,66.1,28.99,SSE,158,0.0,0.0,90,0.00,,BKN002,0.00,63.00,VWS V14.01,2013-09-20 16:46:00,
2013-09-20 11:47:00,69.0,65.9,28.99,SSE,158,0.0,1.0,90,0.00,,BKN002,0.00,74.00,VWS V14.01,2013-09-20 16:47:00,
2013-09-20 11:48:00,69.0,65.9,28.99,SSE,158,0.0,0.0,90,0.00,,BKN002,0.00,91.00,VWS V14.01,2013-09-20 16:48:00,
2013-09-20 11:49:00,69.0,65.9,28.99,SSE,158,0.0,0.0,90,0.00,,BKN002,0.00,117.00,VWS V14.01,2013-09-20 16:49:00,
2013-09-20 11:50:00,69.0,65.9,28.99,SSE,158,0.0,0.0,90,0.00,,BKN002,0.00,116.00,VWS V14.01,2013-09-20 16:50:00,
2013-09-20 11:51:00,69.0,65.9,28.99,SSE,158,0.0,0.0,90,0.00,,BKN002,0.00,113.00,VWS V14.01,2013-09-20 16:51:00,
2013-09-20 11:52:00,69.0,65.9,28.99,SSE,158,0.0,0.0,90,0.00,,BKN002,0.00,116.00,VWS V14.01,2013-09-20 16:52:00,
2013-09-20 11:53:00,69.0,65.9,28.99,SSE,158,0.0,0.0,90,0.00,,BKN002,0.00,118.00,VWS V14.01,2013-09-20 16:53:00,
2013-09-20 11:54:00,69.0,65.9,28.99,SSE,158,0.0,0.0,90,0.00,,BKN002,0.00,116.00,VWS V14.01,2013-09-20 16:54:00,
2013-09-20 11:55:00,69.0,65.9,28.99,SSE,158,0.0,0.0,90,0.00,,BKN002,0.00,106.00,VWS V14.01,2013-09-20 16:55:00,
2013-09-20 11:56:00,69.0,65.9,28.99,SSE,158,0.0,0.0,90,0.00,,BKN002,0.00,93.00,VWS V14.01,2013-09-20 16:56:00,
2013-09-20 11:57:00,69.1,66.1,28.99,SSE,158,0.0,0.0,90,0.00,,BKN002,0.00,86.00,VWS V14.01,2013-09-20 16:57:00,
2013-09-20 11:58:00,69.1,66.1,28.99,SSE,158,0.0,0.0,90,0.00,,BKN002,0.00,79.00,VWS V14.01,2013-09-20 16:58:00,
2013-09-20 11:59:00,69.2,66.2,28.99,SSE,158,0.0,0.0,90,0.00,,BKN002,0.00,76.00,VWS V14.01,2013-09-20 16:59:00,
2013-09-20 12:00:00,69.2,66.2,28.99,SSE,158,0.0,1.0,90,0.00,,BKN002,0.00,79.00,VWS V14.01,2013-09-20 17:00:00,
2013-09-20 12:01:00,69.2,66.2,28.99,SSE,158,0.0,2.0,90,0.00,,BKN002,0.00,84.00,VWS V14.01,2013-09-20 17:01:00,
2013-09-20 12:02:00,69.2,66.2,28.99,SSE,158,0.0,0.0,90,0.00,,BKN002,0.00,79.00,VWS V14.01,2013-09-20 17:02:00,
2013-09-20 12:03:00,69.2,66.2,28.99,SSE,158,0.0,0.0,90,0.00,,BKN002,0.00,77.00,VWS V14.01,2013-09-20 17:03:00,
2013-09-20 12:04:00,69.3,66.2,28.98,SSE,158,0.0,0.0,90,0.00,,BKN002,0.00,83.00,VWS V14.01,2013-09-20 17:04:00,
2013-09-20 12:05:00,69.3,66.2,28.99,SSE,158,0.0,0.0,90,0.00,,BKN002,0.00,111.00,VWS V14.01,2013-09-20 17:05:00,
2013-09-20 12:06:00,69.3,66.2,28.99,SSE,158,0.0,0.0,90,0.00,,BKN002,0.00,164.00,VWS V14.01,2013-09-20 17:06:00,
2013-09-20 12:07:00,69.4,66.3,28.99,SSE,158,0.0,0.0,90,0.00,,BKN002,0.00,204.00,VWS V14.01,2013-09-20 17:07:00,
2013-09-20 12:08:00,69.4,66.3,28.99,SSE,158,0.0,0.0,90,0.00,,BKN002,0.00,227.00,VWS V14.01,2013-09-20 17:08:00,
2013-09-20 12:09:00,69.5,66.4,28.99,SSE,158,0.0,0.0,90,0.00,,BKN002,0.00,236.00,VWS V14.01,2013-09-20 17:09:00,
2013-09-20 12:10:00,69.5,66.4,28.99,SSE,158,0.0,0.0,90,0.00,,BKN002,0.00,230.00,VWS V14.01,2013-09-20 17:10:00,
2013-09-20 12:11:00,69.6,66.5,28.99,SSE,158,0.0,1.0,90,0.00,,BKN002,0.00,216.00,VWS V14.01,2013-09-20 17:11:00,
2013-09-20 12:12:00,69.6,66.5,28.99,SSE,158,0.0,0.0,90,0.00,,BKN002,0.00,208.00,VWS V14.01,2013-09-20 17:12:00,
2013-09-20 12:13:00,69.6,66.5,28.99,SSE,158,0.0,0.0,90,0.00,,BKN002,0.00,204.00,VWS V14.01,2013-09-20 17:13:00,
2013-09-20 12:14:00,69.6,66.5,28.99,SSE,158,0.0,1.0,90,0.00,,BKN002,0.00,200.00,VWS V14.01,2013-09-20 17:14:00,
2013-09-20 12:15:00,69.6,66.2,28.99,SSE,158,0.0,1.0,89,0.00,,BKN002,0.00,202.00,VWS V14.01,2013-09-20 17:15:00,
2013-09-20 12:16:00,69.6,66.2,28.99,SW,225,0.0,1.0,89,0.00,,BKN002,0.00,207.00,VWS V14.01,2013-09-20 17:16:00,
2013-09-20 12:17:00,69.6,66.2,28.99,SW,225,0.0,0.0,89,0.00,,BKN002,0.00,207.00,VWS V14.01,2013-09-20 17:17:00,
2013-09-20 12:18:00,69.6,66.2,28.98,SW,225,0.0,1.0,89,0.00,,BKN002,0.00,212.00,VWS V14.01,2013-09-20 17:18:00,
2013-09-20 12:19:00,69.6,66.2,28.98,SW,225,0.0,1.0,89,0.00,,BKN002,0.00,211.00,VWS V14.01,2013-09-20 17:19:00,
2013-09-20 12:20:00,69.6,65.9,28.98,SW,225,0.0,0.0,88,0.00,,BKN002,0.00,206.00,VWS V14.01,2013-09-20 17:20:00,
2013-09-20 12:21:00,69.7,66.0,28.98,SW,225,0.0,1.0,88,0.00,,BKN002,0.00,200.00,VWS V14.01,2013-09-20 17:21:00,
2013-09-20 12:22:00,69.7,66.0,28.99,SW,225,0.0,0.0,88,0.00,,BKN002,0.00,193.00,VWS V14.01,2013-09-20 17:22:00,
2013-09-20 12:23:00,69.8,66.1,28.99,SW,225,0.0,0.0,88,0.00,,BKN002,0.00,188.00,VWS V14.01,2013-09-20 17:23:00,
2013-09-20 12:24:00,69.8,66.1,28.99,SW,225,0.0,0.0,88,0.00,,BKN002,0.00,183.00,VWS V14.01,2013-09-20 17:24:00,
2013-09-20 12:25:00,69.9,66.2,28.99,SW,225,0.0,1.0,88,0.00,,BKN002,0.00,197.00,VWS V14.01,2013-09-20 17:25:00,
2013-09-20 12:26:00,69.9,66.2,28.99,SW,225,0.0,0.0,88,0.00,,BKN002,0.00,204.00,VWS V14.01,2013-09-20 17:26:00,
2013-09-20 12:27:00,69.9,66.2,28.99,SW,225,0.0,0.0,88,0.00,,BKN002,0.00,218.00,VWS V14.01,2013-09-20 17:27:00,
2013-09-20 12:28:00,70.0,66.0,28.99,SW,225,0.0,1.0,87,0.00,,BKN002,0.00,227.00,VWS V14.01,2013-09-20 17:28:00,
2013-09-20 12:29:00,70.0,66.0,28.98,SW,225,0.0,1.0,87,0.00,,BKN002,0.00,229.00,VWS V14.01,2013-09-20 17:29:00,
2013-09-20 12:30:00,70.0,66.0,28.99,SW,225,0.0,0.0,87,0.00,,BKN002,0.00,225.00,VWS V14.01,2013-09-20 17:30:00,
2013-09-20 12:31:00,70.1,66.1,28.99,SW,225,0.0,1.0,87,0.00,,BKN002,0.00,207.00,VWS V14.01,2013-09-20 17:31:00,
2013-09-20 12:32:00,70.1,66.1,28.99,SW,225,0.0,1.0,87,0.00,,BKN002,0.00,188.00,VWS V14.01,2013-09-20 17:32:00,
2013-09-20 12:33:00,70.1,65.7,28.99,NW,315,0.0,2.0,86,0.00,,BKN002,0.00,176.00,VWS V14.01,2013-09-20 17:33:00,
2013-09-20 12:34:00,70.2,65.8,28.99,NW,315,0.0,2.0,86,0.00,,BKN002,0.00,171.00,VWS V14.01,2013-09-20 17:34:00,
2013-09-20 12:35:00,70.2,65.8,28.99,NW,315,0.0,0.0,86,0.00,,BKN002,0.00,169.00,VWS V14.01,2013-09-20 17:35:00,
2013-09-20 12:36:00,70.2,65.5,28.99,NW,315,0.0,1.0,85,0.00,,BKN002,0.00,182.00,VWS V14.01,2013-09-20 17:36:00,
2013-09-20 12:37:00,70.3,65.6,28.98,NW,315,0.0,1.0,85,0.00,,BKN002,0.00,197.00,VWS V14.01,2013-09-20 17:37:00,
2013-09-20 12:38:00,70.3,65.6,28.99,NW,315,0.0,0.0,85,0.00,,BKN002,0.00,207.00,VWS V14.01,2013-09-20 17:38:00,
2013-09-20 12:39:00,70.4,65.7,28.99,NW,315,0.0,0.0,85,0.00,,BKN002,0.00,216.00,VWS V14.01,2013-09-20 17:39:00,
2013-09-20 12:40:00,70.4,65.7,28.99,SW,225,0.0,1.0,85,0.00,,BKN002,0.00,223.00,VWS V14.01,2013-09-20 17:40:00,
2013-09-20 12:41:00,70.5,65.8,28.98,SW,225,0.0,1.0,85,0.00,,BKN002,0.00,227.00,VWS V14.01,2013-09-20 17:41:00,
2013-09-20 12:42:00,70.5,65.8,28.99,SW,225,0.0,0.0,85,0.00,,BKN002,0.00,224.00,VWS V14.01,2013-09-20 17:42:00,
2013-09-20 12:43:00,70.5,65.8,28.98,SW,225,0.0,0.0,85,0.00,,BKN002,0.00,220.00,VWS V14.01,2013-09-20 17:43:00,
2013-09-20 12:44:00,70.6,65.9,28.98,WNW,292,0.0,1.0,85,0.00,,BKN002,0.00,220.00,VWS V14.01,2013-09-20 17:44:00,
2013-09-20 12:45:00,70.6,65.5,28.98,SSW,202,1.0,3.0,84,0.00,,BKN002,0.00,225.00,VWS V14.01,2013-09-20 17:45:00,
2013-09-20 12:46:00,70.6,65.5,28.98,SSW,202,0.0,0.0,84,0.00,,BKN002,0.00,237.00,VWS V14.01,2013-09-20 17:46:00,
2013-09-20 12:47:00,70.6,65.5,28.98,SSW,202,0.0,1.0,84,0.00,,BKN002,0.00,250.00,VWS V14.01,2013-09-20 17:47:00,
2013-09-20 12:48:00,70.7,65.6,28.98,SSW,202,0.0,0.0,84,0.00,,BKN002,0.00,246.00,VWS V14.01,2013-09-20 17:48:00,
2013-09-20 12:49:00,70.7,65.6,28.98,SSW,202,0.0,1.0,84,0.00,,BKN002,0.00,241.00,VWS V14.01,2013-09-20 17:49:00,
2013-09-20 12:50:00,70.7,65.3,28.98,SSW,202,0.0,2.0,83,0.00,,BKN002,0.00,243.00,VWS V14.01,2013-09-20 17:50:00,
2013-09-20 12:51:00,70.8,65.4,28.98,SSW,202,0.0,2.0,83,0.00,,BKN002,0.00,248.00,VWS V14.01,2013-09-20 17:51:00,
2013-09-20 12:52:00,70.8,65.7,28.98,SSW,202,0.0,0.0,84,0.00,,BKN002,0.00,250.00,VWS V14.01,2013-09-20 17:52:00,
2013-09-20 12:53:00,70.9,65.5,28.98,SSW,202,0.0,0.0,83,0.00,,BKN002,0.00,250.00,VWS V14.01,2013-09-20 17:53:00,
2013-09-20 12:54:00,70.9,65.5,28.98,SSW,202,0.0,0.0,83,0.00,,BKN002,0.00,251.00,VWS V14.01,2013-09-20 17:54:00,
2013-09-20 12:55:00,70.9,65.5,28.98,SSW,202,0.0,1.0,83,0.00,,BKN002,0.00,251.00,VWS V14.01,2013-09-20 17:55:00,
2013-09-20 12:56:00,70.9,65.5,28.98,SSW,202,0.0,2.0,83,0.00,,BKN002,0.00,244.00,VWS V14.01,2013-09-20 17:56:00,
2013-09-20 12:57:00,71.0,65.6,28.98,WNW,292,0.0,1.0,83,0.00,,BKN002,0.00,237.00,VWS V14.01,2013-09-20 17:57:00,
2013-09-20 12:58:00,71.0,65.2,28.98,WNW,292,1.0,2.0,82,0.00,,BKN002,0.00,232.00,VWS V14.01,2013-09-20 17:58:00,
2013-09-20 12:59:00,71.0,65.2,28.98,WNW,292,0.0,1.0,82,0.00,,BKN002,0.00,224.00,VWS V14.01,2013-09-20 17:59:00,
2013-09-20 13:00:00,70.9,65.1,28.98,WNW,292,0.0,0.0,82,0.00,,BKN002,0.00,214.00,VWS V14.01,2013-09-20 18:00:00,
2013-09-20 13:01:00,71.0,65.2,28.98,WNW,292,0.0,1.0,82,0.00,,BKN002,0.00,214.00,VWS V14.01,2013-09-20 18:01:00,
2013-09-20 13:02:00,71.0,65.2,28.98,WNW,292,0.0,1.0,82,0.00,,BKN002,0.00,221.00,VWS V14.01,2013-09-20 18:02:00,
2013-09-20 13:03:00,71.0,65.2,28.98,West,270,0.0,1.0,82,0.00,,BKN002,0.00,229.00,VWS V14.01,2013-09-20 18:03:00,
2013-09-20 13:04:00,71.0,65.2,28.98,West,270,0.0,0.0,82,0.00,,BKN002,0.00,237.00,VWS V14.01,2013-09-20 18:04:00,
2013-09-20 13:05:00,71.0,65.2,28.98,West,270,0.0,0.0,82,0.00,,BKN002,0.00,249.00,VWS V14.01,2013-09-20 18:05:00,
2013-09-20 13:06:00,71.1,65.3,28.98,SSW,202,0.0,1.0,82,0.00,,BKN002,0.00,250.00,VWS V14.01,2013-09-20 18:06:00,
2013-09-20 13:07:00,71.1,65.0,28.98,West,270,0.0,2.0,81,0.00,,BKN002,0.00,257.00,VWS V14.01,2013-09-20 18:07:00,
2013-09-20 13:08:00,71.1,65.0,28.98,NW,315,1.0,3.0,81,0.00,,BKN002,0.00,269.00,VWS V14.01,2013-09-20 18:08:00,
2013-09-20 13:09:00,71.1,65.0,28.98,NW,315,0.0,0.0,81,0.00,,BKN002,0.00,279.00,VWS V14.01,2013-09-20 18:09:00,
2013-09-20 13:10:00,71.1,65.0,28.98,NW,315,0.0,1.0,81,0.00,,BKN002,0.00,295.00,VWS V14.01,2013-09-20 18:10:00,
2013-09-20 13:11:00,71.2,65.1,28.98,NW,315,0.0,1.0,81,0.00,,BKN002,0.00,322.00,VWS V14.01,2013-09-20 18:11:00,
2013-09-20 13:12:00,71.2,65.1,28.98,NW,315,0.0,1.0,81,0.00,,BKN002,0.00,309.00,VWS V14.01,2013-09-20 18:12:00,
2013-09-20 13:13:00,71.2,65.1,28.98,SE,135,0.0,1.0,81,0.00,,BKN002,0.00,302.00,VWS V14.01,2013-09-20 18:13:00,
2013-09-20 13:14:00,71.3,65.2,28.98,SSE,158,0.0,1.0,81,0.00,,BKN002,0.00,292.00,VWS V14.01,2013-09-20 18:14:00,
2013-09-20 13:15:00,71.3,64.8,28.98,NW,315,1.0,3.0,80,0.00,,BKN002,0.00,283.00,VWS V14.01,2013-09-20 18:15:00,
2013-09-20 13:16:00,71.3,64.8,28.98,NW,315,0.0,0.0,80,0.00,,BKN002,0.00,281.00,VWS V14.01,2013-09-20 18:16:00,
2013-09-20 13:17:00,71.3,64.8,28.98,NW,315,0.0,1.0,80,0.00,,BKN002,0.00,265.00,VWS V14.01,2013-09-20 18:17:00,
2013-09-20 13:18:00,71.3,64.8,28.98,NW,315,0.0,0.0,80,0.00,,BKN002,0.00,251.00,VWS V14.01,2013-09-20 18:18:00,
2013-09-20 13:19:00,71.3,64.8,28.98,WSW,248,0.0,2.0,80,0.00,,BKN002,0.00,269.00,VWS V14.01,2013-09-20 18:19:00,
2013-09-20 13:20:00,71.3,64.8,28.97,SW,225,0.0,1.0,80,0.00,,BKN002,0.00,279.00,VWS V14.01,2013-09-20 18:20:00,
2013-09-20 13:21:00,71.4,64.9,28.97,SW,225,0.0,1.0,80,0.00,,BKN002,0.00,272.00,VWS V14.01,2013-09-20 18:21:00,
2013-09-20 13:22:00,71.4,64.9,28.97,SW,225,0.0,1.0,80,0.00,,BKN002,0.00,244.00,VWS V14.01,2013-09-20 18:22:00,
2013-09-20 13:23:00,71.5,65.0,28.97,WNW,292,0.0,1.0,80,0.00,,BKN002,0.00,219.00,VWS V14.01,2013-09-20 18:23:00,
2013-09-20 13:24:00,71.5,64.7,28.97,WNW,292,0.0,1.0,79,0.00,,BKN002,0.00,211.00,VWS V14.01,2013-09-20 18:24:00,
2013-09-20 13:25:00,71.5,64.7,28.97,WNW,292,0.0,1.0,79,0.00,,BKN002,0.00,202.00,VWS V14.01,2013-09-20 18:25:00,
2013-09-20 13:26:00,71.5,65.0,28.97,WNW,292,0.0,0.0,80,0.00,,BKN002,0.00,186.00,VWS V14.01,2013-09-20 18:26:00,
2013-09-20 13:27:00,71.5,65.0,28.97,WNW,292,0.0,0.0,80,0.00,,BKN002,0.00,178.00,VWS V14.01,2013-09-20 18:27:00,
2013-09-20 13:28:00,71.6,65.1,28.97,WNW,292,0.0,0.0,80,0.00,,BKN002,0.00,177.00,VWS V14.01,2013-09-20 18:28:00,
2013-09-20 13:29:00,71.6,65.1,28.97,WNW,292,0.0,0.0,80,0.00,,BKN002,0.00,199.00,VWS V14.01,2013-09-20 18:29:00,
2013-09-20 13:30:00,71.6,65.1,28.97,WNW,292,0.0,0.0,80,0.00,,BKN002,0.00,211.00,VWS V14.01,2013-09-20 18:30:00,
2013-09-20 13:31:00,71.6,65.1,28.97,WNW,292,0.0,1.0,80,0.00,,BKN002,0.00,214.00,VWS V14.01,2013-09-20 18:31:00,
2013-09-20 13:32:00,71.6,64.8,28.97,WNW,292,0.0,1.0,79,0.00,,BKN002,0.00,214.00,VWS V14.01,2013-09-20 18:32:00,
2013-09-20 13:33:00,71.6,64.8,28.97,WNW,292,0.0,0.0,79,0.00,,BKN002,0.00,214.00,VWS V14.01,2013-09-20 18:33:00,
2013-09-20 13:34:00,71.6,64.8,28.97,WNW,292,0.0,2.0,79,0.00,,BKN002,0.00,231.00,VWS V14.01,2013-09-20 18:34:00,
2013-09-20 13:35:00,71.6,64.4,28.97,East,90,0.0,1.0,78,0.00,,BKN002,0.00,269.00,VWS V14.01,2013-09-20 18:35:00,
2013-09-20 13:36:00,71.6,64.4,28.97,East,90,0.0,1.0,78,0.00,,BKN002,0.00,295.00,VWS V14.01,2013-09-20 18:36:00,
2013-09-20 13:37:00,71.5,63.9,28.97,East,90,0.0,1.0,77,0.00,,BKN002,0.00,302.00,VWS V14.01,2013-09-20 18:37:00,
2013-09-20 13:38:00,71.6,64.0,28.97,NNW,338,0.0,2.0,77,0.00,,BKN002,0.00,288.00,VWS V14.01,2013-09-20 18:38:00,
2013-09-20 13:39:00,71.6,63.6,28.97,NNW,338,0.0,1.0,76,0.00,,BKN002,0.00,271.00,VWS V14.01,2013-09-20 18:39:00,
2013-09-20 13:40:00,71.6,63.6,28.97,NW,315,1.0,2.0,76,0.00,,BKN002,0.00,251.00,VWS V14.01,2013-09-20 18:40:00,
2013-09-20 13:41:00,71.6,63.6,28.97,NW,315,0.0,2.0,76,0.00,,BKN002,0.00,257.00,VWS V14.01,2013-09-20 18:41:00,
2013-09-20 13:42:00,71.6,63.6,28.97,NW,315,0.0,1.0,76,0.00,,BKN002,0.00,262.00,VWS V14.01,2013-09-20 18:42:00,
2013-09-20 13:43:00,71.6,63.6,28.97,WSW,248,2.0,6.0,76,0.00,,BKN002,0.00,262.00,VWS V14.01,2013-09-20 18:43:00,
2013-09-20 13:44:00,71.6,63.6,28.97,WSW,248,0.0,1.0,76,0.00,,BKN002,0.00,244.00,VWS V14.01,2013-09-20 18:44:00,
2013-09-20 13:45:00,71.6,63.6,28.97,WSW,248,0.0,1.0,76,0.00,,BKN002,0.00,234.00,VWS V14.01,2013-09-20 18:45:00,
2013-09-20 13:46:00,71.6,63.6,28.97,WSW,248,0.0,1.0,76,0.00,,BKN002,0.00,233.00,VWS V14.01,2013-09-20 18:46:00,
2013-09-20 13:47:00,71.6,63.6,28.97,WSW,248,0.0,1.0,76,0.00,,BKN002,0.00,227.00,VWS V14.01,2013-09-20 18:47:00,
2013-09-20 13:48:00,71.6,63.6,28.97,WSW,248,0.0,0.0,76,0.00,,BKN002,0.00,225.00,VWS V14.01,2013-09-20 18:48:00,
2013-09-20 13:49:00,71.6,63.3,28.97,WSW,248,0.0,1.0,75,0.00,,BKN002,0.00,221.00,VWS V14.01,2013-09-20 18:49:00,
2013-09-20 13:50:00,71.6,63.3,28.96,WSW,248,0.0,1.0,75,0.00,,BKN002,0.00,218.00,VWS V14.01,2013-09-20 18:50:00,
2013-09-20 13:51:00,71.6,63.3,28.96,WSW,248,0.0,1.0,75,0.00,,BKN002,0.00,213.00,VWS V14.01,2013-09-20 18:51:00,
2013-09-20 13:52:00,71.6,63.3,28.96,WNW,292,0.0,1.0,75,0.00,,BKN002,0.00,211.00,VWS V14.01,2013-09-20 18:52:00,
2013-09-20 13:53:00,71.6,63.6,28.97,WNW,292,0.0,0.0,76,0.00,,BKN002,0.00,209.00,VWS V14.01,2013-09-20 18:53:00,
2013-09-20 13:54:00,71.6,63.6,28.96,WNW,292,0.0,1.0,76,0.00,,BKN002,0.00,211.00,VWS V14.01,2013-09-20 18:54:00,
2013-09-20 13:55:00,71.7,63.7,28.96,WNW,292,0.0,0.0,76,0.00,,BKN002,0.00,211.00,VWS V14.01,2013-09-20 18:55:00,
2013-09-20 13:56:00,71.7,63.7,28.96,WNW,292,0.0,0.0,76,0.00,,BKN002,0.00,211.00,VWS V14.01,2013-09-20 18:56:00,
2013-09-20 13:57:00,71.7,63.7,28.96,WNW,292,0.0,1.0,76,0.00,,BKN002,0.00,211.00,VWS V14.01,2013-09-20 18:57:00,
2013-09-20 13:58:00,71.7,63.7,28.96,WNW,292,0.0,1.0,76,0.00,,BKN002,0.00,209.00,VWS V14.01,2013-09-20 18:58:00,
2013-09-20 13:59:00,71.7,63.7,28.96,WNW,292,0.0,0.0,76,0.00,,BKN002,0.00,211.00,VWS V14.01,2013-09-20 18:59:00,
2013-09-20 14:00:00,71.8,63.8,28.96,WNW,292,0.0,0.0,76,0.00,,BKN002,0.00,213.00,VWS V14.01,2013-09-20 19:00:00,
2013-09-20 14:01:00,71.8,63.8,28.96,WNW,292,0.0,1.0,76,0.00,,BKN002,0.00,214.00,VWS V14.01,2013-09-20 19:01:00,
2013-09-20 14:02:00,71.8,63.8,28.96,WNW,292,0.0,0.0,76,0.00,,BKN002,0.00,218.00,VWS V14.01,2013-09-20 19:02:00,
2013-09-20 14:03:00,71.8,64.2,28.96,WNW,292,0.0,1.0,77,0.00,,BKN002,0.00,225.00,VWS V14.01,2013-09-20 19:03:00,
2013-09-20 14:04:00,71.8,63.8,28.96,WNW,292,0.0,2.0,76,0.00,,BKN002,0.00,209.00,VWS V14.01,2013-09-20 19:04:00,
2013-09-20 14:05:00,71.8,63.8,28.96,WNW,292,0.0,1.0,76,0.00,,BKN002,0.00,179.00,VWS V14.01,2013-09-20 19:05:00,
2013-09-20 14:06:00,71.8,63.8,28.96,WNW,292,0.0,1.0,76,0.00,,BKN002,0.00,172.00,VWS V14.01,2013-09-20 19:06:00,
2013-09-20 14:07:00,71.8,63.8,28.96,WNW,292,0.0,1.0,76,0.00,,BKN002,0.00,169.00,VWS V14.01,2013-09-20 19:07:00,
2013-09-20 14:08:00,71.8,63.8,28.96,WNW,292,0.0,0.0,76,0.00,,BKN002,0.00,171.00,VWS V14.01,2013-09-20 19:08:00,
2013-09-20 14:09:00,71.8,63.8,28.96,WNW,292,0.0,1.0,76,0.00,,BKN002,0.00,182.00,VWS V14.01,2013-09-20 19:09:00,
2013-09-20 14:10:00,71.8,63.5,28.96,WNW,292,0.0,1.0,75,0.00,,BKN002,0.00,197.00,VWS V14.01,2013-09-20 19:10:00,
2013-09-20 14:11:00,71.8,63.5,28.96,WNW,292,0.0,0.0,75,0.00,,BKN002,0.00,204.00,VWS V14.01,2013-09-20 19:11:00,
2013-09-20 14:12:00,71.8,63.5,28.96,SW,225,1.0,3.0,75,0.00,,BKN002,0.00,204.00,VWS V14.01,2013-09-20 19:12:00,
2013-09-20 14:13:00,71.7,63.0,28.97,SW,225,0.0,0.0,74,0.00,,BKN002,0.00,202.00,VWS V14.01,2013-09-20 19:13:00,
2013-09-20 14:14:00,71.7,63.4,28.97,SW,225,0.0,1.0,75,0.00,,BKN002,0.00,199.00,VWS V14.01,2013-09-20 19:14:00,
2013-09-20 14:15:00,71.7,63.4,28.97,SW,225,0.0,1.0,75,0.00,,BKN002,0.00,196.00,VWS V14.01,2013-09-20 19:15:00,
2013-09-20 14:16:00,71.7,63.0,28.97,SW,225,0.0,1.0,74,0.00,,BKN002,0.00,202.00,VWS V14.01,2013-09-20 19:16:00,
2013-09-20 14:17:00,71.7,63.0,28.97,WSW,248,0.0,1.0,74,0.00,,BKN002,0.00,211.00,VWS V14.01,2013-09-20 19:17:00,
2013-09-20 14:18:00,71.7,63.0,28.97,WSW,248,0.0,1.0,74,0.00,,BKN002,0.00,220.00,VWS V14.01,2013-09-20 19:18:00,
2013-09-20 14:19:00,71.7,63.0,28.96,WSW,248,0.0,1.0,74,0.00,,BKN002,0.00,244.00,VWS V14.01,2013-09-20 19:19:00,
2013-09-20 14:20:00,71.7,63.0,28.97,WSW,248,0.0,0.0,74,0.00,,BKN002,0.00,264.00,VWS V14.01,2013-09-20 19:20:00,
2013-09-20 14:21:00,71.7,63.0,28.97,WSW,248,0.0,1.0,74,0.00,,BKN002,0.00,292.00,VWS V14.01,2013-09-20 19:21:00,
2013-09-20 14:22:00,71.7,63.0,28.96,WSW,248,0.0,0.0,74,0.00,,BKN002,0.00,311.00,VWS V14.01,2013-09-20 19:22:00,
2013-09-20 14:23:00,71.8,63.1,28.96,WSW,248,0.0,1.0,74,0.00,,BKN002,0.00,311.00,VWS V14.01,2013-09-20 19:23:00,
2013-09-20 14:24:00,71.8,63.1,28.96,South,180,0.0,2.0,74,0.00,,BKN002,0.00,304.00,VWS V14.01,2013-09-20 19:24:00,
2013-09-20 14:25:00,71.8,62.3,28.96,WSW,248,1.0,3.0,72,0.00,,BKN002,0.00,304.00,VWS V14.01,2013-09-20 19:25:00,
2013-09-20 14:26:00,71.8,62.3,28.96,WSW,248,0.0,1.0,72,0.00,,BKN002,0.00,276.00,VWS V14.01,2013-09-20 19:26:00,
2013-09-20 14:27:00,71.9,62.8,28.96,WSW,248,0.0,1.0,73,0.00,,BKN002,0.00,257.00,VWS V14.01,2013-09-20 19:27:00,
2013-09-20 14:28:00,71.9,62.4,28.96,SW,225,0.0,1.0,72,0.00,,BKN002,0.00,234.00,VWS V14.01,2013-09-20 19:28:00,
2013-09-20 14:29:00,71.9,62.0,28.96,SW,225,0.0,1.0,71,0.00,,BKN002,0.00,218.00,VWS V14.01,2013-09-20 19:29:00,
2013-09-20 14:30:00,71.9,62.0,28.96,West,270,0.0,1.0,71,0.00,,BKN002,0.00,214.00,VWS V14.01,2013-09-20 19:30:00,
2013-09-20 14:31:00,71.9,62.0,28.96,WNW,292,0.0,2.0,71,0.00,,BKN002,0.00,229.00,VWS V14.01,2013-09-20 19:31:00,
2013-09-20 14:32:00,71.9,62.0,28.96,WNW,292,0.0,1.0,71,0.00,,BKN002,0.00,246.00,VWS V14.01,2013-09-20 19:32:00,
2013-09-20 14:33:00,72.0,62.1,28.96,WNW,292,0.0,1.0,71,0.00,,BKN002,0.00,275.00,VWS V14.01,2013-09-20 19:33:00,
2013-09-20 14:34:00,72.0,62.1,28.96,WNW,292,0.0,2.0,71,0.00,,BKN002,0.00,292.00,VWS V14.01,2013-09-20 19:34:00,
2013-09-20 14:35:00,72.0,61.7,28.96,WNW,292,0.0,2.0,70,0.00,,BKN002,0.00,327.00,VWS V14.01,2013-09-20 19:35:00,
2013-09-20 14:36:00,72.0,61.3,28.96,WNW,292,0.0,1.0,69,0.00,,BKN002,0.00,373.00,VWS V14.01,2013-09-20 19:36:00,
2013-09-20 14:37:00,72.0,61.7,28.96,WNW,292,0.0,1.0,70,0.00,,BKN002,0.00,348.00,VWS V14.01,2013-09-20 19:37:00,
2013-09-20 14:38:00,72.1,61.8,28.96,WNW,292,0.0,2.0,70,0.00,,BKN002,0.00,339.00,VWS V14.01,2013-09-20 19:38:00,
2013-09-20 14:39:00,72.1,61.8,28.96,NW,315,0.0,2.0,70,0.00,,BKN002,0.00,388.00,VWS V14.01,2013-09-20 19:39:00,
2013-09-20 14:40:00,72.1,61.8,28.96,NW,315,0.0,1.0,70,0.00,,BKN002,0.00,341.00,VWS V14.01,2013-09-20 19:40:00,
2013-09-20 14:41:00,72.1,61.8,28.96,West,270,1.0,2.0,70,0.00,,BKN002,0.00,309.00,VWS V14.01,2013-09-20 19:41:00,
2013-09-20 14:42:00,72.1,61.0,28.96,NW,315,1.0,3.0,68,0.00,,BKN002,0.00,292.00,VWS V14.01,2013-09-20 19:42:00,
2013-09-20 14:43:00,72.1,60.5,28.96,NW,315,0.0,1.0,67,0.00,,BKN002,0.00,292.00,VWS V14.01,2013-09-20 19:43:00,
2013-09-20 14:44:00,72.1,61.0,28.96,NW,315,0.0,1.0,68,0.00,,BKN002,0.00,290.00,VWS V14.01,2013-09-20 19:44:00,
2013-09-20 14:45:00,72.1,60.5,28.96,NW,315,0.0,1.0,67,0.00,,BKN002,0.00,280.00,VWS V14.01,2013-09-20 19:45:00,
2013-09-20 14:46:00,72.1,60.5,28.96,NW,315,1.0,2.0,67,0.00,,BKN002,0.00,269.00,VWS V14.01,2013-09-20 19:46:00,
2013-09-20 14:47:00,72.1,60.5,28.96,NW,315,0.0,1.0,67,0.00,,BKN002,0.00,265.00,VWS V14.01,2013-09-20 19:47:00,
2013-09-20 14:48:00,72.1,60.5,28.96,NW,315,0.0,1.0,67,0.00,,BKN002,0.00,269.00,VWS V14.01,2013-09-20 19:48:00,
2013-09-20 14:49:00,72.1,60.5,28.96,NW,315,0.0,1.0,67,0.00,,BKN002,0.00,269.00,VWS V14.01,2013-09-20 19:49:00,
2013-09-20 14:50:00,72.0,60.0,28.96,NW,315,0.0,2.0,66,0.00,,BKN002,0.00,270.00,VWS V14.01,2013-09-20 19:50:00,
2013-09-20 14:51:00,72.0,60.5,28.96,NW,315,0.0,0.0,67,0.00,,BKN002,0.00,258.00,VWS V14.01,2013-09-20 19:51:00,
2013-09-20 14:52:00,72.0,60.5,28.96,NW,315,1.0,2.0,67,0.00,,BKN002,0.00,244.00,VWS V14.01,2013-09-20 19:52:00,
2013-09-20 14:53:00,72.0,60.5,28.96,NW,315,0.0,1.0,67,0.00,,BKN002,0.00,232.00,VWS V14.01,2013-09-20 19:53:00,
2013-09-20 14:54:00,71.9,60.4,28.96,NW,315,0.0,0.0,67,0.00,,BKN002,0.00,230.00,VWS V14.01,2013-09-20 19:54:00,
2013-09-20 14:55:00,71.9,60.4,28.96,NW,315,1.0,3.0,67,0.00,,BKN002,0.00,234.00,VWS V14.01,2013-09-20 19:55:00,
2013-09-20 14:56:00,71.9,60.4,28.95,NW,315,0.0,2.0,67,0.00,,BKN002,0.00,219.00,VWS V14.01,2013-09-20 19:56:00,
2013-09-20 14:57:00,71.9,60.4,28.95,NW,315,0.0,1.0,67,0.00,,BKN002,0.00,193.00,VWS V14.01,2013-09-20 19:57:00,
2013-09-20 14:58:00,71.8,60.3,28.95,NW,315,0.0,1.0,67,0.00,,BKN002,0.00,188.00,VWS V14.01,2013-09-20 19:58:00,
2013-09-20 14:59:00,71.8,60.3,28.95,NW,315,0.0,1.0,67,0.00,,BKN002,0.00,190.00,VWS V14.01,2013-09-20 19:59:00,
2013-09-20 15:00:00,71.7,60.6,28.95,NW,315,0.0,1.0,68,0.00,,BKN002,0.00,204.00,VWS V14.01,2013-09-20 20:00:00,
2013-09-20 15:01:00,71.7,60.6,28.95,NW,315,0.0,1.0,68,0.00,,BKN002,0.00,221.00,VWS V14.01,2013-09-20 20:01:00,
2013-09-20 15:02:00,71.6,60.5,28.95,NW,315,0.0,2.0,68,0.00,,BKN002,0.00,248.00,VWS V14.01,2013-09-20 20:02:00,
2013-09-20 15:03:00,71.6,60.5,28.95,SW,225,1.0,2.0,68,0.00,,BKN002,0.00,274.00,VWS V14.01,2013-09-20 20:03:00,
2013-09-20 15:04:00,71.6,60.5,28.95,SSE,158,0.0,1.0,68,0.00,,BKN002,0.00,278.00,VWS V14.01,2013-09-20 20:04:00,
2013-09-20 15:05:00,71.6,60.5,28.95,SSE,158,0.0,1.0,68,0.00,,BKN002,0.00,320.00,VWS V14.01,2013-09-20 20:05:00,
2013-09-20 15:06:00,71.6,60.5,28.95,SSE,158,0.0,0.0,68,0.00,,BKN002,0.00,332.00,VWS V14.01,2013-09-20 20:06:00,
2013-09-20 15:07:00,71.6,60.5,28.95,SSE,158,0.0,0.0,68,0.00,,BKN002,0.00,374.00,VWS V14.01,2013-09-20 20:07:00,
2013-09-20 15:08:00,71.7,60.6,28.95,SSE,158,0.0,1.0,68,0.00,,BKN002,0.00,266.00,VWS V14.01,2013-09-20 20:08:00,
2013-09-20 15:09:00,71.6,59.7,28.95,South,180,0.0,2.0,66,0.00,,BKN002,0.00,250.00,VWS V14.01,2013-09-20 20:09:00,
2013-09-20 15:10:00,71.7,59.3,28.95,South,180,0.0,1.0,65,0.00,,BKN002,0.00,248.00,VWS V14.01,2013-09-20 20:10:00,
2013-09-20 15:11:00,71.6,57.9,28.95,West,270,1.0,3.0,62,0.00,,BKN002,0.00,234.00,VWS V14.01,2013-09-20 20:11:00,
2013-09-20 15:12:00,71.6,57.9,28.96,West,270,0.0,1.0,62,0.00,,BKN002,0.00,214.00,VWS V14.01,2013-09-20 20:12:00,
2013-09-20 15:13:00,71.6,57.5,28.96,ENE,68,0.0,1.0,61,0.00,,BKN002,0.00,199.00,VWS V14.01,2013-09-20 20:13:00,
2013-09-20 15:14:00,71.6,57.9,28.96,SSW,202,0.0,2.0,62,0.00,,BKN002,0.00,218.00,VWS V14.01,2013-09-20 20:14:00,
2013-09-20 15:15:00,71.6,57.9,28.96,SSW,202,0.0,1.0,62,0.00,,BKN002,0.00,211.00,VWS V14.01,2013-09-20 20:15:00,
2013-09-20 15:16:00,71.6,57.9,28.96,SSW,202,0.0,0.0,62,0.00,,BKN002,0.00,206.00,VWS V14.01,2013-09-20 20:16:00,
2013-09-20 15:17:00,71.6,58.3,28.96,SSW,202,0.0,0.0,63,0.00,,BKN002,0.00,216.00,VWS V14.01,2013-09-20 20:17:00,
2013-09-20 15:18:00,71.6,58.3,28.96,SSW,202,0.0,1.0,63,0.00,,BKN002,0.00,216.00,VWS V14.01,2013-09-20 20:18:00,
2013-09-20 15:19:00,71.6,58.8,28.96,SSW,202,1.0,2.0,64,0.00,,BKN002,0.00,213.00,VWS V14.01,2013-09-20 20:19:00,
2013-09-20 15:20:00,71.5,58.7,28.96,SSW,202,0.0,1.0,64,0.00,,BKN002,0.00,211.00,VWS V14.01,2013-09-20 20:20:00,
2013-09-20 15:21:00,71.5,58.7,28.96,SSW,202,0.0,1.0,64,0.00,,BKN002,0.00,207.00,VWS V14.01,2013-09-20 20:21:00,
2013-09-20 15:22:00,71.5,59.1,28.96,WNW,292,1.0,3.0,65,0.00,,BKN002,0.00,202.00,VWS V14.01,2013-09-20 20:22:00,
2013-09-20 15:23:00,71.4,59.0,28.96,WNW,292,0.0,1.0,65,0.00,,BKN002,0.00,197.00,VWS V14.01,2013-09-20 20:23:00,
2013-09-20 15:24:00,71.4,59.0,28.96,WNW,292,0.0,1.0,65,0.00,,BKN002,0.00,192.00,VWS V14.01,2013-09-20 20:24:00,
2013-09-20 15:25:00,71.4,58.6,28.96,WNW,292,0.0,1.0,64,0.00,,BKN002,0.00,188.00,VWS V14.01,2013-09-20 20:25:00,
2013-09-20 15:26:00,71.3,58.5,28.95,WNW,292,0.0,1.0,64,0.00,,BKN002,0.00,185.00,VWS V14.01,2013-09-20 20:26:00,
2013-09-20 15:27:00,71.3,58.5,28.95,WNW,292,0.0,1.0,64,0.00,,BKN002,0.00,181.00,VWS V14.01,2013-09-20 20:27:00,
2013-09-20 15:28:00,71.3,58.9,28.95,WNW,292,0.0,1.0,65,0.00,,BKN002,0.00,176.00,VWS V14.01,2013-09-20 20:28:00,
2013-09-20 15:29:00,71.3,58.5,28.96,WNW,292,0.0,1.0,64,0.00,,BKN002,0.00,171.00,VWS V14.01,2013-09-20 20:29:00,
2013-09-20 15:30:00,71.2,58.8,28.95,WNW,292,0.0,1.0,65,0.00,,BKN002,0.00,167.00,VWS V14.01,2013-09-20 20:30:00,
2013-09-20 15:31:00,71.2,58.4,28.95,WNW,292,0.0,1.0,64,0.00,,BKN002,0.00,169.00,VWS V14.01,2013-09-20 20:31:00,
2013-09-20 15:32:00,71.1,58.3,28.95,West,270,1.0,4.0,64,0.00,,BKN002,0.00,176.00,VWS V14.01,2013-09-20 20:32:00,
2013-09-20 15:33:00,71.0,58.2,28.95,SW,225,1.0,4.0,64,0.00,,BKN002,0.00,183.00,VWS V14.01,2013-09-20 20:33:00,
2013-09-20 15:34:00,71.0,58.2,28.95,NW,315,0.0,2.0,64,0.00,,BKN002,0.00,192.00,VWS V14.01,2013-09-20 20:34:00,
2013-09-20 15:35:00,71.0,58.2,28.95,NW,315,0.0,2.0,64,0.00,,BKN002,0.00,200.00,VWS V14.01,2013-09-20 20:35:00,
2013-09-20 15:36:00,70.9,58.6,28.95,NW,315,0.0,2.0,65,0.00,,BKN002,0.00,207.00,VWS V14.01,2013-09-20 20:36:00,
2013-09-20 15:37:00,70.9,58.6,28.95,NW,315,0.0,0.0,65,0.00,,BKN002,0.00,214.00,VWS V14.01,2013-09-20 20:37:00,
2013-09-20 15:38:00,70.9,59.0,28.95,NW,315,0.0,0.0,66,0.00,,BKN002,0.00,216.00,VWS V14.01,2013-09-20 20:38:00,
2013-09-20 15:39:00,70.9,59.0,28.95,NW,315,0.0,1.0,66,0.00,,BKN002,0.00,216.00,VWS V14.01,2013-09-20 20:39:00,
2013-09-20 15:40:00,70.8,58.9,28.95,NW,315,0.0,1.0,66,0.00,,BKN002,0.00,218.00,VWS V14.01,2013-09-20 20:40:00,
2013-09-20 15:41:00,70.8,58.9,28.95,NW,315,0.0,1.0,66,0.00,,BKN002,0.00,216.00,VWS V14.01,2013-09-20 20:41:00,
2013-09-20 15:42:00,70.9,59.4,28.95,NW,315,0.0,0.0,67,0.00,,BKN002,0.00,216.00,VWS V14.01,2013-09-20 20:42:00,
2013-09-20 15:43:00,70.9,59.4,28.95,NW,315,0.0,0.0,67,0.00,,BKN002,0.00,215.00,VWS V14.01,2013-09-20 20:43:00,
2013-09-20 15:44:00,71.0,59.5,28.95,NW,315,0.0,1.0,67,0.00,,BKN002,0.00,209.00,VWS V14.01,2013-09-20 20:44:00,
2013-09-20 15:45:00,71.0,59.5,28.95,WSW,248,1.0,3.0,67,0.00,,BKN002,0.00,209.00,VWS V14.01,2013-09-20 20:45:00,
2013-09-20 15:46:00,71.0,59.1,28.95,West,270,0.0,2.0,66,0.00,,BKN002,0.00,207.00,VWS V14.01,2013-09-20 20:46:00,
2013-09-20 15:47:00,71.0,58.7,28.95,West,270,0.0,1.0,65,0.00,,BKN002,0.00,209.00,VWS V14.01,2013-09-20 20:47:00,
2013-09-20 15:48:00,71.0,58.2,28.95,West,270,0.0,0.0,64,0.00,,BKN002,0.00,211.00,VWS V14.01,2013-09-20 20:48:00,
2013-09-20 15:49:00,71.0,58.7,28.95,West,270,0.0,1.0,65,0.00,,BKN002,0.00,217.00,VWS V14.01,2013-09-20 20:49:00,
2013-09-20 15:50:00,71.0,58.7,28.95,West,270,0.0,1.0,65,0.00,,BKN002,0.00,218.00,VWS V14.01,2013-09-20 20:50:00,
2013-09-20 15:51:00,71.0,58.2,28.95,NW,315,1.0,2.0,64,0.00,,BKN002,0.00,220.00,VWS V14.01,2013-09-20 20:51:00,
2013-09-20 15:52:00,71.0,58.2,28.95,SW,225,1.0,3.0,64,0.00,,BKN002,0.00,218.00,VWS V14.01,2013-09-20 20:52:00,
2013-09-20 15:53:00,71.0,58.7,28.95,SW,225,1.0,4.0,65,0.00,,BKN002,0.00,218.00,VWS V14.01,2013-09-20 20:53:00,
2013-09-20 15:54:00,71.0,58.7,28.95,SW,225,0.0,2.0,65,0.00,,BKN002,0.00,209.00,VWS V14.01,2013-09-20 20:54:00,
2013-09-20 15:55:00,70.9,59.0,28.95,SW,225,0.0,1.0,66,0.00,,BKN002,0.00,209.00,VWS V14.01,2013-09-20 20:55:00,
2013-09-20 15:56:00,71.0,59.1,28.95,SW,225,0.0,1.0,66,0.00,,BKN002,0.00,213.00,VWS V14.01,2013-09-20 20:56:00,
2013-09-20 15:57:00,71.0,59.1,28.95,SW,225,0.0,1.0,66,0.00,,BKN002,0.00,216.00,VWS V14.01,2013-09-20 20:57:00,
2013-09-20 15:58:00,71.0,59.1,28.95,SE,135,0.0,2.0,66,0.00,,BKN002,0.00,218.00,VWS V14.01,2013-09-20 20:58:00,
2013-09-20 15:59:00,71.0,59.1,28.95,SE,135,0.0,1.0,66,0.00,,BKN002,0.00,216.00,VWS V14.01,2013-09-20 20:59:00,
2013-09-20 16:00:00,71.0,59.5,28.95,WNW,292,0.0,2.0,67,0.00,,BKN002,0.00,213.00,VWS V14.01,2013-09-20 21:00:00,
2013-09-20 16:01:00,71.0,59.1,28.95,WNW,292,0.0,2.0,66,0.00,,BKN002,0.00,209.00,VWS V14.01,2013-09-20 21:01:00,
2013-09-20 16:02:00,71.0,59.1,28.95,NW,315,1.0,5.0,66,0.00,,BKN002,0.00,200.00,VWS V14.01,2013-09-20 21:02:00,
2013-09-20 16:03:00,70.9,58.1,28.95,West,270,0.0,2.0,64,0.00,,BKN002,0.00,197.00,VWS V14.01,2013-09-20 21:03:00,
2013-09-20 16:04:00,70.8,58.0,28.95,WSW,248,1.0,3.0,64,0.00,,BKN002,0.00,193.00,VWS V14.01,2013-09-20 21:04:00,
2013-09-20 16:05:00,70.8,58.0,28.95,West,270,2.0,5.0,64,0.00,,BKN002,0.00,190.00,VWS V14.01,2013-09-20 21:05:00,
2013-09-20 16:06:00,70.7,57.9,28.95,West,270,1.0,4.0,64,0.00,,BKN002,0.00,187.00,VWS V14.01,2013-09-20 21:06:00,
2013-09-20 16:07:00,70.7,57.9,28.95,SW,225,1.0,5.0,64,0.00,,BKN002,0.00,183.00,VWS V14.01,2013-09-20 21:07:00,
2013-09-20 16:08:00,70.6,57.8,28.95,WSW,248,0.0,1.0,64,0.00,,BKN002,0.00,181.00,VWS V14.01,2013-09-20 21:08:00,
2013-09-20 16:09:00,70.6,57.8,28.95,West,270,0.0,1.0,64,0.00,,BKN002,0.00,181.00,VWS V14.01,2013-09-20 21:09:00,
2013-09-20 16:10:00,70.5,57.8,28.95,NW,315,1.0,3.0,64,0.00,,BKN002,0.00,181.00,VWS V14.01,2013-09-20 21:10:00,
2013-09-20 16:11:00,70.5,58.2,28.95,NW,315,0.0,1.0,65,0.00,,BKN002,0.00,181.00,VWS V14.01,2013-09-20 21:11:00,
2013-09-20 16:12:00,70.4,58.1,28.95,NW,315,0.0,0.0,65,0.00,,BKN002,0.00,180.00,VWS V14.01,2013-09-20 21:12:00,
2013-09-20 16:13:00,70.4,58.1,28.95,NW,315,0.0,1.0,65,0.00,,BKN002,0.00,185.00,VWS V14.01,2013-09-20 21:13:00,
2013-09-20 16:14:00,70.4,58.1,28.95,NW,315,0.0,1.0,65,0.00,,BKN002,0.00,188.00,VWS V14.01,2013-09-20 21:14:00,
2013-09-20 16:15:00,70.4,58.1,28.95,NW,315,0.0,1.0,65,0.00,,BKN002,0.00,192.00,VWS V14.01,2013-09-20 21:15:00,
2013-09-20 16:16:00,70.4,58.1,28.95,SSW,202,0.0,1.0,65,0.00,,BKN002,0.00,193.00,VWS V14.01,2013-09-20 21:16:00,
2013-09-20 16:17:00,70.4,58.1,28.95,NW,315,1.0,2.0,65,0.00,,BKN002,0.00,192.00,VWS V14.01,2013-09-20 21:17:00,
2013-09-20 16:18:00,70.3,58.0,28.95,NW,315,0.0,2.0,65,0.00,,BKN002,0.00,187.00,VWS V14.01,2013-09-20 21:18:00,
2013-09-20 16:19:00,70.3,58.0,28.95,NW,315,0.0,1.0,65,0.00,,BKN002,0.00,183.00,VWS V14.01,2013-09-20 21:19:00,
2013-09-20 16:20:00,70.3,58.4,28.95,NNW,338,0.0,1.0,66,0.00,,BKN002,0.00,181.00,VWS V14.01,2013-09-20 21:20:00,
2013-09-20 16:21:00,70.3,58.4,28.95,NNW,338,0.0,2.0,66,0.00,,BKN002,0.00,185.00,VWS V14.01,2013-09-20 21:21:00,
2013-09-20 16:22:00,70.3,58.4,28.95,NNW,338,0.0,1.0,66,0.00,,BKN002,0.00,183.00,VWS V14.01,2013-09-20 21:22:00,
2013-09-20 16:23:00,70.3,58.4,28.95,NNW,338,1.0,2.0,66,0.00,,BKN002,0.00,178.00,VWS V14.01,2013-09-20 21:23:00,
2013-09-20 16:24:00,70.3,58.8,28.95,NNW,338,1.0,2.0,67,0.00,,BKN002,0.00,174.00,VWS V14.01,2013-09-20 21:24:00,
2013-09-20 16:25:00,70.3,58.4,28.95,NW,315,1.0,3.0,66,0.00,,BKN002,0.00,167.00,VWS V14.01,2013-09-20 21:25:00,
2013-09-20 16:26:00,70.3,58.8,28.95,NW,315,0.0,1.0,67,0.00,,BKN002,0.00,163.00,VWS V14.01,2013-09-20 21:26:00,
2013-09-20 16:27:00,70.3,58.4,28.95,NW,315,0.0,0.0,66,0.00,,BKN002,0.00,162.00,VWS V14.01,2013-09-20 21:27:00,
2013-09-20 16:28:00,70.3,58.4,28.95,NW,315,0.0,2.0,66,0.00,,BKN002,0.00,160.00,VWS V14.01,2013-09-20 21:28:00,
2013-09-20 16:29:00,70.3,58.4,28.95,South,180,1.0,3.0,66,0.00,,BKN002,0.00,162.00,VWS V14.01,2013-09-20 21:29:00,
2013-09-20 16:30:00,70.3,58.0,28.95,WNW,292,1.0,3.0,65,0.00,,BKN002,0.00,159.00,VWS V14.01,2013-09-20 21:30:00,
2013-09-20 16:31:00,70.2,57.9,28.95,WNW,292,1.0,4.0,65,0.00,,BKN002,0.00,160.00,VWS V14.01,2013-09-20 21:31:00,
2013-09-20 16:32:00,70.2,57.9,28.95,WNW,292,0.0,2.0,65,0.00,,BKN002,0.00,158.00,VWS V14.01,2013-09-20 21:32:00,
2013-09-20 16:33:00,70.2,58.3,28.95,WNW,292,1.0,2.0,66,0.00,,BKN002,0.00,158.00,VWS V14.01,2013-09-20 21:33:00,
2013-09-20 16:34:00,70.1,58.2,28.95,WNW,292,1.0,2.0,66,0.00,,BKN002,0.00,158.00,VWS V14.01,2013-09-20 21:34:00,
2013-09-20 16:35:00,70.1,57.8,28.95,WNW,292,0.0,2.0,65,0.00,,BKN002,0.00,156.00,VWS V14.01,2013-09-20 21:35:00,
2013-09-20 16:36:00,70.0,57.7,28.95,WNW,292,1.0,2.0,65,0.00,,BKN002,0.00,156.00,VWS V14.01,2013-09-20 21:36:00,
2013-09-20 16:37:00,70.0,58.1,28.95,SW,225,1.0,2.0,66,0.00,,BKN002,0.00,158.00,VWS V14.01,2013-09-20 21:37:00,
2013-09-20 16:38:00,69.9,58.0,28.95,WSW,248,0.0,1.0,66,0.00,,BKN002,0.00,158.00,VWS V14.01,2013-09-20 21:38:00,
2013-09-20 16:39:00,69.9,58.0,28.95,WSW,248,0.0,2.0,66,0.00,,BKN002,0.00,163.00,VWS V14.01,2013-09-20 21:39:00,
2013-09-20 16:40:00,69.9,58.5,28.95,WSW,248,1.0,3.0,67,0.00,,BKN002,0.00,165.00,VWS V14.01,2013-09-20 21:40:00,
2013-09-20 16:41:00,69.9,58.5,28.95,WNW,292,0.0,1.0,67,0.00,,BKN002,0.00,167.00,VWS V14.01,2013-09-20 21:41:00,
2013-09-20 16:42:00,69.9,58.5,28.95,WNW,292,1.0,2.0,67,0.00,,BKN002,0.00,171.00,VWS V14.01,2013-09-20 21:42:00,
2013-09-20 16:43:00,69.8,58.4,28.95,WNW,292,1.0,2.0,67,0.00,,BKN002,0.00,167.00,VWS V14.01,2013-09-20 21:43:00,
2013-09-20 16:44:00,69.8,58.4,28.95,WNW,292,1.0,3.0,67,0.00,,BKN002,0.00,165.00,VWS V14.01,2013-09-20 21:44:00,
2013-09-20 16:45:00,69.8,58.4,28.95,WNW,292,0.0,1.0,67,0.00,,BKN002,0.00,163.00,VWS V14.01,2013-09-20 21:45:00,
2013-09-20 16:46:00,69.8,58.4,28.95,SSW,202,0.0,3.0,67,0.00,,BKN002,0.00,160.00,VWS V14.01,2013-09-20 21:46:00,
2013-09-20 16:47:00,69.8,58.4,28.95,WNW,292,1.0,2.0,67,0.00,,BKN002,0.00,156.00,VWS V14.01,2013-09-20 21:47:00,
2013-09-20 16:48:00,69.8,58.4,28.95,WNW,292,0.0,1.0,67,0.00,,BKN002,0.00,146.00,VWS V14.01,2013-09-20 21:48:00,
2013-09-20 16:49:00,69.8,58.4,28.95,WNW,292,1.0,5.0,67,0.00,,BKN002,0.00,142.00,VWS V14.01,2013-09-20 21:49:00,
2013-09-20 16:50:00,69.8,58.4,28.95,WNW,292,0.0,0.0,67,0.00,,BKN002,0.00,141.00,VWS V14.01,2013-09-20 21:50:00,
2013-09-20 16:51:00,69.7,57.8,28.95,WNW,292,1.0,3.0,66,0.00,,BKN002,0.00,141.00,VWS V14.01,2013-09-20 21:51:00,
2013-09-20 16:52:00,69.7,58.3,28.95,WNW,292,0.0,2.0,67,0.00,,BKN002,0.00,142.00,VWS V14.01,2013-09-20 21:52:00,
2013-09-20 16:53:00,69.7,58.3,28.95,WNW,292,0.0,1.0,67,0.00,,BKN002,0.00,143.00,VWS V14.01,2013-09-20 21:53:00,
2013-09-20 16:54:00,69.7,58.3,28.95,WNW,292,0.0,1.0,67,0.00,,BKN002,0.00,149.00,VWS V14.01,2013-09-20 21:54:00,
2013-09-20 16:55:00,69.7,58.3,28.95,WNW,292,0.0,1.0,67,0.00,,BKN002,0.00,141.00,VWS V14.01,2013-09-20 21:55:00,
2013-09-20 16:56:00,69.6,58.2,28.95,WNW,292,0.0,1.0,67,0.00,,BKN002,0.00,135.00,VWS V14.01,2013-09-20 21:56:00,
2013-09-20 16:57:00,69.7,58.7,28.95,WNW,292,0.0,0.0,68,0.00,,BKN002,0.00,132.00,VWS V14.01,2013-09-20 21:57:00,
2013-09-20 16:58:00,69.7,58.7,28.95,WNW,292,0.0,2.0,68,0.00,,BKN002,0.00,128.00,VWS V14.01,2013-09-20 21:58:00,
2013-09-20 16:59:00,69.7,58.3,28.95,WNW,292,0.0,2.0,67,0.00,,BKN002,0.00,127.00,VWS V14.01,2013-09-20 21:59:00,
2013-09-20 17:00:00,69.7,58.3,28.95,WNW,292,0.0,1.0,67,0.00,,BKN002,0.00,134.00,VWS V14.01,2013-09-20 22:00:00,
2013-09-20 17:01:00,69.7,58.3,28.95,WNW,292,0.0,2.0,67,0.00,,BKN002,0.00,139.00,VWS V14.01,2013-09-20 22:01:00,
2013-09-20 17:02:00,69.7,58.7,28.95,NW,315,1.0,2.0,68,0.00,,BKN002,0.00,121.00,VWS V14.01,2013-09-20 22:02:00,
2013-09-20 17:03:00,69.7,58.3,28.95,NW,315,1.0,2.0,67,0.00,,BKN002,0.00,111.00,VWS V14.01,2013-09-20 22:03:00,
2013-09-20 17:04:00,69.7,58.7,28.95,NW,315,0.0,1.0,68,0.00,,BKN002,0.00,107.00,VWS V14.01,2013-09-20 22:04:00,
2013-09-20 17:05:00,69.7,58.3,28.95,NW,315,0.0,1.0,67,0.00,,BKN002,0.00,103.00,VWS V14.01,2013-09-20 22:05:00,
2013-09-20 17:06:00,69.7,58.3,28.95,NW,315,1.0,3.0,67,0.00,,BKN002,0.00,98.00,VWS V14.01,2013-09-20 22:06:00,
2013-09-20 17:07:00,69.6,58.2,28.95,NW,315,1.0,2.0,67,0.00,,BKN002,0.00,97.00,VWS V14.01,2013-09-20 22:07:00,
2013-09-20 17:08:00,69.6,58.2,28.95,NW,315,0.0,1.0,67,0.00,,BKN002,0.00,93.00,VWS V14.01,2013-09-20 22:08:00,
2013-09-20 17:09:00,69.5,58.5,28.95,NW,315,0.0,0.0,68,0.00,,BKN002,0.00,90.00,VWS V14.01,2013-09-20 22:09:00,
2013-09-20 17:10:00,69.5,58.5,28.95,SW,225,0.0,2.0,68,0.00,,BKN002,0.00,88.00,VWS V14.01,2013-09-20 22:10:00,
2013-09-20 17:11:00,69.5,58.5,28.96,WSW,248,0.0,2.0,68,0.00,,BKN002,0.00,84.00,VWS V14.01,2013-09-20 22:11:00,
2013-09-20 17:12:00,69.5,58.5,28.95,WSW,248,0.0,1.0,68,0.00,,BKN002,0.00,81.00,VWS V14.01,2013-09-20 22:12:00,
2013-09-20 17:13:00,69.5,58.5,28.96,WSW,248,0.0,1.0,68,0.00,,BKN002,0.00,79.00,VWS V14.01,2013-09-20 22:13:00,
2013-09-20 17:14:00,69.4,58.4,28.96,WSW,248,0.0,1.0,68,0.00,,BKN002,0.00,79.00,VWS V14.01,2013-09-20 22:14:00,
2013-09-20 17:15:00,69.4,58.4,28.95,WSW,248,0.0,2.0,68,0.00,,BKN002,0.00,77.00,VWS V14.01,2013-09-20 22:15:00,
2013-09-20 17:16:00,69.4,58.4,28.96,WSW,248,0.0,0.0,68,0.00,,BKN002,0.00,77.00,VWS V14.01,2013-09-20 22:16:00,
2013-09-20 17:17:00,69.4,58.8,28.96,WSW,248,0.0,1.0,69,0.00,,BKN002,0.00,77.00,VWS V14.01,2013-09-20 22:17:00,
2013-09-20 17:18:00,69.4,58.8,28.96,WSW,248,0.0,2.0,69,0.00,,BKN002,0.00,72.00,VWS V14.01,2013-09-20 22:18:00,
2013-09-20 17:19:00,69.4,58.4,28.96,WSW,248,0.0,1.0,68,0.00,,BKN002,0.00,70.00,VWS V14.01,2013-09-20 22:19:00,
2013-09-20 17:20:00,69.4,58.4,28.96,West,270,0.0,2.0,68,0.00,,BKN002,0.00,70.00,VWS V14.01,2013-09-20 22:20:00,
2013-09-20 17:21:00,69.4,58.0,28.96,West,270,0.0,2.0,67,0.00,,BKN002,0.00,72.00,VWS V14.01,2013-09-20 22:21:00,
2013-09-20 17:22:00,69.3,58.3,28.96,West,270,0.0,1.0,68,0.00,,BKN002,0.00,76.00,VWS V14.01,2013-09-20 22:22:00,
2013-09-20 17:23:00,69.3,58.3,28.96,West,270,0.0,1.0,68,0.00,,BKN002,0.00,77.00,VWS V14.01,2013-09-20 22:23:00,
2013-09-20 17:24:00,69.3,58.3,28.96,West,270,1.0,2.0,68,0.00,,BKN002,0.00,74.00,VWS V14.01,2013-09-20 22:24:00,
2013-09-20 17:25:00,69.3,58.3,28.96,West,270,0.0,1.0,68,0.00,,BKN002,0.00,74.00,VWS V14.01,2013-09-20 22:25:00,
2013-09-20 17:26:00,69.3,58.3,28.96,West,270,0.0,2.0,68,0.00,,BKN002,0.00,70.00,VWS V14.01,2013-09-20 22:26:00,
2013-09-20 17:27:00,69.2,58.2,28.96,West,270,0.0,1.0,68,0.00,,BKN002,0.00,69.00,VWS V14.01,2013-09-20 22:27:00,
2013-09-20 17:28:00,69.2,58.2,28.96,WNW,292,1.0,3.0,68,0.00,,BKN002,0.00,66.00,VWS V14.01,2013-09-20 22:28:00,
2013-09-20 17:29:00,69.2,57.8,28.96,West,270,1.0,3.0,67,0.00,,BKN002,0.00,63.00,VWS V14.01,2013-09-20 22:29:00,
2013-09-20 17:30:00,69.1,57.7,28.96,WNW,292,1.0,3.0,67,0.00,,BKN002,0.00,63.00,VWS V14.01,2013-09-20 22:30:00,
2013-09-20 17:31:00,69.0,57.6,28.96,WSW,248,0.0,1.0,67,0.00,,BKN002,0.00,63.00,VWS V14.01,2013-09-20 22:31:00,
2013-09-20 17:32:00,69.0,58.0,28.96,NW,315,0.0,2.0,68,0.00,,BKN002,0.00,65.00,VWS V14.01,2013-09-20 22:32:00,
2013-09-20 17:33:00,69.0,58.0,28.96,NW,315,0.0,1.0,68,0.00,,BKN002,0.00,65.00,VWS V14.01,2013-09-20 22:33:00,
2013-09-20 17:34:00,68.9,57.9,28.96,NW,315,0.0,0.0,68,0.00,,BKN002,0.00,66.00,VWS V14.01,2013-09-20 22:34:00,
2013-09-20 17:35:00,68.9,57.9,28.96,NW,315,0.0,1.0,68,0.00,,BKN002,0.00,67.00,VWS V14.01,2013-09-20 22:35:00,
2013-09-20 17:36:00,68.8,57.4,28.96,NW,315,0.0,0.0,67,0.00,,BKN002,0.00,67.00,VWS V14.01,2013-09-20 22:36:00,
2013-09-20 17:37:00,68.8,57.4,28.96,NW,315,0.0,1.0,67,0.00,,BKN002,0.00,67.00,VWS V14.01,2013-09-20 22:37:00,
2013-09-20 17:38:00,68.7,57.3,28.96,NW,315,0.0,1.0,67,0.00,,BKN002,0.00,67.00,VWS V14.01,2013-09-20 22:38:00,
2013-09-20 17:39:00,68.6,56.8,28.96,NW,315,1.0,3.0,66,0.00,,BKN002,0.00,67.00,VWS V14.01,2013-09-20 22:39:00,
2013-09-20 17:40:00,68.6,56.4,28.96,NW,315,2.0,6.0,65,0.00,,BKN002,0.00,65.00,VWS V14.01,2013-09-20 22:40:00,
2013-09-20 17:41:00,68.5,55.9,28.96,NW,315,2.0,6.0,64,0.00,,BKN002,0.00,63.00,VWS V14.01,2013-09-20 22:41:00,
2013-09-20 17:42:00,68.4,55.8,28.96,NW,315,0.0,0.0,64,0.00,,BKN002,0.00,62.00,VWS V14.01,2013-09-20 22:42:00,
2013-09-20 17:43:00,68.4,55.8,28.96,NW,315,0.0,2.0,64,0.00,,BKN002,0.00,60.00,VWS V14.01,2013-09-20 22:43:00,
2013-09-20 17:44:00,68.3,55.7,28.96,WSW,248,0.0,1.0,64,0.00,,BKN002,0.00,56.00,VWS V14.01,2013-09-20 22:44:00,
2013-09-20 17:45:00,68.3,55.2,28.96,WSW,248,0.0,2.0,63,0.00,,BKN002,0.00,54.00,VWS V14.01,2013-09-20 22:45:00,
2013-09-20 17:46:00,68.3,55.2,28.96,WSW,248,0.0,1.0,63,0.00,,BKN002,0.00,54.00,VWS V14.01,2013-09-20 22:46:00,
2013-09-20 17:47:00,68.2,55.1,28.96,WSW,248,0.0,1.0,63,0.00,,BKN002,0.00,54.00,VWS V14.01,2013-09-20 22:47:00,
2013-09-20 17:48:00,68.2,55.1,28.96,NNW,338,0.0,3.0,63,0.00,,BKN002,0.00,56.00,VWS V14.01,2013-09-20 22:48:00,
2013-09-20 17:49:00,68.1,55.0,28.96,SSW,202,0.0,2.0,63,0.00,,BKN002,0.00,58.00,VWS V14.01,2013-09-20 22:49:00,
2013-09-20 17:50:00,68.1,55.5,28.96,SSW,202,0.0,1.0,64,0.00,,BKN002,0.00,60.00,VWS V14.01,2013-09-20 22:50:00,
2013-09-20 17:51:00,68.0,55.4,28.96,SSW,202,0.0,1.0,64,0.00,,BKN002,0.00,60.00,VWS V14.01,2013-09-20 22:51:00,
2013-09-20 17:52:00,68.0,55.4,28.96,SSW,202,0.0,0.0,64,0.00,,BKN002,0.00,61.00,VWS V14.01,2013-09-20 22:52:00,
2013-09-20 17:53:00,68.0,55.4,28.96,SSW,202,0.0,0.0,64,0.00,,BKN002,0.00,60.00,VWS V14.01,2013-09-20 22:53:00,
2013-09-20 17:54:00,68.0,55.8,28.96,SSW,202,0.0,1.0,65,0.00,,BKN002,0.00,60.00,VWS V14.01,2013-09-20 22:54:00,
2013-09-20 17:55:00,67.9,55.3,28.96,SSW,202,0.0,0.0,64,0.00,,BKN002,0.00,58.00,VWS V14.01,2013-09-20 22:55:00,
2013-09-20 17:56:00,67.9,55.3,28.96,SSW,202,0.0,0.0,64,0.00,,BKN002,0.00,56.00,VWS V14.01,2013-09-20 22:56:00,
2013-09-20 17:57:00,67.9,55.3,28.96,SSW,202,0.0,1.0,64,0.00,,BKN002,0.00,54.00,VWS V14.01,2013-09-20 22:57:00,
2013-09-20 17:58:00,67.9,54.8,28.96,SSW,202,0.0,1.0,63,0.00,,BKN002,0.00,52.00,VWS V14.01,2013-09-20 22:58:00,
2013-09-20 17:59:00,67.9,55.3,28.96,SSW,202,0.0,0.0,64,0.00,,BKN002,0.00,51.00,VWS V14.01,2013-09-20 22:59:00,
2013-09-20 18:00:00,67.8,55.2,28.96,SSW,202,0.0,1.0,64,0.00,,BKN002,0.00,53.00,VWS V14.01,2013-09-20 23:00:00,
2013-09-20 18:01:00,67.8,55.2,28.96,SSW,202,0.0,0.0,64,0.00,,BKN002,0.00,54.00,VWS V14.01,2013-09-20 23:01:00,
2013-09-20 18:02:00,67.8,55.2,28.97,SSW,202,0.0,1.0,64,0.00,,BKN002,0.00,56.00,VWS V14.01,2013-09-20 23:02:00,
2013-09-20 18:03:00,67.8,54.8,28.97,NNW,338,1.0,3.0,63,0.00,,BKN002,0.00,58.00,VWS V14.01,2013-09-20 23:03:00,
2013-09-20 18:04:00,67.7,54.7,28.96,NW,315,0.0,2.0,63,0.00,,BKN002,0.00,59.00,VWS V14.01,2013-09-20 23:04:00,
2013-09-20 18:05:00,67.7,54.7,28.96,NW,315,0.0,1.0,63,0.00,,BKN002,0.00,60.00,VWS V14.01,2013-09-20 23:05:00,
2013-09-20 18:06:00,67.7,54.7,28.96,NW,315,0.0,2.0,63,0.00,,BKN002,0.00,58.00,VWS V14.01,2013-09-20 23:06:00,
2013-09-20 18:07:00,67.6,54.6,28.96,NW,315,0.0,1.0,63,0.00,,BKN002,0.00,56.00,VWS V14.01,2013-09-20 23:07:00,
2013-09-20 18:08:00,67.6,54.6,28.97,NW,315,0.0,1.0,63,0.00,,BKN002,0.00,53.00,VWS V14.01,2013-09-20 23:08:00,
2013-09-20 18:09:00,67.6,54.6,28.96,NW,315,0.0,0.0,63,0.00,,BKN002,0.00,48.00,VWS V14.01,2013-09-20 23:09:00,
2013-09-20 18:10:00,67.6,54.6,28.96,NW,315,0.0,0.0,63,0.00,,BKN002,0.00,42.00,VWS V14.01,2013-09-20 23:10:00,
2013-09-20 18:11:00,67.6,55.0,28.96,NW,315,0.0,0.0,64,0.00,,BKN002,0.00,39.00,VWS V14.01,2013-09-20 23:11:00,
2013-09-20 18:12:00,67.6,55.0,28.96,NW,315,0.0,0.0,64,0.00,,BKN002,0.00,37.00,VWS V14.01,2013-09-20 23:12:00,
2013-09-20 18:13:00,67.5,54.9,28.96,NW,315,0.0,2.0,64,0.00,,BKN002,0.00,35.00,VWS V14.01,2013-09-20 23:13:00,
2013-09-20 18:14:00,67.5,54.9,28.96,NW,315,0.0,0.0,64,0.00,,BKN002,0.00,35.00,VWS V14.01,2013-09-20 23:14:00,
2013-09-20 18:15:00,67.5,54.5,28.96,NW,315,0.0,0.0,63,0.00,,BKN002,0.00,35.00,VWS V14.01,2013-09-20 23:15:00,
2013-09-20 18:16:00,67.4,54.8,28.96,NW,315,0.0,0.0,64,0.00,,BKN002,0.00,37.00,VWS V14.01,2013-09-20 23:16:00,
2013-09-20 18:17:00,67.4,54.8,28.96,NW,315,0.0,1.0,64,0.00,,BKN002,0.00,39.00,VWS V14.01,2013-09-20 23:17:00,
2013-09-20 18:18:00,67.4,54.8,28.96,NW,315,0.0,1.0,64,0.00,,BKN002,0.00,39.00,VWS V14.01,2013-09-20 23:18:00,
2013-09-20 18:19:00,67.3,54.3,28.96,NW,315,0.0,1.0,63,0.00,,BKN002,0.00,40.00,VWS V14.01,2013-09-20 23:19:00,
2013-09-20 18:20:00,67.3,54.7,28.97,NW,315,0.0,0.0,64,0.00,,BKN002,0.00,40.00,VWS V14.01,2013-09-20 23:20:00,
2013-09-20 18:21:00,67.2,54.6,28.96,NW,315,0.0,0.0,64,0.00,,BKN002,0.00,37.00,VWS V14.01,2013-09-20 23:21:00,
2013-09-20 18:22:00,67.2,54.2,28.97,NW,315,0.0,1.0,63,0.00,,BKN002,0.00,32.00,VWS V14.01,2013-09-20 23:22:00,
2013-09-20 18:23:00,67.2,54.2,28.96,NW,315,0.0,0.0,63,0.00,,BKN002,0.00,28.00,VWS V14.01,2013-09-20 23:23:00,
2013-09-20 18:24:00,67.1,54.5,28.96,NW,315,0.0,0.0,64,0.00,,BKN002,0.00,28.00,VWS V14.01,2013-09-20 23:24:00,
2013-09-20 18:25:00,67.1,54.5,28.96,NW,315,0.0,1.0,64,0.00,,BKN002,0.00,28.00,VWS V14.01,2013-09-20 23:25:00,
2013-09-20 18:26:00,67.1,54.1,28.96,NW,315,0.0,1.0,63,0.00,,BKN002,0.00,28.00,VWS V14.01,2013-09-20 23:26:00,
2013-09-20 18:27:00,67.0,54.0,28.96,NW,315,0.0,0.0,63,0.00,,BKN002,0.00,28.00,VWS V14.01,2013-09-20 23:27:00,
2013-09-20 18:28:00,67.0,54.0,28.96,NW,315,0.0,0.0,63,0.00,,BKN002,0.00,28.00,VWS V14.01,2013-09-20 23:28:00,
2013-09-20 18:29:00,67.0,54.4,28.97,NW,315,0.0,1.0,64,0.00,,BKN002,0.00,28.00,VWS V14.01,2013-09-20 23:29:00,
2013-09-20 18:30:00,66.9,54.3,28.97,NW,315,0.0,0.0,64,0.00,,BKN002,0.00,26.00,VWS V14.01,2013-09-20 23:30:00,
2013-09-20 18:31:00,67.0,54.4,28.97,NW,315,0.0,0.0,64,0.00,,BKN002,0.00,26.00,VWS V14.01,2013-09-20 23:31:00,
2013-09-20 18:32:00,66.9,54.3,28.97,NW,315,0.0,0.0,64,0.00,,BKN002,0.00,25.00,VWS V14.01,2013-09-20 23:32:00,
2013-09-20 18:33:00,66.9,54.3,28.97,NW,315,0.0,0.0,64,0.00,,BKN002,0.00,20.00,VWS V14.01,2013-09-20 23:33:00,
2013-09-20 18:34:00,66.9,54.3,28.97,NW,315,0.0,0.0,64,0.00,,BKN002,0.00,16.00,VWS V14.01,2013-09-20 23:34:00,
2013-09-20 18:35:00,66.8,54.2,28.97,NW,315,0.0,0.0,64,0.00,,BKN002,0.00,12.00,VWS V14.01,2013-09-20 23:35:00,
2013-09-20 18:36:00,66.8,54.2,28.96,NW,315,0.0,0.0,64,0.00,,BKN002,0.00,11.00,VWS V14.01,2013-09-20 23:36:00,
2013-09-20 18:37:00,66.8,54.2,28.96,NW,315,0.0,1.0,64,0.00,,BKN002,0.00,11.00,VWS V14.01,2013-09-20 23:37:00,
2013-09-20 18:38:00,66.8,54.2,28.96,NW,315,0.0,0.0,64,0.00,,BKN002,0.00,9.00,VWS V14.01,2013-09-20 23:38:00,
2013-09-20 18:39:00,66.8,54.2,28.96,NW,315,0.0,1.0,64,0.00,,BKN002,0.00,9.00,VWS V14.01,2013-09-20 23:39:00,
2013-09-20 18:40:00,66.7,54.2,28.96,NW,315,0.0,2.0,64,0.00,,BKN002,0.00,9.00,VWS V14.01,2013-09-20 23:40:00,
2013-09-20 18:41:00,66.7,54.2,28.96,NW,315,0.0,0.0,64,0.00,,BKN002,0.00,9.00,VWS V14.01,2013-09-20 23:41:00,
2013-09-20 18:42:00,66.7,54.2,28.96,NW,315,0.0,1.0,64,0.00,,BKN002,0.00,7.00,VWS V14.01,2013-09-20 23:42:00,
2013-09-20 18:43:00,66.7,54.6,28.96,NW,315,0.0,0.0,65,0.00,,BKN002,0.00,7.00,VWS V14.01,2013-09-20 23:43:00,
2013-09-20 18:44:00,66.6,54.5,28.96,NW,315,0.0,0.0,65,0.00,,BKN002,0.00,7.00,VWS V14.01,2013-09-20 23:44:00,
2013-09-20 18:45:00,66.6,54.5,28.96,NW,315,0.0,0.0,65,0.00,,BKN002,0.00,5.00,VWS V14.01,2013-09-20 23:45:00,
2013-09-20 18:46:00,66.6,54.5,28.96,NW,315,0.0,0.0,65,0.00,,BKN002,0.00,5.00,VWS V14.01,2013-09-20 23:46:00,
2013-09-20 18:47:00,66.6,54.5,28.96,NW,315,0.0,0.0,65,0.00,,BKN002,0.00,5.00,VWS V14.01,2013-09-20 23:47:00,
2013-09-20 18:48:00,66.5,54.4,28.96,NW,315,0.0,1.0,65,0.00,,BKN002,0.00,0.00,VWS V14.01,2013-09-20 23:48:00,
2013-09-20 18:49:00,66.5,54.4,28.96,NW,315,1.0,2.0,65,0.00,,BKN002,0.00,0.00,VWS V14.01,2013-09-20 23:49:00,
2013-09-20 18:50:00,66.5,54.4,28.96,NW,315,0.0,0.0,65,0.00,,BKN002,0.00,0.00,VWS V14.01,2013-09-20 23:50:00,
2013-09-20 18:51:00,66.5,54.4,28.96,NW,315,0.0,0.0,65,0.00,,BKN002,0.00,0.00,VWS V14.01,2013-09-20 23:51:00,
2013-09-20 18:52:00,66.5,54.4,28.96,NW,315,0.0,0.0,65,0.00,,BKN002,0.00,0.00,VWS V14.01,2013-09-20 23:52:00,
2013-09-20 18:53:00,66.4,54.3,28.96,NW,315,0.0,1.0,65,0.00,,BKN002,0.00,0.00,VWS V14.01,2013-09-20 23:53:00,
2013-09-20 18:54:00,66.4,54.3,28.96,NW,315,0.0,0.0,65,0.00,,BKN002,0.00,0.00,VWS V14.01,2013-09-20 23:54:00,
2013-09-20 18:55:00,66.4,54.3,28.96,NW,315,0.0,0.0,65,0.00,,BKN002,0.00,0.00,VWS V14.01,2013-09-20 23:55:00,
2013-09-20 18:56:00,66.4,54.3,28.96,NW,315,0.0,0.0,65,0.00,,BKN002,0.00,0.00,VWS V14.01,2013-09-20 23:56:00,
2013-09-20 18:57:00,66.3,54.2,28.96,NW,315,0.0,1.0,65,0.00,,BKN002,0.00,0.00,VWS V14.01,2013-09-20 23:57:00,
2013-09-20 18:58:00,66.3,54.6,28.96,NW,315,0.0,0.0,66,0.00,,BKN002,0.00,0.00,VWS V14.01,2013-09-20 23:58:00,
2013-09-20 18:59:00,66.3,54.2,28.96,NW,315,0.0,0.0,65,0.00,,BKN002,0.00,5.00,VWS V14.01,2013-09-20 23:59:00,
2013-09-20 19:00:00,66.3,54.2,28.96,NW,315,0.0,0.0,65,0.00,,BKN002,0.00,5.00,VWS V14.01,2013-09-21 00:00:00,
2013-09-20 19:01:00,66.3,54.2,28.96,NW,315,0.0,2.0,65,0.00,,BKN002,0.00,5.00,VWS V14.01,2013-09-21 00:01:00,
2013-09-20 19:02:00,66.2,54.1,28.96,NW,315,0.0,1.0,65,0.00,,BKN002,0.00,5.00,VWS V14.01,2013-09-21 00:02:00,
2013-09-20 19:03:00,66.2,54.1,28.96,NW,315,0.0,0.0,65,0.00,,BKN002,0.00,5.00,VWS V14.01,2013-09-21 00:03:00,
2013-09-20 19:04:00,66.2,54.1,28.97,NW,315,0.0,0.0,65,0.00,,BKN002,0.00,5.00,VWS V14.01,2013-09-21 00:04:00,
2013-09-20 19:05:00,66.2,54.1,28.97,NW,315,0.0,1.0,65,0.00,,BKN002,0.00,0.00,VWS V14.01,2013-09-21 00:05:00,
2013-09-20 19:07:00,66.2,54.1,28.97,NW,315,0.0,0.0,65,0.00,,BKN002,0.00,0.00,VWS V14.01,2013-09-21 00:07:00,
2013-09-20 19:08:00,66.2,54.1,28.97,NW,315,0.0,0.0,65,0.00,,BKN002,0.00,0.00,VWS V14.01,2013-09-21 00:08:00,
2013-09-20 19:09:00,66.2,54.1,28.97,NW,315,0.0,0.0,65,0.00,,BKN002,0.00,0.00,VWS V14.01,2013-09-21 00:09:00,
2013-09-20 19:10:00,66.2,54.1,28.97,NW,315,0.0,1.0,65,0.00,,BKN002,0.00,0.00,VWS V14.01,2013-09-21 00:10:00,
2013-09-20 19:11:00,66.2,54.1,28.97,NW,315,0.0,0.0,65,0.00,,BKN002,0.00,0.00,VWS V14.01,2013-09-21 00:11:00,
2013-09-20 19:12:00,66.1,54.0,28.97,NW,315,0.0,0.0,65,0.00,,BKN002,0.00,0.00,VWS V14.01,2013-09-21 00:12:00,
2013-09-20 19:13:00,66.1,54.0,28.97,NW,315,0.0,2.0,65,0.00,,BKN002,0.00,0.00,VWS V14.01,2013-09-21 00:13:00,
2013-09-20 19:14:00,66.1,54.0,28.97,NW,315,0.0,0.0,65,0.00,,BKN002,0.00,0.00,VWS V14.01,2013-09-21 00:14:00,
2013-09-20 19:15:00,66.1,54.0,28.97,NW,315,0.0,1.0,65,0.00,,BKN002,0.00,0.00,VWS V14.01,2013-09-21 00:15:00,
2013-09-20 19:16:00,66.0,53.9,28.97,NW,315,0.0,1.0,65,0.00,,BKN002,0.00,0.00,VWS V14.01,2013-09-21 00:16:00,
2013-09-20 19:17:00,66.0,53.5,28.97,NW,315,0.0,1.0,64,0.00,,BKN002,0.00,0.00,VWS V14.01,2013-09-21 00:17:00,
2013-09-20 19:18:00,66.0,53.9,28.97,ESE,112,0.0,1.0,65,0.00,,BKN002,0.00,0.00,VWS V14.01,2013-09-21 00:18:00,
2013-09-20 19:19:00,66.0,53.5,28.97,ESE,112,0.0,0.0,64,0.00,,BKN002,0.00,0.00,VWS V14.01,2013-09-21 00:19:00,
2013-09-20 19:20:00,65.9,53.4,28.97,ESE,112,0.0,1.0,64,0.00,,BKN002,0.00,0.00,VWS V14.01,2013-09-21 00:20:00,
2013-09-20 19:21:00,65.9,53.4,28.97,ESE,112,0.0,1.0,64,0.00,,BKN002,0.00,0.00,VWS V14.01,2013-09-21 00:21:00,
2013-09-20 19:22:00,65.9,53.4,28.97,ESE,112,0.0,1.0,64,0.00,,BKN002,0.00,0.00,VWS V14.01,2013-09-21 00:22:00,
2013-09-20 19:23:00,65.8,53.3,28.97,ESE,112,0.0,0.0,64,0.00,,BKN002,0.00,0.00,VWS V14.01,2013-09-21 00:23:00,
2013-09-20 19:24:00,65.8,53.3,28.97,ESE,112,0.0,2.0,64,0.00,,BKN002,0.00,0.00,VWS V14.01,2013-09-21 00:24:00,
2013-09-20 19:25:00,65.8,52.9,28.97,West,270,1.0,4.0,63,0.00,,BKN002,0.00,0.00,VWS V14.01,2013-09-21 00:25:00,
2013-09-20 19:26:00,65.7,52.3,28.97,NW,315,0.0,2.0,62,0.00,,BKN002,0.00,0.00,VWS V14.01,2013-09-21 00:26:00,
2013-09-20 19:27:00,65.7,52.3,28.97,West,270,1.0,2.0,62,0.00,,BKN002,0.00,0.00,VWS V14.01,2013-09-21 00:27:00,
2013-09-20 19:28:00,65.6,51.8,28.97,WNW,292,1.0,3.0,61,0.00,,BKN002,0.00,0.00,VWS V14.01,2013-09-21 00:28:00,
2013-09-20 19:29:00,65.5,51.7,28.97,WNW,292,1.0,2.0,61,0.00,,BKN002,0.00,0.00,VWS V14.01,2013-09-21 00:29:00,
2013-09-20 19:30:00,65.5,51.7,28.97,WNW,292,0.0,1.0,61,0.00,,BKN002,0.00,0.00,VWS V14.01,2013-09-21 00:30:00,
2013-09-20 19:31:00,65.5,51.7,28.97,WNW,292,0.0,1.0,61,0.00,,BKN002,0.00,0.00,VWS V14.01,2013-09-21 00:31:00,
2013-09-20 19:32:00,65.4,51.6,28.97,NW,315,0.0,2.0,61,0.00,,BKN002,0.00,0.00,VWS V14.01,2013-09-21 00:32:00,
2013-09-20 19:33:00,65.4,51.2,28.97,NW,315,1.0,5.0,60,0.00,,BKN002,0.00,0.00,VWS V14.01,2013-09-21 00:33:00,
2013-09-20 19:34:00,65.4,51.2,28.97,NW,315,1.0,4.0,60,0.00,,BKN002,0.00,0.00,VWS V14.01,2013-09-21 00:34:00,
2013-09-20 19:35:00,65.4,51.2,28.97,NW,315,0.0,0.0,60,0.00,,BKN002,0.00,0.00,VWS V14.01,2013-09-21 00:35:00,
2013-09-20 19:36:00,65.3,51.1,28.97,NW,315,0.0,0.0,60,0.00,,BKN002,0.00,0.00,VWS V14.01,2013-09-21 00:36:00,
2013-09-20 19:37:00,65.3,51.1,28.97,NW,315,0.0,1.0,60,0.00,,BKN002,0.00,0.00,VWS V14.01,2013-09-21 00:37:00,
2013-09-20 19:38:00,65.2,51.0,28.97,NW,315,1.0,3.0,60,0.00,,BKN002,0.00,0.00,VWS V14.01,2013-09-21 00:38:00,
2013-09-20 19:39:00,65.2,50.5,28.97,NW,315,0.0,1.0,59,0.00,,BKN002,0.00,0.00,VWS V14.01,2013-09-21 00:39:00,
2013-09-20 19:40:00,65.1,50.9,28.98,NW,315,0.0,0.0,60,0.00,,BKN002,0.00,0.00,VWS V14.01,2013-09-21 00:40:00,
2013-09-20 19:41:00,65.1,50.9,28.98,NW,315,1.0,2.0,60,0.00,,BKN002,0.00,0.00,VWS V14.01,2013-09-21 00:41:00,
2013-09-20 19:42:00,65.0,50.8,28.98,NW,315,0.0,1.0,60,0.00,,BKN002,0.00,0.00,VWS V14.01,2013-09-21 00:42:00,
2013-09-20 19:43:00,65.0,50.8,28.98,NW,315,0.0,0.0,60,0.00,,BKN002,0.00,0.00,VWS V14.01,2013-09-21 00:43:00,
2013-09-20 19:44:00,64.9,50.7,28.98,NW,315,0.0,0.0,60,0.00,,BKN002,0.00,0.00,VWS V14.01,2013-09-21 00:44:00,
2013-09-20 19:45:00,64.9,50.7,28.98,NW,315,0.0,1.0,60,0.00,,BKN002,0.00,0.00,VWS V14.01,2013-09-21 00:45:00,
2013-09-20 19:46:00,64.9,51.2,28.98,NW,315,0.0,1.0,61,0.00,,BKN002,0.00,0.00,VWS V14.01,2013-09-21 00:46:00,
2013-09-20 19:47:00,64.8,50.6,28.98,NW,315,0.0,1.0,60,0.00,,BKN002,0.00,0.00,VWS V14.01,2013-09-21 00:47:00,
2013-09-20 19:48:00,64.8,50.6,28.98,NW,315,0.0,2.0,60,0.00,,BKN002,0.00,0.00,VWS V14.01,2013-09-21 00:48:00,
2013-09-20 19:49:00,64.7,51.0,28.98,NW,315,0.0,1.0,61,0.00,,BKN002,0.00,0.00,VWS V14.01,2013-09-21 00:49:00,
2013-09-20 19:50:00,64.7,51.0,28.98,NW,315,0.0,1.0,61,0.00,,BKN002,0.00,0.00,VWS V14.01,2013-09-21 00:50:00,
2013-09-20 19:51:00,64.6,50.9,28.98,NW,315,1.0,2.0,61,0.00,,BKN002,0.00,0.00,VWS V14.01,2013-09-21 00:51:00,
2013-09-20 19:52:00,64.6,50.9,28.98,NW,315,0.0,1.0,61,0.00,,BKN002,0.00,0.00,VWS V14.01,2013-09-21 00:52:00,
2013-09-20 19:53:00,64.5,50.8,28.98,NW,315,0.0,1.0,61,0.00,,BKN002,0.00,0.00,VWS V14.01,2013-09-21 00:53:00,
2013-09-20 19:54:00,64.5,50.8,28.98,NW,315,1.0,4.0,61,0.00,,BKN002,0.00,0.00,VWS V14.01,2013-09-21 00:54:00,
2013-09-20 19:55:00,64.4,50.7,28.98,NW,315,1.0,3.0,61,0.00,,BKN002,0.00,0.00,VWS V14.01,2013-09-21 00:55:00,
2013-09-20 19:56:00,64.4,51.1,28.98,NW,315,0.0,1.0,62,0.00,,BKN002,0.00,0.00,VWS V14.01,2013-09-21 00:56:00,
2013-09-20 19:57:00,64.3,51.0,28.98,NW,315,0.0,0.0,62,0.00,,BKN002,0.00,0.00,VWS V14.01,2013-09-21 00:57:00,
2013-09-20 19:58:00,64.3,51.0,28.98,NW,315,0.0,2.0,62,0.00,,BKN002,0.00,0.00,VWS V14.01,2013-09-21 00:58:00,
2013-09-20 19:59:00,64.3,51.0,28.98,NW,315,0.0,1.0,62,0.00,,BKN002,0.00,0.00,VWS V14.01,2013-09-21 00:59:00,
2013-09-20 20:00:00,64.2,50.9,28.98,NW,315,0.0,1.0,62,0.00,,BKN002,0.00,0.00,VWS V14.01,2013-09-21 01:00:00,
2013-09-20 20:01:00,64.2,50.9,28.98,NW,315,0.0,0.0,62,0.00,,BKN002,0.00,0.00,VWS V14.01,2013-09-21 01:01:00,
2013-09-20 20:02:00,64.1,50.8,28.98,NW,315,0.0,1.0,62,0.00,,BKN002,0.00,0.00,VWS V14.01,2013-09-21 01:02:00,
2013-09-20 20:03:00,64.1,50.8,28.98,NW,315,0.0,1.0,62,0.00,,BKN002,0.00,0.00,VWS V14.01,2013-09-21 01:03:00,
2013-09-20 20:04:00,64.1,51.3,28.98,NW,315,0.0,0.0,63,0.00,,BKN002,0.00,0.00,VWS V14.01,2013-09-21 01:04:00,
2013-09-20 20:05:00,64.0,50.7,28.98,NW,315,1.0,2.0,62,0.00,,BKN002,0.00,0.00,VWS V14.01,2013-09-21 01:05:00,
2013-09-20 20:06:00,64.0,50.7,28.98,NW,315,0.0,1.0,62,0.00,,BKN002,0.00,0.00,VWS V14.01,2013-09-21 01:06:00,
2013-09-20 20:07:00,63.9,51.1,28.98,NW,315,0.0,1.0,63,0.00,,BKN002,0.00,0.00,VWS V14.01,2013-09-21 01:07:00,
2013-09-20 20:08:00,63.9,50.6,28.98,NW,315,0.0,1.0,62,0.00,,BKN002,0.00,0.00,VWS V14.01,2013-09-21 01:08:00,
2013-09-20 20:09:00,63.8,51.0,28.98,West,270,1.0,3.0,63,0.00,,BKN002,0.00,0.00,VWS V14.01,2013-09-21 01:09:00,
2013-09-20 20:10:00,63.8,51.0,28.98,WNW,292,0.0,1.0,63,0.00,,BKN002,0.00,0.00,VWS V14.01,2013-09-21 01:10:00,
2013-09-20 20:11:00,63.8,51.0,28.98,WNW,292,0.0,1.0,63,0.00,,BKN002,0.00,0.00,VWS V14.01,2013-09-21 01:11:00,
2013-09-20 20:12:00,63.7,50.9,28.98,WNW,292,0.0,2.0,63,0.00,,BKN002,0.00,0.00,VWS V14.01,2013-09-21 01:12:00,
2013-09-20 20:13:00,63.6,50.8,28.99,WNW,292,0.0,1.0,63,0.00,,BKN002,0.00,0.00,VWS V14.01,2013-09-21 01:13:00,
2013-09-20 20:14:00,63.6,50.8,28.98,WNW,292,0.0,0.0,63,0.00,,BKN002,0.00,0.00,VWS V14.01,2013-09-21 01:14:00,
2013-09-20 20:15:00,63.6,50.8,28.98,SW,225,0.0,1.0,63,0.00,,BKN002,0.00,0.00,VWS V14.01,2013-09-21 01:15:00,
2013-09-20 20:16:00,63.5,50.7,28.98,SW,225,0.0,1.0,63,0.00,,BKN002,0.00,0.00,VWS V14.01,2013-09-21 01:16:00,
2013-09-20 20:17:00,63.5,50.7,28.98,WSW,248,0.0,1.0,63,0.00,,BKN002,0.00,0.00,VWS V14.01,2013-09-21 01:17:00,
2013-09-20 20:18:00,63.5,50.7,28.99,WSW,248,0.0,0.0,63,0.00,,BKN002,0.00,0.00,VWS V14.01,2013-09-21 01:18:00,
2013-09-20 20:19:00,63.5,50.7,28.99,WSW,248,0.0,1.0,63,0.00,,BKN002,0.00,0.00,VWS V14.01,2013-09-21 01:19:00,
2013-09-20 20:20:00,63.4,50.6,28.99,WSW,248,0.0,2.0,63,0.00,,BKN002,0.00,0.00,VWS V14.01,2013-09-21 01:20:00,
2013-09-20 20:21:00,63.4,50.6,28.99,West,270,0.0,2.0,63,0.00,,BKN002,0.00,0.00,VWS V14.01,2013-09-21 01:21:00,
2013-09-20 20:22:00,63.4,50.6,28.99,West,270,0.0,1.0,63,0.00,,BKN002,0.00,0.00,VWS V14.01,2013-09-21 01:22:00,
2013-09-20 20:23:00,63.3,50.5,28.99,West,270,0.0,1.0,63,0.00,,BKN002,0.00,0.00,VWS V14.01,2013-09-21 01:23:00,
2013-09-20 20:24:00,63.3,50.5,28.98,West,270,1.0,3.0,63,0.00,,BKN002,0.00,0.00,VWS V14.01,2013-09-21 01:24:00,
2013-09-20 20:25:00,63.3,50.5,28.98,West,270,0.0,1.0,63,0.00,,BKN002,0.00,0.00,VWS V14.01,2013-09-21 01:25:00,
2013-09-20 20:26:00,63.2,50.4,28.98,West,270,0.0,1.0,63,0.00,,BKN002,0.00,0.00,VWS V14.01,2013-09-21 01:26:00,
2013-09-20 20:27:00,63.2,50.4,28.98,West,270,0.0,1.0,63,0.00,,BKN002,0.00,0.00,VWS V14.01,2013-09-21 01:27:00,
2013-09-20 20:28:00,63.2,50.4,28.98,West,270,0.0,1.0,63,0.00,,BKN002,0.00,0.00,VWS V14.01,2013-09-21 01:28:00,
2013-09-20 20:29:00,63.1,50.3,28.98,West,270,0.0,0.0,63,0.00,,BKN002,0.00,0.00,VWS V14.01,2013-09-21 01:29:00,
2013-09-20 20:30:00,63.1,50.3,28.98,West,270,0.0,1.0,63,0.00,,BKN002,0.00,0.00,VWS V14.01,2013-09-21 01:30:00,
2013-09-20 20:31:00,63.1,50.3,28.98,West,270,0.0,1.0,63,0.00,,BKN002,0.00,0.00,VWS V14.01,2013-09-21 01:31:00,
2013-09-20 20:32:00,63.1,50.3,28.98,West,270,0.0,1.0,63,0.00,,BKN002,0.00,0.00,VWS V14.01,2013-09-21 01:32:00,
2013-09-20 20:33:00,63.0,50.2,28.98,West,270,0.0,1.0,63,0.00,,BKN002,0.00,0.00,VWS V14.01,2013-09-21 01:33:00,
2013-09-20 20:34:00,63.0,50.2,28.99,West,270,0.0,2.0,63,0.00,,BKN002,0.00,0.00,VWS V14.01,2013-09-21 01:34:00,
2013-09-20 20:35:00,63.0,50.2,28.99,West,270,0.0,0.0,63,0.00,,BKN002,0.00,0.00,VWS V14.01,2013-09-21 01:35:00,
2013-09-20 20:36:00,62.9,50.5,28.99,West,270,0.0,1.0,64,0.00,,BKN002,0.00,0.00,VWS V14.01,2013-09-21 01:36:00,
2013-09-20 20:37:00,62.9,50.5,28.99,West,270,0.0,1.0,64,0.00,,BKN002,0.00,0.00,VWS V14.01,2013-09-21 01:37:00,
2013-09-20 20:38:00,62.9,50.5,28.99,West,270,0.0,1.0,64,0.00,,BKN002,0.00,0.00,VWS V14.01,2013-09-21 01:38:00,
2013-09-20 20:39:00,62.9,50.1,28.99,West,270,0.0,2.0,63,0.00,,BKN002,0.00,0.00,VWS V14.01,2013-09-21 01:39:00,
2013-09-20 20:40:00,62.8,50.5,28.99,West,270,0.0,1.0,64,0.00,,BKN002,0.00,0.00,VWS V14.01,2013-09-21 01:40:00,
2013-09-20 20:41:00,62.8,50.5,28.99,West,270,0.0,1.0,64,0.00,,BKN002,0.00,0.00,VWS V14.01,2013-09-21 01:41:00,
2013-09-20 20:42:00,62.8,50.5,28.99,West,270,0.0,0.0,64,0.00,,BKN002,0.00,0.00,VWS V14.01,2013-09-21 01:42:00,
2013-09-20 20:43:00,62.7,50.4,28.98,WNW,292,0.0,2.0,64,0.00,,BKN002,0.00,0.00,VWS V14.01,2013-09-21 01:43:00,
2013-09-20 20:44:00,62.7,50.4,28.99,West,270,0.0,1.0,64,0.00,,BKN002,0.00,0.00,VWS V14.01,2013-09-21 01:44:00,
2013-09-20 20:45:00,62.7,50.4,28.99,West,270,0.0,0.0,64,0.00,,BKN002,0.00,0.00,VWS V14.01,2013-09-21 01:45:00,
2013-09-20 20:46:00,62.7,50.4,28.99,NW,315,1.0,4.0,64,0.00,,BKN002,0.00,0.00,VWS V14.01,2013-09-21 01:46:00,
2013-09-20 20:47:00,62.7,50.4,28.99,NW,315,0.0,1.0,64,0.00,,BKN002,0.00,0.00,VWS V14.01,2013-09-21 01:47:00,
2013-09-20 20:48:00,62.6,50.3,28.99,NW,315,0.0,0.0,64,0.00,,BKN002,0.00,0.00,VWS V14.01,2013-09-21 01:48:00,
2013-09-20 20:49:00,62.6,50.3,28.99,NW,315,0.0,1.0,64,0.00,,BKN002,0.00,0.00,VWS V14.01,2013-09-21 01:49:00,
2013-09-20 20:51:00,62.5,50.6,28.99,NW,315,0.0,0.0,65,0.00,,BKN002,0.00,0.00,VWS V14.01,2013-09-21 01:51:00,
2013-09-20 20:52:00,62.5,50.6,28.99,NW,315,0.0,0.0,65,0.00,,BKN002,0.00,0.00,VWS V14.01,2013-09-21 01:52:00,
2013-09-20 20:53:00,62.5,50.6,28.99,NNE,22,0.0,1.0,65,0.00,,BKN002,0.00,0.00,VWS V14.01,2013-09-21 01:53:00,
2013-09-20 20:54:00,62.5,50.2,28.99,WNW,292,0.0,1.0,64,0.00,,BKN002,0.00,0.00,VWS V14.01,2013-09-21 01:54:00,
2013-09-20 20:55:00,62.4,50.5,28.99,WNW,292,0.0,0.0,65,0.00,,BKN002,0.00,0.00,VWS V14.01,2013-09-21 01:55:00,
2013-09-20 20:56:00,62.4,50.5,28.99,WNW,292,0.0,0.0,65,0.00,,BKN002,0.00,0.00,VWS V14.01,2013-09-21 01:56:00,
2013-09-20 20:57:00,62.3,50.4,28.99,WNW,292,0.0,1.0,65,0.00,,BKN002,0.00,0.00,VWS V14.01,2013-09-21 01:57:00,
2013-09-20 20:58:00,62.3,50.4,28.99,WNW,292,0.0,1.0,65,0.00,,BKN002,0.00,0.00,VWS V14.01,2013-09-21 01:58:00,
2013-09-20 20:59:00,62.3,50.4,28.99,WNW,292,0.0,1.0,65,0.00,,BKN002,0.00,0.00,VWS V14.01,2013-09-21 01:59:00,
2013-09-20 21:00:00,62.2,50.3,28.99,WNW,292,0.0,1.0,65,0.00,,BKN002,0.00,0.00,VWS V14.01,2013-09-21 02:00:00,
2013-09-20 21:01:00,62.2,50.3,28.99,WNW,292,1.0,4.0,65,0.00,,BKN002,0.00,0.00,VWS V14.01,2013-09-21 02:01:00,
2013-09-20 21:02:00,62.2,50.3,28.99,NW,315,1.0,4.0,65,0.00,,BKN002,0.00,0.00,VWS V14.01,2013-09-21 02:02:00,
2013-09-20 21:03:00,62.2,50.3,28.99,NW,315,0.0,0.0,65,0.00,,BKN002,0.00,0.00,VWS V14.01,2013-09-21 02:03:00,
2013-09-20 21:04:00,62.2,50.3,28.99,SW,225,1.0,3.0,65,0.00,,BKN002,0.00,0.00,VWS V14.01,2013-09-21 02:04:00,
2013-09-20 21:05:00,62.1,50.2,28.99,WSW,248,0.0,1.0,65,0.00,,BKN002,0.00,0.00,VWS V14.01,2013-09-21 02:05:00,
2013-09-20 21:06:00,62.1,50.2,28.99,SW,225,0.0,1.0,65,0.00,,BKN002,0.00,0.00,VWS V14.01,2013-09-21 02:06:00,
2013-09-20 21:07:00,62.1,50.2,28.99,SW,225,0.0,0.0,65,0.00,,BKN002,0.00,0.00,VWS V14.01,2013-09-21 02:07:00,
2013-09-20 21:08:00,62.1,50.2,28.99,SW,225,0.0,0.0,65,0.00,,BKN002,0.00,0.00,VWS V14.01,2013-09-21 02:08:00,
2013-09-20 21:09:00,62.1,50.2,28.99,SW,225,0.0,1.0,65,0.00,,BKN002,0.00,0.00,VWS V14.01,2013-09-21 02:09:00,
2013-09-20 21:10:00,62.0,50.1,28.99,SW,225,0.0,0.0,65,0.00,,BKN002,0.00,0.00,VWS V14.01,2013-09-21 02:10:00,
2013-09-20 21:11:00,62.0,50.1,28.99,SW,225,0.0,0.0,65,0.00,,BKN002,0.00,0.00,VWS V14.01,2013-09-21 02:11:00,
2013-09-20 21:12:00,62.0,50.1,28.99,SW,225,0.0,0.0,65,0.00,,BKN002,0.00,0.00,VWS V14.01,2013-09-21 02:12:00,
2013-09-20 21:13:00,62.0,50.5,28.99,SW,225,0.0,0.0,66,0.00,,BKN002,0.00,0.00,VWS V14.01,2013-09-21 02:13:00,
2013-09-20 21:14:00,61.9,50.4,28.99,SW,225,0.0,1.0,66,0.00,,BKN002,0.00,0.00,VWS V14.01,2013-09-21 02:14:00,
2013-09-20 21:15:00,61.9,50.4,28.99,SW,225,0.0,0.0,66,0.00,,BKN002,0.00,0.00,VWS V14.01,2013-09-21 02:15:00,
2013-09-20 21:16:00,61.9,50.4,28.99,SW,225,0.0,0.0,66,0.00,,BKN002,0.00,0.00,VWS V14.01,2013-09-21 02:16:00,
2013-09-20 21:17:00,61.9,50.4,28.99,SW,225,0.0,1.0,66,0.00,,BKN002,0.00,0.00,VWS V14.01,2013-09-21 02:17:00,
2013-09-20 21:18:00,61.9,50.4,28.99,WNW,292,0.0,1.0,66,0.00,,BKN002,0.00,0.00,VWS V14.01,2013-09-21 02:18:00,
2013-09-20 21:19:00,61.8,50.3,28.99,WNW,292,0.0,1.0,66,0.00,,BKN002,0.00,0.00,VWS V14.01,2013-09-21 02:19:00,
2013-09-20 21:20:00,61.8,50.3,28.99,WNW,292,0.0,0.0,66,0.00,,BKN002,0.00,0.00,VWS V14.01,2013-09-21 02:20:00,
2013-09-20 21:21:00,61.8,50.3,28.99,WNW,292,0.0,0.0,66,0.00,,BKN002,0.00,0.00,VWS V14.01,2013-09-21 02:21:00,
2013-09-20 21:22:00,61.7,50.2,28.99,WNW,292,0.0,1.0,66,0.00,,BKN002,0.00,0.00,VWS V14.01,2013-09-21 02:22:00,
2013-09-20 21:23:00,61.7,50.2,28.99,WNW,292,0.0,0.0,66,0.00,,BKN002,0.00,0.00,VWS V14.01,2013-09-21 02:23:00,
2013-09-20 21:24:00,61.7,50.6,28.99,WNW,292,0.0,1.0,67,0.00,,BKN002,0.00,0.00,VWS V14.01,2013-09-21 02:24:00,
2013-09-20 21:25:00,61.6,50.1,28.99,WNW,292,0.0,1.0,66,0.00,,BKN002,0.00,0.00,VWS V14.01,2013-09-21 02:25:00,
2013-09-20 21:26:00,61.6,50.5,28.99,WNW,292,0.0,0.0,67,0.00,,BKN002,0.00,0.00,VWS V14.01,2013-09-21 02:26:00,
2013-09-20 21:27:00,61.6,50.5,28.99,WNW,292,0.0,1.0,67,0.00,,BKN002,0.00,0.00,VWS V14.01,2013-09-21 02:27:00,
2013-09-20 21:28:00,61.5,50.5,28.99,WNW,292,0.0,0.0,67,0.00,,BKN002,0.00,0.00,VWS V14.01,2013-09-21 02:28:00,
2013-09-20 21:29:00,61.5,50.5,28.99,WNW,292,0.0,0.0,67,0.00,,BKN002,0.00,0.00,VWS V14.01,2013-09-21 02:29:00,
2013-09-20 21:30:00,61.5,50.5,28.99,WNW,292,0.0,0.0,67,0.00,,BKN002,0.00,0.00,VWS V14.01,2013-09-21 02:30:00,
2013-09-20 21:31:00,61.5,50.5,29.00,WNW,292,0.0,1.0,67,0.00,,BKN002,0.00,0.00,VWS V14.01,2013-09-21 02:31:00,
2013-09-20 21:32:00,61.4,50.4,29.00,WNW,292,0.0,0.0,67,0.00,,BKN002,0.00,0.00,VWS V14.01,2013-09-21 02:32:00,
2013-09-20 21:33:00,61.4,50.4,29.00,WNW,292,0.0,0.0,67,0.00,,BKN002,0.00,0.00,VWS V14.01,2013-09-21 02:33:00,
2013-09-20 21:34:00,61.4,50.4,29.00,WNW,292,0.0,0.0,67,0.00,,BKN002,0.00,0.00,VWS V14.01,2013-09-21 02:34:00,
2013-09-20 21:35:00,61.3,50.7,29.00,WNW,292,0.0,0.0,68,0.00,,BKN002,0.00,0.00,VWS V14.01,2013-09-21 02:35:00,
2013-09-20 21:36:00,61.3,50.7,29.00,WNW,292,0.0,0.0,68,0.00,,BKN002,0.00,0.00,VWS V14.01,2013-09-21 02:36:00,
2013-09-20 21:37:00,61.3,50.7,29.00,WNW,292,0.0,0.0,68,0.00,,BKN002,0.00,0.00,VWS V14.01,2013-09-21 02:37:00,
2013-09-20 21:38:00,61.2,50.6,29.00,WNW,292,0.0,0.0,68,0.00,,BKN002,0.00,0.00,VWS V14.01,2013-09-21 02:38:00,
2013-09-20 21:39:00,61.2,50.6,29.00,WNW,292,0.0,1.0,68,0.00,,BKN002,0.00,0.00,VWS V14.01,2013-09-21 02:39:00,
2013-09-20 21:40:00,61.2,50.6,29.00,WNW,292,0.0,0.0,68,0.00,,BKN002,0.00,0.00,VWS V14.01,2013-09-21 02:40:00,
2013-09-20 21:41:00,61.1,50.5,29.00,WNW,292,0.0,0.0,68,0.00,,BKN002,0.00,0.00,VWS V14.01,2013-09-21 02:41:00,
2013-09-20 21:42:00,61.1,50.5,29.00,WNW,292,0.0,0.0,68,0.00,,BKN002,0.00,0.00,VWS V14.01,2013-09-21 02:42:00,
2013-09-20 21:43:00,61.1,50.5,29.00,WNW,292,0.0,0.0,68,0.00,,BKN002,0.00,0.00,VWS V14.01,2013-09-21 02:43:00,
2013-09-20 21:44:00,61.0,50.4,29.00,WNW,292,0.0,0.0,68,0.00,,BKN002,0.00,0.00,VWS V14.01,2013-09-21 02:44:00,
2013-09-20 21:45:00,61.0,50.4,29.00,WNW,292,0.0,0.0,68,0.00,,BKN002,0.00,0.00,VWS V14.01,2013-09-21 02:45:00,
2013-09-20 21:46:00,60.9,50.7,29.00,WNW,292,0.0,0.0,69,0.00,,BKN002,0.00,0.00,VWS V14.01,2013-09-21 02:46:00,
2013-09-20 21:47:00,60.9,50.7,29.00,WNW,292,0.0,0.0,69,0.00,,BKN002,0.00,0.00,VWS V14.01,2013-09-21 02:47:00,
2013-09-20 21:48:00,60.9,50.7,29.00,WNW,292,0.0,1.0,69,0.00,,BKN002,0.00,0.00,VWS V14.01,2013-09-21 02:48:00,
2013-09-20 21:49:00,60.8,50.6,29.00,WNW,292,0.0,0.0,69,0.00,,BKN002,0.00,0.00,VWS V14.01,2013-09-21 02:49:00,
2013-09-20 21:50:00,60.8,50.6,29.00,WNW,292,0.0,0.0,69,0.00,,BKN002,0.00,0.00,VWS V14.01,2013-09-21 02:50:00,
2013-09-20 21:51:00,60.7,50.5,29.00,WNW,292,0.0,0.0,69,0.00,,BKN002,0.00,0.00,VWS V14.01,2013-09-21 02:51:00,
2013-09-20 21:52:00,60.7,50.9,29.00,WNW,292,0.0,0.0,70,0.00,,BKN002,0.00,0.00,VWS V14.01,2013-09-21 02:52:00,
2013-09-20 21:53:00,60.7,50.9,29.00,WNW,292,0.0,0.0,70,0.00,,BKN002,0.00,0.00,VWS V14.01,2013-09-21 02:53:00,
2013-09-20 21:54:00,60.6,50.8,29.00,WNW,292,0.0,1.0,70,0.00,,BKN002,0.00,0.00,VWS V14.01,2013-09-21 02:54:00,
2013-09-20 21:55:00,60.6,50.8,29.00,WNW,292,0.0,0.0,70,0.00,,BKN002,0.00,0.00,VWS V14.01,2013-09-21 02:55:00,
2013-09-20 21:56:00,60.5,50.7,29.00,WNW,292,0.0,1.0,70,0.00,,BKN002,0.00,0.00,VWS V14.01,2013-09-21 02:56:00,
2013-09-20 21:57:00,60.5,50.7,29.00,WNW,292,0.0,0.0,70,0.00,,BKN002,0.00,0.00,VWS V14.01,2013-09-21 02:57:00,
2013-09-20 21:58:00,60.5,50.7,29.00,WNW,292,0.0,0.0,70,0.00,,BKN002,0.00,0.00,VWS V14.01,2013-09-21 02:58:00,
2013-09-20 21:59:00,60.4,50.6,29.00,WNW,292,0.0,1.0,70,0.00,,BKN002,0.00,0.00,VWS V14.01,2013-09-21 02:59:00,
2013-09-20 22:00:00,60.4,50.6,29.00,WNW,292,0.0,1.0,70,0.00,,BKN002,0.00,0.00,VWS V14.01,2013-09-21 03:00:00,
2013-09-20 22:04:00,60.3,50.5,29.00,WNW,292,0.0,0.0,70,0.00,,BKN002,0.00,0.00,VWS V14.01,2013-09-21 03:04:00,
2013-09-20 22:05:00,60.3,50.5,29.00,WNW,292,0.0,0.0,70,0.00,,BKN002,0.00,0.00,VWS V14.01,2013-09-21 03:05:00,
2013-09-20 22:06:00,60.2,50.8,29.00,WNW,292,0.0,0.0,71,0.00,,BKN002,0.00,0.00,VWS V14.01,2013-09-21 03:06:00,
2013-09-20 22:08:00,60.2,50.8,29.00,WNW,292,0.0,0.0,71,0.00,,BKN002,0.00,0.00,VWS V14.01,2013-09-21 03:08:00,
2013-09-20 22:10:00,60.1,50.7,29.00,WNW,292,0.0,0.0,71,0.00,,BKN002,0.00,0.00,VWS V14.01,2013-09-21 03:10:00,
2013-09-20 22:11:00,60.0,50.6,29.00,WNW,292,0.0,0.0,71,0.00,,BKN002,0.00,0.00,VWS V14.01,2013-09-21 03:11:00,
2013-09-20 22:13:00,60.0,50.6,29.00,WNW,292,0.0,0.0,71,0.00,,BKN002,0.00,0.00,VWS V14.01,2013-09-21 03:13:00,
2013-09-20 22:14:00,60.0,50.6,29.00,WNW,292,0.0,0.0,71,0.00,,BKN002,0.00,0.00,VWS V14.01,2013-09-21 03:14:00,
2013-09-20 22:17:00,59.8,50.8,29.00,WNW,292,0.0,0.0,72,0.00,,BKN002,0.00,0.00,VWS V14.01,2013-09-21 03:17:00,
2013-09-20 22:18:00,59.8,50.8,29.00,WNW,292,0.0,0.0,72,0.00,,BKN002,0.00,0.00,VWS V14.01,2013-09-21 03:18:00,
2013-09-20 22:19:00,59.8,50.8,29.00,WNW,292,0.0,0.0,72,0.00,,BKN002,0.00,0.00,VWS V14.01,2013-09-21 03:19:00,
2013-09-20 22:20:00,59.7,50.7,29.00,WNW,292,0.0,0.0,72,0.00,,BKN002,0.00,0.00,VWS V14.01,2013-09-21 03:20:00,
2013-09-20 22:21:00,59.7,50.7,29.00,WNW,292,0.0,1.0,72,0.00,,BKN002,0.00,0.00,VWS V14.01,2013-09-21 03:21:00,
2013-09-20 22:22:00,59.6,51.0,29.00,WNW,292,0.0,0.0,73,0.00,,BKN002,0.00,0.00,VWS V14.01,2013-09-21 03:22:00,
2013-09-20 22:23:00,59.6,51.0,29.00,WNW,292,0.0,1.0,73,0.00,,BKN002,0.00,0.00,VWS V14.01,2013-09-21 03:23:00,
2013-09-20 22:24:00,59.5,50.8,29.00,WNW,292,0.0,1.0,73,0.00,,BKN002,0.00,0.00,VWS V14.01,2013-09-21 03:24:00,
2013-09-20 22:25:00,59.5,50.8,29.00,WNW,292,0.0,1.0,73,0.00,,BKN002,0.00,0.00,VWS V14.01,2013-09-21 03:25:00,
2013-09-20 22:26:00,59.5,50.8,29.00,WNW,292,0.0,1.0,73,0.00,,BKN002,0.00,0.00,VWS V14.01,2013-09-21 03:26:00,
2013-09-20 22:27:00,59.4,50.8,29.00,WNW,292,0.0,0.0,73,0.00,,BKN002,0.00,0.00,VWS V14.01,2013-09-21 03:27:00,
2013-09-20 22:28:00,59.4,50.8,29.00,WNW,292,0.0,0.0,73,0.00,,BKN002,0.00,0.00,VWS V14.01,2013-09-21 03:28:00,
2013-09-20 22:29:00,59.3,50.7,28.99,WNW,292,0.0,0.0,73,0.00,,BKN002,0.00,0.00,VWS V14.01,2013-09-21 03:29:00,
2013-09-20 22:30:00,59.3,50.7,28.99,WNW,292,0.0,1.0,73,0.00,,BKN002,0.00,0.00,VWS V14.01,2013-09-21 03:30:00,
2013-09-20 22:31:00,59.2,50.9,29.00,WNW,292,0.0,2.0,74,0.00,,BKN002,0.00,0.00,VWS V14.01,2013-09-21 03:31:00,
2013-09-20 22:32:00,59.1,50.8,28.99,SW,225,1.0,3.0,74,0.00,,BKN002,0.00,0.00,VWS V14.01,2013-09-21 03:32:00,
2013-09-20 22:33:00,59.0,50.7,28.99,SW,225,0.0,0.0,74,0.00,,BKN002,0.00,0.00,VWS V14.01,2013-09-21 03:33:00,
2013-09-20 22:34:00,59.0,50.7,28.99,SW,225,0.0,0.0,74,0.00,,BKN002,0.00,0.00,VWS V14.01,2013-09-21 03:34:00,
2013-09-20 22:35:00,59.0,50.7,28.99,SW,225,0.0,0.0,74,0.00,,BKN002,0.00,0.00,VWS V14.01,2013-09-21 03:35:00,
2013-09-20 22:36:00,59.0,50.7,29.00,SW,225,0.0,0.0,74,0.00,,BKN002,0.00,0.00,VWS V14.01,2013-09-21 03:36:00,
2013-09-20 22:37:00,59.0,50.7,28.99,SW,225,0.0,0.0,74,0.00,,BKN002,0.00,0.00,VWS V14.01,2013-09-21 03:37:00,
2013-09-20 22:38:00,59.0,50.7,28.99,SW,225,0.0,0.0,74,0.00,,BKN002,0.00,0.00,VWS V14.01,2013-09-21 03:38:00,
2013-09-20 22:39:00,59.0,50.7,28.99,West,270,0.0,1.0,74,0.00,,BKN002,0.00,0.00,VWS V14.01,2013-09-21 03:39:00,
2013-09-20 22:40:00,59.0,50.7,28.99,West,270,0.0,0.0,74,0.00,,BKN002,0.00,0.00,VWS V14.01,2013-09-21 03:40:00,
2013-09-20 22:41:00,59.0,50.7,28.99,West,270,0.0,0.0,74,0.00,,BKN002,0.00,0.00,VWS V14.01,2013-09-21 03:41:00,
2013-09-20 22:42:00,59.0,50.7,28.99,West,270,0.0,0.0,74,0.00,,BKN002,0.00,0.00,VWS V14.01,2013-09-21 03:42:00,
2013-09-20 22:43:00,59.0,50.7,28.99,West,270,0.0,0.0,74,0.00,,BKN002,0.00,0.00,VWS V14.01,2013-09-21 03:43:00,
2013-09-20 22:44:00,59.0,51.1,28.99,West,270,0.0,0.0,75,0.00,,BKN002,0.00,0.00,VWS V14.01,2013-09-21 03:44:00,
2013-09-20 22:45:00,59.0,50.7,28.99,West,270,0.0,0.0,74,0.00,,BKN002,0.00,0.00,VWS V14.01,2013-09-21 03:45:00,
2013-09-20 22:46:00,59.0,51.1,28.99,West,270,0.0,0.0,75,0.00,,BKN002,0.00,0.00,VWS V14.01,2013-09-21 03:46:00,
2013-09-20 22:47:00,59.0,51.1,28.99,West,270,0.0,0.0,75,0.00,,BKN002,0.00,0.00,VWS V14.01,2013-09-21 03:47:00,
2013-09-20 22:48:00,58.9,51.0,29.00,West,270,0.0,0.0,75,0.00,,BKN002,0.00,0.00,VWS V14.01,2013-09-21 03:48:00,
2013-09-20 22:49:00,58.8,50.9,28.99,West,270,0.0,1.0,75,0.00,,BKN002,0.00,0.00,VWS V14.01,2013-09-21 03:49:00,
2013-09-20 22:50:00,58.7,50.8,28.99,West,270,0.0,0.0,75,0.00,,BKN002,0.00,0.00,VWS V14.01,2013-09-21 03:50:00,
2013-09-20 22:51:00,58.7,50.8,29.00,West,270,0.0,0.0,75,0.00,,BKN002,0.00,0.00,VWS V14.01,2013-09-21 03:51:00,
2013-09-20 22:52:00,58.7,50.8,29.00,West,270,0.0,0.0,75,0.00,,BKN002,0.00,0.00,VWS V14.01,2013-09-21 03:52:00,
2013-09-20 22:53:00,58.7,50.8,28.99,West,270,0.0,0.0,75,0.00,,BKN002,0.00,0.00,VWS V14.01,2013-09-21 03:53:00,
2013-09-20 22:54:00,58.6,50.7,28.99,West,270,0.0,0.0,75,0.00,,BKN002,0.00,0.00,VWS V14.01,2013-09-21 03:54:00,
2013-09-20 22:55:00,58.6,50.7,28.99,West,270,0.0,1.0,75,0.00,,BKN002,0.00,0.00,VWS V14.01,2013-09-21 03:55:00,
2013-09-20 22:56:00,58.6,51.1,28.99,West,270,0.0,1.0,76,0.00,,BKN002,0.00,0.00,VWS V14.01,2013-09-21 03:56:00,
2013-09-20 22:57:00,58.5,51.0,28.99,West,270,0.0,1.0,76,0.00,,BKN002,0.00,0.00,VWS V14.01,2013-09-21 03:57:00,
2013-09-20 22:58:00,58.5,51.0,28.99,West,270,0.0,0.0,76,0.00,,BKN002,0.00,0.00,VWS V14.01,2013-09-21 03:58:00,
2013-09-20 22:59:00,58.5,51.0,29.00,West,270,0.0,0.0,76,0.00,,BKN002,0.00,0.00,VWS V14.01,2013-09-21 03:59:00,
2013-09-20 23:00:00,58.4,50.9,28.99,West,270,0.0,0.0,76,0.00,,BKN002,0.00,0.00,VWS V14.01,2013-09-21 04:00:00,
2013-09-20 23:01:00,58.4,50.9,29.00,West,270,0.0,0.0,76,0.00,,BKN002,0.00,0.00,VWS V14.01,2013-09-21 04:01:00,
2013-09-20 23:02:00,58.4,50.9,29.00,West,270,0.0,1.0,76,0.00,,BKN002,0.00,0.00,VWS V14.01,2013-09-21 04:02:00,
2013-09-20 23:03:00,58.3,50.8,29.00,West,270,0.0,0.0,76,0.00,,BKN002,0.00,0.00,VWS V14.01,2013-09-21 04:03:00,
2013-09-20 23:04:00,58.3,50.8,29.00,West,270,0.0,0.0,76,0.00,,BKN002,0.00,0.00,VWS V14.01,2013-09-21 04:04:00,
2013-09-20 23:05:00,58.2,50.7,29.00,West,270,0.0,0.0,76,0.00,,BKN002,0.00,0.00,VWS V14.01,2013-09-21 04:05:00,
2013-09-20 23:06:00,58.2,50.7,29.00,West,270,0.0,0.0,76,0.00,,BKN002,0.00,0.00,VWS V14.01,2013-09-21 04:06:00,
2013-09-20 23:07:00,58.2,50.7,29.00,West,270,0.0,0.0,76,0.00,,BKN002,0.00,0.00,VWS V14.01,2013-09-21 04:07:00,
2013-09-20 23:08:00,58.2,50.7,29.00,West,270,0.0,0.0,76,0.00,,BKN002,0.00,0.00,VWS V14.01,2013-09-21 04:08:00,
2013-09-20 23:09:00,58.2,50.7,29.00,West,270,0.0,0.0,76,0.00,,BKN002,0.00,0.00,VWS V14.01,2013-09-21 04:09:00,
2013-09-20 23:10:00,58.1,50.6,29.00,West,270,0.0,0.0,76,0.00,,BKN002,0.00,0.00,VWS V14.01,2013-09-21 04:10:00,
2013-09-20 23:11:00,58.1,50.6,29.00,West,270,0.0,0.0,76,0.00,,BKN002,0.00,0.00,VWS V14.01,2013-09-21 04:11:00,
2013-09-20 23:12:00,58.1,50.9,29.00,West,270,0.0,0.0,77,0.00,,BKN002,0.00,0.00,VWS V14.01,2013-09-21 04:12:00,
2013-09-20 23:13:00,58.0,50.8,29.00,West,270,0.0,1.0,77,0.00,,BKN002,0.00,0.00,VWS V14.01,2013-09-21 04:13:00,
2013-09-20 23:14:00,58.0,50.8,29.00,West,270,0.0,1.0,77,0.00,,BKN002,0.00,0.00,VWS V14.01,2013-09-21 04:14:00,
2013-09-20 23:15:00,58.0,50.8,29.00,West,270,0.0,1.0,77,0.00,,BKN002,0.00,0.00,VWS V14.01,2013-09-21 04:15:00,
2013-09-20 23:16:00,58.0,50.8,29.00,West,270,0.0,0.0,77,0.00,,BKN002,0.00,0.00,VWS V14.01,2013-09-21 04:16:00,
2013-09-20 23:17:00,57.9,50.7,29.00,West,270,0.0,0.0,77,0.00,,BKN002,0.00,0.00,VWS V14.01,2013-09-21 04:17:00,
2013-09-20 23:18:00,57.9,50.7,29.00,West,270,0.0,0.0,77,0.00,,BKN002,0.00,0.00,VWS V14.01,2013-09-21 04:18:00,
2013-09-20 23:19:00,57.9,50.7,29.00,West,270,0.0,0.0,77,0.00,,BKN002,0.00,0.00,VWS V14.01,2013-09-21 04:19:00,
2013-09-20 23:20:00,57.8,50.7,29.00,West,270,0.0,0.0,77,0.00,,BKN002,0.00,0.00,VWS V14.01,2013-09-21 04:20:00,
2013-09-20 23:21:00,57.8,50.7,29.00,West,270,0.0,0.0,77,0.00,,BKN002,0.00,0.00,VWS V14.01,2013-09-21 04:21:00,
2013-09-20 23:22:00,57.8,50.7,29.00,West,270,0.0,0.0,77,0.00,,BKN002,0.00,0.00,VWS V14.01,2013-09-21 04:22:00,
2013-09-20 23:23:00,57.8,50.7,29.00,West,270,0.0,0.0,77,0.00,,BKN002,0.00,0.00,VWS V14.01,2013-09-21 04:23:00,
2013-09-20 23:24:00,57.8,50.7,29.00,West,270,0.0,1.0,77,0.00,,BKN002,0.00,0.00,VWS V14.01,2013-09-21 04:24:00,
2013-09-20 23:25:00,57.7,50.5,29.00,West,270,0.0,0.0,77,0.00,,BKN002,0.00,0.00,VWS V14.01,2013-09-21 04:25:00,
2013-09-20 23:26:00,57.7,50.5,29.00,West,270,0.0,1.0,77,0.00,,BKN002,0.00,0.00,VWS V14.01,2013-09-21 04:26:00,
2013-09-20 23:27:00,57.7,50.5,29.00,West,270,0.0,0.0,77,0.00,,BKN002,0.00,0.00,VWS V14.01,2013-09-21 04:27:00,
2013-09-20 23:28:00,57.7,50.9,29.00,West,270,0.0,1.0,78,0.00,,BKN002,0.00,0.00,VWS V14.01,2013-09-21 04:28:00,
2013-09-20 23:29:00,57.6,50.8,29.00,West,270,0.0,0.0,78,0.00,,BKN002,0.00,0.00,VWS V14.01,2013-09-21 04:29:00,
2013-09-20 23:30:00,57.6,50.8,29.00,West,270,0.0,1.0,78,0.00,,BKN002,0.00,0.00,VWS V14.01,2013-09-21 04:30:00,
2013-09-20 23:31:00,57.6,50.8,29.00,West,270,0.0,0.0,78,0.00,,BKN002,0.00,0.00,VWS V14.01,2013-09-21 04:31:00,
2013-09-20 23:32:00,57.5,50.7,29.00,West,270,0.0,1.0,78,0.00,,BKN002,0.00,0.00,VWS V14.01,2013-09-21 04:32:00,
2013-09-20 23:33:00,57.5,50.7,29.00,West,270,0.0,0.0,78,0.00,,BKN002,0.00,0.00,VWS V14.01,2013-09-21 04:33:00,
2013-09-20 23:34:00,57.5,50.7,29.00,West,270,0.0,1.0,78,0.00,,BKN002,0.00,0.00,VWS V14.01,2013-09-21 04:34:00,
2013-09-20 23:35:00,57.5,50.7,29.00,West,270,0.0,0.0,78,0.00,,BKN002,0.00,0.00,VWS V14.01,2013-09-21 04:35:00,
2013-09-20 23:36:00,57.5,50.7,29.00,West,270,0.0,0.0,78,0.00,,BKN002,0.00,0.00,VWS V14.01,2013-09-21 04:36:00,
2013-09-20 23:37:00,57.4,50.6,29.00,West,270,0.0,0.0,78,0.00,,BKN002,0.00,0.00,VWS V14.01,2013-09-21 04:37:00,
2013-09-20 23:38:00,57.4,50.6,29.00,West,270,0.0,0.0,78,0.00,,BKN002,0.00,0.00,VWS V14.01,2013-09-21 04:38:00,
2013-09-20 23:39:00,57.4,50.6,29.00,West,270,0.0,0.0,78,0.00,,BKN002,0.00,0.00,VWS V14.01,2013-09-21 04:39:00,
2013-09-20 23:40:00,57.4,50.6,29.00,West,270,0.0,0.0,78,0.00,,BKN002,0.00,0.00,VWS V14.01,2013-09-21 04:40:00,
2013-09-20 23:41:00,57.4,50.6,29.00,West,270,0.0,0.0,78,0.00,,BKN002,0.00,0.00,VWS V14.01,2013-09-21 04:41:00,
2013-09-20 23:42:00,57.4,50.6,29.00,West,270,0.0,1.0,78,0.00,,BKN002,0.00,0.00,VWS V14.01,2013-09-21 04:42:00,
2013-09-20 23:43:00,57.3,50.5,29.00,West,270,0.0,0.0,78,0.00,,BKN002,0.00,0.00,VWS V14.01,2013-09-21 04:43:00,
2013-09-20 23:44:00,57.3,50.5,29.00,West,270,0.0,1.0,78,0.00,,BKN002,0.00,0.00,VWS V14.01,2013-09-21 04:44:00,
2013-09-20 23:45:00,57.3,50.5,28.99,West,270,0.0,0.0,78,0.00,,BKN002,0.00,0.00,VWS V14.01,2013-09-21 04:45:00,
2013-09-20 23:46:00,57.3,50.5,28.99,West,270,0.0,0.0,78,0.00,,BKN002,0.00,0.00,VWS V14.01,2013-09-21 04:46:00,
2013-09-20 23:47:00,57.3,50.5,29.00,West,270,0.0,0.0,78,0.00,,BKN002,0.00,0.00,VWS V14.01,2013-09-21 04:47:00,
2013-09-20 23:48:00,57.2,50.4,29.00,West,270,0.0,0.0,78,0.00,,BKN002,0.00,0.00,VWS V14.01,2013-09-21 04:48:00,
2013-09-20 23:49:00,57.2,50.4,29.00,West,270,0.0,0.0,78,0.00,,BKN002,0.00,0.00,VWS V14.01,2013-09-21 04:49:00,
2013-09-20 23:50:00,57.2,50.4,28.99,West,270,0.0,0.0,78,0.00,,BKN002,0.00,0.00,VWS V14.01,2013-09-21 04:50:00,
2013-09-20 23:51:00,57.2,50.4,29.00,West,270,0.0,0.0,78,0.00,,BKN002,0.00,0.00,VWS V14.01,2013-09-21 04:51:00,
2013-09-20 23:52:00,57.2,50.4,29.00,West,270,0.0,0.0,78,0.00,,BKN002,0.00,0.00,VWS V14.01,2013-09-21 04:52:00,
2013-09-20 23:53:00,57.2,50.4,28.99,West,270,0.0,0.0,78,0.00,,BKN002,0.00,0.00,VWS V14.01,2013-09-21 04:53:00,
2013-09-20 23:54:00,57.1,50.3,28.99,West,270,0.0,1.0,78,0.00,,BKN002,0.00,0.00,VWS V14.01,2013-09-21 04:54:00,
2013-09-20 23:55:00,57.1,50.7,28.99,West,270,0.0,1.0,79,0.00,,BKN002,0.00,0.00,VWS V14.01,2013-09-21 04:55:00,
2013-09-20 23:56:00,57.1,50.7,28.99,West,270,0.0,0.0,79,0.00,,BKN002,0.00,0.00,VWS V14.01,2013-09-21 04:56:00,
2013-09-20 23:58:00,57.0,50.6,28.99,West,270,0.0,0.0,79,0.00,,BKN002,0.00,0.00,VWS V14.01,2013-09-21 04:58:00,
2013-09-20 23:59:00,57.0,50.6,28.99,West,270,0.0,0.0,79,0.00,,BKN002,0.00,0.00,VWS V14.01,2013-09-21 04:59:00,